Wetterdaten: Freitag, 22.03.2024
Datum Zeit Temp. 2m Temp +5 cm Feuchte A. Luftdruck Regen Wind Richtung Richtung Sonnenschein UV Solar Taupunkt Windchill Windben
22.03.2024 00:00 7,7 C 6,7 C 89 % 1025,7 hPa 0,0 l/m 3,2 km/h (1 Bft) SW 225 0 min 0,0 UV-I 0 W/m 6,0 C 7,7 C 4,8 km/h (1 Bft)
22.03.2024 00:01 7,7 C 6,7 C 89 % 1025,6 hPa 0,0 l/m 4,8 km/h (1 Bft) SW 225 0 min 0,0 UV-I 0 W/m 6,0 C 7,7 C 6,4 km/h (2 Bft)
22.03.2024 00:02 7,7 C 6,7 C 89 % 1025,7 hPa 0,0 l/m 4,8 km/h (1 Bft) SW 225 0 min 0,0 UV-I 0 W/m 6,0 C 7,7 C 6,4 km/h (2 Bft)
22.03.2024 00:03 7,7 C 6,7 C 89 % 1025,6 hPa 0,0 l/m 3,2 km/h (1 Bft) SW 225 0 min 0,0 UV-I 0 W/m 6,0 C 7,7 C 4,8 km/h (1 Bft)
22.03.2024 00:04 7,7 C 6,7 C 89 % 1025,6 hPa 0,0 l/m 3,2 km/h (1 Bft) SW 225 0 min 0,0 UV-I 0 W/m 6,0 C 7,7 C 4,8 km/h (1 Bft)
22.03.2024 00:05 7,7 C 6,7 C 89 % 1025,6 hPa 0,0 l/m 3,2 km/h (1 Bft) SW 225 0 min 0,0 UV-I 0 W/m 6,0 C 7,7 C 4,8 km/h (1 Bft)
22.03.2024 00:06 7,8 C 6,7 C 89 % 1025,5 hPa 0,0 l/m 4,8 km/h (1 Bft) SW 225 0 min 0,0 UV-I 0 W/m 6,1 C 7,8 C 6,4 km/h (2 Bft)
22.03.2024 00:07 7,8 C 6,7 C 89 % 1025,5 hPa 0,0 l/m 4,8 km/h (1 Bft) SW 225 0 min 0,0 UV-I 0 W/m 6,1 C 7,8 C 8,0 km/h (2 Bft)
22.03.2024 00:08 7,8 C 6,7 C 89 % 1025,5 hPa 0,0 l/m 6,4 km/h (2 Bft) SW 225 0 min 0,0 UV-I 0 W/m 6,1 C 7,8 C 8,0 km/h (2 Bft)
22.03.2024 00:09 7,8 C 6,7 C 89 % 1025,5 hPa 0,0 l/m 6,4 km/h (2 Bft) SW 225 0 min 0,0 UV-I 0 W/m 6,1 C 7,8 C 8,0 km/h (2 Bft)
22.03.2024 00:10 7,8 C 6,7 C 89 % 1025,5 hPa 0,0 l/m 8,0 km/h (2 Bft) SW 225 0 min 0,0 UV-I 0 W/m 6,1 C 6,5 C 8,0 km/h (2 Bft)
22.03.2024 00:11 7,8 C 6,7 C 89 % 1025,4 hPa 0,0 l/m 8,0 km/h (2 Bft) SW 225 0 min 0,0 UV-I 0 W/m 6,1 C 6,5 C 9,7 km/h (2 Bft)
22.03.2024 00:12 7,8 C 7,2 C 89 % 1025,4 hPa 0,0 l/m 8,0 km/h (2 Bft) SW 225 0 min 0,0 UV-I 0 W/m 6,1 C 6,5 C 9,7 km/h (2 Bft)
22.03.2024 00:13 7,8 C 7,2 C 89 % 1025,5 hPa 0,0 l/m 8,0 km/h (2 Bft) S-SW 202 0 min 0,0 UV-I 0 W/m 6,1 C 6,5 C 9,7 km/h (2 Bft)
22.03.2024 00:14 7,8 C 7,2 C 88 % 1025,5 hPa 0,0 l/m 6,4 km/h (2 Bft) S-SW 202 0 min 0,0 UV-I 0 W/m 5,9 C 7,8 C 8,0 km/h (2 Bft)
22.03.2024 00:15 7,8 C 7,2 C 88 % 1025,4 hPa 0,0 l/m 6,4 km/h (2 Bft) S-SW 202 0 min 0,0 UV-I 0 W/m 5,9 C 7,8 C 9,7 km/h (2 Bft)
22.03.2024 00:16 7,8 C 7,2 C 88 % 1025,5 hPa 0,0 l/m 6,4 km/h (2 Bft) S-SW 202 0 min 0,0 UV-I 0 W/m 5,9 C 7,8 C 8,0 km/h (2 Bft)
22.03.2024 00:17 7,8 C 7,2 C 88 % 1025,4 hPa 0,0 l/m 6,4 km/h (2 Bft) S-SW 202 0 min 0,0 UV-I 0 W/m 5,9 C 7,8 C 9,7 km/h (2 Bft)
22.03.2024 00:18 7,8 C 6,7 C 88 % 1025,4 hPa 0,0 l/m 6,4 km/h (2 Bft) S-SW 202 0 min 0,0 UV-I 0 W/m 5,9 C 7,8 C 9,7 km/h (2 Bft)
22.03.2024 00:19 7,8 C 7,2 C 88 % 1025,5 hPa 0,0 l/m 4,8 km/h (1 Bft) S-SW 202 0 min 0,0 UV-I 0 W/m 5,9 C 7,8 C 6,4 km/h (2 Bft)
22.03.2024 00:20 7,8 C 6,7 C 88 % 1025,5 hPa 0,0 l/m 4,8 km/h (1 Bft) S-SW 202 0 min 0,0 UV-I 0 W/m 5,9 C 7,8 C 6,4 km/h (2 Bft)
22.03.2024 00:21 7,8 C 7,2 C 88 % 1025,5 hPa 0,0 l/m 6,4 km/h (2 Bft) S-SW 202 0 min 0,0 UV-I 0 W/m 5,9 C 7,8 C 8,0 km/h (2 Bft)
22.03.2024 00:22 7,8 C 7,2 C 88 % 1025,4 hPa 0,0 l/m 9,7 km/h (2 Bft) S-SW 202 0 min 0,0 UV-I 0 W/m 5,9 C 5,4 C 11,3 km/h (2 Bft)
22.03.2024 00:23 7,8 C 7,2 C 88 % 1025,5 hPa 0,0 l/m 6,4 km/h (2 Bft) S 180 0 min 0,0 UV-I 0 W/m 5,9 C 7,8 C 11,3 km/h (2 Bft)
22.03.2024 00:24 7,8 C 7,2 C 88 % 1025,4 hPa 0,0 l/m 6,4 km/h (2 Bft) S 180 0 min 0,0 UV-I 0 W/m 5,9 C 7,8 C 8,0 km/h (2 Bft)
22.03.2024 00:25 7,8 C 7,2 C 88 % 1025,4 hPa 0,0 l/m 6,4 km/h (2 Bft) S 180 0 min 0,0 UV-I 0 W/m 5,9 C 7,8 C 8,0 km/h (2 Bft)
22.03.2024 00:26 7,8 C 7,2 C 88 % 1025,3 hPa 0,0 l/m 6,4 km/h (2 Bft) S 180 0 min 0,0 UV-I 0 W/m 5,9 C 7,8 C 8,0 km/h (2 Bft)
22.03.2024 00:27 7,8 C 7,2 C 88 % 1025,3 hPa 0,0 l/m 6,4 km/h (2 Bft) S 180 0 min 0,0 UV-I 0 W/m 5,9 C 7,8 C 8,0 km/h (2 Bft)
22.03.2024 00:28 7,8 C 7,2 C 88 % 1025,3 hPa 0,0 l/m 6,4 km/h (2 Bft) S 180 0 min 0,0 UV-I 0 W/m 5,9 C 7,8 C 6,4 km/h (2 Bft)
22.03.2024 00:29 7,8 C 7,2 C 88 % 1025,4 hPa 0,0 l/m 4,8 km/h (1 Bft) S 180 0 min 0,0 UV-I 0 W/m 5,9 C 7,8 C 6,4 km/h (2 Bft)
22.03.2024 00:30 7,8 C 6,7 C 88 % 1025,2 hPa 0,0 l/m 4,8 km/h (1 Bft) S 180 0 min 0,0 UV-I 0 W/m 5,9 C 7,8 C 6,4 km/h (2 Bft)
22.03.2024 00:31 7,8 C 6,7 C 88 % 1025,3 hPa 0,0 l/m 4,8 km/h (1 Bft) S 180 0 min 0,0 UV-I 0 W/m 5,9 C 7,8 C 6,4 km/h (2 Bft)
22.03.2024 00:32 7,8 C 6,7 C 88 % 1025,2 hPa 0,0 l/m 4,8 km/h (1 Bft) S-SW 202 0 min 0,0 UV-I 0 W/m 5,9 C 7,8 C 6,4 km/h (2 Bft)
22.03.2024 00:33 7,8 C 6,7 C 88 % 1025,2 hPa 0,0 l/m 6,4 km/h (2 Bft) S-SW 202 0 min 0,0 UV-I 0 W/m 5,9 C 7,8 C 8,0 km/h (2 Bft)
22.03.2024 00:34 7,8 C 6,7 C 88 % 1025,2 hPa 0,0 l/m 4,8 km/h (1 Bft) S-SW 202 0 min 0,0 UV-I 0 W/m 5,9 C 7,8 C 8,0 km/h (2 Bft)
22.03.2024 00:35 7,8 C 6,7 C 88 % 1025,1 hPa 0,0 l/m 4,8 km/h (1 Bft) S-SW 202 0 min 0,0 UV-I 0 W/m 5,9 C 7,8 C 8,0 km/h (2 Bft)
22.03.2024 00:36 7,8 C 6,7 C 88 % 1025,0 hPa 0,0 l/m 4,8 km/h (1 Bft) S-SW 202 0 min 0,0 UV-I 0 W/m 5,9 C 7,8 C 8,0 km/h (2 Bft)
22.03.2024 00:37 7,8 C 6,7 C 88 % 1025,1 hPa 0,0 l/m 6,4 km/h (2 Bft) S-SW 202 0 min 0,0 UV-I 0 W/m 5,9 C 7,8 C 6,4 km/h (2 Bft)
22.03.2024 00:38 7,8 C 6,7 C 88 % 1025,1 hPa 0,0 l/m 4,8 km/h (1 Bft) S-SW 202 0 min 0,0 UV-I 0 W/m 5,9 C 7,8 C 6,4 km/h (2 Bft)
22.03.2024 00:39 7,8 C 6,7 C 88 % 1025,1 hPa 0,0 l/m 4,8 km/h (1 Bft) S-SW 202 0 min 0,0 UV-I 0 W/m 5,9 C 7,8 C 8,0 km/h (2 Bft)
22.03.2024 00:40 7,8 C 6,7 C 88 % 1025,1 hPa 0,0 l/m 8,0 km/h (2 Bft) S-SW 202 0 min 0,0 UV-I 0 W/m 5,9 C 6,5 C 9,7 km/h (2 Bft)
22.03.2024 00:41 7,8 C 6,7 C 88 % 1025,0 hPa 0,0 l/m 8,0 km/h (2 Bft) S-SW 202 0 min 0,0 UV-I 0 W/m 5,9 C 6,5 C 9,7 km/h (2 Bft)
22.03.2024 00:42 7,7 C 6,7 C 88 % 1025,1 hPa 0,0 l/m 8,0 km/h (2 Bft) S-SW 202 0 min 0,0 UV-I 0 W/m 5,8 C 6,4 C 11,3 km/h (2 Bft)
22.03.2024 00:43 7,8 C 6,7 C 88 % 1025,1 hPa 0,0 l/m 8,0 km/h (2 Bft) S-SW 202 0 min 0,0 UV-I 0 W/m 5,9 C 6,5 C 9,7 km/h (2 Bft)
22.03.2024 00:44 7,8 C 6,7 C 89 % 1025,1 hPa 0,0 l/m 8,0 km/h (2 Bft) S-SW 202 0 min 0,0 UV-I 0 W/m 6,1 C 6,5 C 9,7 km/h (2 Bft)
22.03.2024 00:45 7,7 C 6,7 C 89 % 1025,1 hPa 0,0 l/m 6,4 km/h (2 Bft) S-SW 202 0 min 0,0 UV-I 0 W/m 6,0 C 7,7 C 9,7 km/h (2 Bft)
22.03.2024 00:46 7,8 C 6,7 C 89 % 1025,1 hPa 0,0 l/m 6,4 km/h (2 Bft) S-SW 202 0 min 0,0 UV-I 0 W/m 6,1 C 7,8 C 9,7 km/h (2 Bft)
22.03.2024 00:47 7,8 C 6,7 C 89 % 1025,1 hPa 0,0 l/m 4,8 km/h (1 Bft) S-SW 202 0 min 0,0 UV-I 0 W/m 6,1 C 7,8 C 8,0 km/h (2 Bft)
22.03.2024 00:48 7,8 C 6,7 C 89 % 1025,1 hPa 0,0 l/m 6,4 km/h (2 Bft) S-SW 202 0 min 0,0 UV-I 0 W/m 6,1 C 7,8 C 8,0 km/h (2 Bft)
22.03.2024 00:49 7,7 C 6,7 C 89 % 1025,1 hPa 0,0 l/m 6,4 km/h (2 Bft) S-SW 202 0 min 0,0 UV-I 0 W/m 6,0 C 7,7 C 8,0 km/h (2 Bft)
22.03.2024 00:50 7,8 C 6,7 C 89 % 1025,1 hPa 0,0 l/m 6,4 km/h (2 Bft) S-SW 202 0 min 0,0 UV-I 0 W/m 6,1 C 7,8 C 8,0 km/h (2 Bft)
22.03.2024 00:51 7,7 C 6,7 C 89 % 1025,0 hPa 0,0 l/m 6,4 km/h (2 Bft) S-SW 202 0 min 0,0 UV-I 0 W/m 6,0 C 7,7 C 11,3 km/h (2 Bft)
22.03.2024 00:52 7,7 C 6,7 C 89 % 1025,1 hPa 0,0 l/m 6,4 km/h (2 Bft) S-SW 202 0 min 0,0 UV-I 0 W/m 6,0 C 7,7 C 8,0 km/h (2 Bft)
22.03.2024 00:53 7,7 C 6,7 C 89 % 1025,2 hPa 0,0 l/m 8,0 km/h (2 Bft) S-SW 202 0 min 0,0 UV-I 0 W/m 6,0 C 6,4 C 11,3 km/h (2 Bft)
22.03.2024 00:54 7,8 C 6,7 C 89 % 1025,1 hPa 0,0 l/m 8,0 km/h (2 Bft) S-SW 202 0 min 0,0 UV-I 0 W/m 6,1 C 6,5 C 9,7 km/h (2 Bft)
22.03.2024 00:55 7,8 C 7,2 C 89 % 1025,1 hPa 0,0 l/m 6,4 km/h (2 Bft) S-SW 202 0 min 0,0 UV-I 0 W/m 6,1 C 7,8 C 8,0 km/h (2 Bft)
22.03.2024 00:56 7,7 C 7,2 C 89 % 1025,2 hPa 0,0 l/m 6,4 km/h (2 Bft) S-SW 202 0 min 0,0 UV-I 0 W/m 6,0 C 7,7 C 8,0 km/h (2 Bft)
22.03.2024 00:57 7,8 C 7,2 C 89 % 1025,1 hPa 0,0 l/m 6,4 km/h (2 Bft) S-SW 202 0 min 0,0 UV-I 0 W/m 6,1 C 7,8 C 9,7 km/h (2 Bft)
22.03.2024 00:58 7,8 C 7,2 C 89 % 1025,0 hPa 0,0 l/m 4,8 km/h (1 Bft) S-SW 202 0 min 0,0 UV-I 0 W/m 6,1 C 7,8 C 6,4 km/h (2 Bft)
22.03.2024 00:59 7,7 C 7,2 C 89 % 1025,1 hPa 0,0 l/m 4,8 km/h (1 Bft) S-SW 202 0 min 0,0 UV-I 0 W/m 6,0 C 7,7 C 6,4 km/h (2 Bft)
22.03.2024 01:00 7,7 C 6,7 C 89 % 1025,0 hPa 0,0 l/m 6,4 km/h (2 Bft) S-SW 202 0 min 0,0 UV-I 0 W/m 6,0 C 7,7 C 8,0 km/h (2 Bft)
22.03.2024 01:01 7,8 C 6,7 C 89 % 1025,1 hPa 0,0 l/m 6,4 km/h (2 Bft) S-SW 202 0 min 0,0 UV-I 0 W/m 6,1 C 7,8 C 8,0 km/h (2 Bft)
22.03.2024 01:02 7,7 C 6,7 C 89 % 1025,1 hPa 0,0 l/m 8,0 km/h (2 Bft) S-SW 202 0 min 0,0 UV-I 0 W/m 6,0 C 6,4 C 9,7 km/h (2 Bft)
22.03.2024 01:03 7,7 C 6,7 C 89 % 1025,0 hPa 0,0 l/m 4,8 km/h (1 Bft) S-SW 202 0 min 0,0 UV-I 0 W/m 6,0 C 7,7 C 6,4 km/h (2 Bft)
22.03.2024 01:04 7,7 C 6,7 C 89 % 1025,0 hPa 0,0 l/m 6,4 km/h (2 Bft) S-SW 202 0 min 0,0 UV-I 0 W/m 6,0 C 7,7 C 8,0 km/h (2 Bft)
22.03.2024 01:05 7,7 C 7,2 C 89 % 1025,0 hPa 0,0 l/m 6,4 km/h (2 Bft) S-SW 202 0 min 0,0 UV-I 0 W/m 6,0 C 7,7 C 8,0 km/h (2 Bft)
22.03.2024 01:06 7,8 C 7,2 C 89 % 1025,0 hPa 0,0 l/m 6,4 km/h (2 Bft) S-SW 202 0 min 0,0 UV-I 0 W/m 6,1 C 7,8 C 8,0 km/h (2 Bft)
22.03.2024 01:07 7,8 C 7,2 C 89 % 1024,9 hPa 0,0 l/m 4,8 km/h (1 Bft) S-SW 202 0 min 0,0 UV-I 0 W/m 6,1 C 7,8 C 6,4 km/h (2 Bft)
22.03.2024 01:08 7,8 C 7,2 C 89 % 1025,1 hPa 0,0 l/m 4,8 km/h (1 Bft) S-SW 202 0 min 0,0 UV-I 0 W/m 6,1 C 7,8 C 4,8 km/h (1 Bft)
22.03.2024 01:09 7,8 C 7,2 C 89 % 1024,9 hPa 0,0 l/m 6,4 km/h (2 Bft) S-SW 202 0 min 0,0 UV-I 0 W/m 6,1 C 7,8 C 8,0 km/h (2 Bft)
22.03.2024 01:10 7,8 C 7,2 C 89 % 1024,9 hPa 0,0 l/m 4,8 km/h (1 Bft) S-SW 202 0 min 0,0 UV-I 0 W/m 6,1 C 7,8 C 6,4 km/h (2 Bft)
22.03.2024 01:11 7,7 C 7,2 C 89 % 1024,9 hPa 0,0 l/m 4,8 km/h (1 Bft) S-SW 202 0 min 0,0 UV-I 0 W/m 6,0 C 7,7 C 4,8 km/h (1 Bft)
22.03.2024 01:12 7,7 C 7,2 C 89 % 1024,9 hPa 0,0 l/m 4,8 km/h (1 Bft) S-SW 202 0 min 0,0 UV-I 0 W/m 6,0 C 7,7 C 6,4 km/h (2 Bft)
22.03.2024 01:13 7,7 C 6,7 C 89 % 1024,9 hPa 0,0 l/m 3,2 km/h (1 Bft) S-SW 202 0 min 0,0 UV-I 0 W/m 6,0 C 7,7 C 8,0 km/h (2 Bft)
22.03.2024 01:14 7,7 C 6,7 C 89 % 1024,9 hPa 0,0 l/m 4,8 km/h (1 Bft) S-SW 202 0 min 0,0 UV-I 0 W/m 6,0 C 7,7 C 8,0 km/h (2 Bft)
22.03.2024 01:15 7,7 C 6,7 C 89 % 1025,0 hPa 0,0 l/m 3,2 km/h (1 Bft) S-SW 202 0 min 0,0 UV-I 0 W/m 6,0 C 7,7 C 4,8 km/h (1 Bft)
22.03.2024 01:16 7,7 C 6,7 C 89 % 1024,9 hPa 0,0 l/m 4,8 km/h (1 Bft) S-SW 202 0 min 0,0 UV-I 0 W/m 6,0 C 7,7 C 6,4 km/h (2 Bft)
22.03.2024 01:17 7,7 C 6,7 C 89 % 1024,9 hPa 0,0 l/m 4,8 km/h (1 Bft) S-SW 202 0 min 0,0 UV-I 0 W/m 6,0 C 7,7 C 6,4 km/h (2 Bft)
22.03.2024 01:18 7,7 C 6,7 C 89 % 1024,9 hPa 0,0 l/m 6,4 km/h (2 Bft) S-SW 202 0 min 0,0 UV-I 0 W/m 6,0 C 7,7 C 6,4 km/h (2 Bft)
22.03.2024 01:19 7,7 C 6,7 C 89 % 1024,9 hPa 0,0 l/m 4,8 km/h (1 Bft) S-SW 202 0 min 0,0 UV-I 0 W/m 6,0 C 7,7 C 6,4 km/h (2 Bft)
22.03.2024 01:20 7,7 C 6,7 C 89 % 1024,9 hPa 0,0 l/m 4,8 km/h (1 Bft) S-SW 202 0 min 0,0 UV-I 0 W/m 6,0 C 7,7 C 6,4 km/h (2 Bft)
22.03.2024 01:21 7,7 C 6,7 C 89 % 1024,9 hPa 0,0 l/m 4,8 km/h (1 Bft) S-SW 202 0 min 0,0 UV-I 0 W/m 6,0 C 7,7 C 6,4 km/h (2 Bft)
22.03.2024 01:22 7,7 C 6,7 C 89 % 1024,9 hPa 0,0 l/m 3,2 km/h (1 Bft) S-SW 202 0 min 0,0 UV-I 0 W/m 6,0 C 7,7 C 6,4 km/h (2 Bft)
22.03.2024 01:23 7,7 C 6,7 C 89 % 1024,8 hPa 0,0 l/m 4,8 km/h (1 Bft) S-SW 202 0 min 0,0 UV-I 0 W/m 6,0 C 7,7 C 6,4 km/h (2 Bft)
22.03.2024 01:24 7,7 C 6,7 C 89 % 1024,9 hPa 0,0 l/m 4,8 km/h (1 Bft) S-SW 202 0 min 0,0 UV-I 0 W/m 6,0 C 7,7 C 6,4 km/h (2 Bft)
22.03.2024 01:25 7,7 C 6,7 C 89 % 1024,8 hPa 0,0 l/m 3,2 km/h (1 Bft) S-SW 202 0 min 0,0 UV-I 0 W/m 6,0 C 7,7 C 6,4 km/h (2 Bft)
22.03.2024 01:26 7,7 C 6,7 C 89 % 1024,8 hPa 0,0 l/m 4,8 km/h (1 Bft) S-SW 202 0 min 0,0 UV-I 0 W/m 6,0 C 7,7 C 6,4 km/h (2 Bft)
22.03.2024 01:27 7,7 C 6,7 C 89 % 1024,7 hPa 0,0 l/m 6,4 km/h (2 Bft) S-SW 202 0 min 0,0 UV-I 0 W/m 6,0 C 7,7 C 8,0 km/h (2 Bft)
22.03.2024 01:28 7,7 C 6,7 C 89 % 1024,8 hPa 0,0 l/m 6,4 km/h (2 Bft) S-SW 202 0 min 0,0 UV-I 0 W/m 6,0 C 7,7 C 9,7 km/h (2 Bft)
22.03.2024 01:29 7,7 C 6,7 C 89 % 1024,7 hPa 0,0 l/m 6,4 km/h (2 Bft) S-SW 202 0 min 0,0 UV-I 0 W/m 6,0 C 7,7 C 8,0 km/h (2 Bft)
22.03.2024 01:30 7,7 C 6,7 C 89 % 1024,8 hPa 0,0 l/m 4,8 km/h (1 Bft) S-SW 202 0 min 0,0 UV-I 0 W/m 6,0 C 7,7 C 4,8 km/h (1 Bft)
22.03.2024 01:31 7,7 C 6,7 C 89 % 1024,8 hPa 0,0 l/m 6,4 km/h (2 Bft) S-SW 202 0 min 0,0 UV-I 0 W/m 6,0 C 7,7 C 9,7 km/h (2 Bft)
22.03.2024 01:32 7,8 C 6,7 C 89 % 1024,8 hPa 0,0 l/m 6,4 km/h (2 Bft) S-SW 202 0 min 0,0 UV-I 0 W/m 6,1 C 7,8 C 8,0 km/h (2 Bft)
22.03.2024 01:33 7,7 C 6,7 C 89 % 1024,8 hPa 0,0 l/m 6,4 km/h (2 Bft) S-SW 202 0 min 0,0 UV-I 0 W/m 6,0 C 7,7 C 9,7 km/h (2 Bft)
22.03.2024 01:34 7,7 C 6,7 C 89 % 1024,8 hPa 0,0 l/m 6,4 km/h (2 Bft) S-SW 202 0 min 0,0 UV-I 0 W/m 6,0 C 7,7 C 9,7 km/h (2 Bft)
22.03.2024 01:35 7,7 C 6,7 C 89 % 1024,8 hPa 0,0 l/m 6,4 km/h (2 Bft) S-SW 202 0 min 0,0 UV-I 0 W/m 6,0 C 7,7 C 9,7 km/h (2 Bft)
22.03.2024 01:36 7,7 C 6,7 C 89 % 1024,8 hPa 0,0 l/m 4,8 km/h (1 Bft) S-SW 202 0 min 0,0 UV-I 0 W/m 6,0 C 7,7 C 8,0 km/h (2 Bft)
22.03.2024 01:37 7,8 C 6,7 C 89 % 1024,8 hPa 0,0 l/m 8,0 km/h (2 Bft) S-SW 202 0 min 0,0 UV-I 0 W/m 6,1 C 6,5 C 11,3 km/h (2 Bft)
22.03.2024 01:38 7,7 C 6,7 C 89 % 1024,8 hPa 0,0 l/m 8,0 km/h (2 Bft) S-SW 202 0 min 0,0 UV-I 0 W/m 6,0 C 6,4 C 11,3 km/h (2 Bft)
22.03.2024 01:39 7,7 C 7,2 C 89 % 1024,8 hPa 0,0 l/m 6,4 km/h (2 Bft) S 180 0 min 0,0 UV-I 0 W/m 6,0 C 7,7 C 9,7 km/h (2 Bft)
22.03.2024 01:40 7,8 C 7,2 C 89 % 1024,6 hPa 0,0 l/m 6,4 km/h (2 Bft) S 180 0 min 0,0 UV-I 0 W/m 6,1 C 7,8 C 9,7 km/h (2 Bft)
22.03.2024 01:41 7,8 C 7,2 C 89 % 1024,6 hPa 0,0 l/m 6,4 km/h (2 Bft) S 180 0 min 0,0 UV-I 0 W/m 6,1 C 7,8 C 9,7 km/h (2 Bft)
22.03.2024 01:42 7,8 C 7,2 C 89 % 1024,7 hPa 0,0 l/m 8,0 km/h (2 Bft) S-SW 202 0 min 0,0 UV-I 0 W/m 6,1 C 6,5 C 9,7 km/h (2 Bft)
22.03.2024 01:43 7,8 C 7,2 C 89 % 1024,6 hPa 0,0 l/m 6,4 km/h (2 Bft) S-SW 202 0 min 0,0 UV-I 0 W/m 6,1 C 7,8 C 9,7 km/h (2 Bft)
22.03.2024 01:44 7,8 C 7,2 C 89 % 1024,6 hPa 0,0 l/m 6,4 km/h (2 Bft) S-SW 202 0 min 0,0 UV-I 0 W/m 6,1 C 7,8 C 8,0 km/h (2 Bft)
22.03.2024 01:45 7,8 C 7,2 C 89 % 1024,6 hPa 0,0 l/m 6,4 km/h (2 Bft) S-SW 202 0 min 0,0 UV-I 0 W/m 6,1 C 7,8 C 8,0 km/h (2 Bft)
22.03.2024 01:46 7,8 C 7,2 C 89 % 1024,6 hPa 0,0 l/m 8,0 km/h (2 Bft) S-SW 202 0 min 0,0 UV-I 0 W/m 6,1 C 6,5 C 9,7 km/h (2 Bft)
22.03.2024 01:47 7,8 C 6,7 C 89 % 1024,6 hPa 0,0 l/m 4,8 km/h (1 Bft) S-SW 202 0 min 0,0 UV-I 0 W/m 6,1 C 7,8 C 6,4 km/h (2 Bft)
22.03.2024 01:48 7,8 C 6,7 C 89 % 1024,6 hPa 0,0 l/m 6,4 km/h (2 Bft) S-SW 202 0 min 0,0 UV-I 0 W/m 6,1 C 7,8 C 8,0 km/h (2 Bft)
22.03.2024 01:49 7,8 C 6,7 C 89 % 1024,7 hPa 0,0 l/m 8,0 km/h (2 Bft) S-SW 202 0 min 0,0 UV-I 0 W/m 6,1 C 6,5 C 9,7 km/h (2 Bft)
22.03.2024 01:50 7,8 C 6,7 C 89 % 1024,6 hPa 0,0 l/m 6,4 km/h (2 Bft) S-SW 202 0 min 0,0 UV-I 0 W/m 6,1 C 7,8 C 11,3 km/h (2 Bft)
22.03.2024 01:51 7,8 C 6,7 C 89 % 1024,7 hPa 0,0 l/m 6,4 km/h (2 Bft) S 180 0 min 0,0 UV-I 0 W/m 6,1 C 7,8 C 9,7 km/h (2 Bft)
22.03.2024 01:52 7,8 C 7,2 C 89 % 1024,5 hPa 0,0 l/m 4,8 km/h (1 Bft) S 180 0 min 0,0 UV-I 0 W/m 6,1 C 7,8 C 6,4 km/h (2 Bft)
22.03.2024 01:53 7,8 C 7,2 C 89 % 1024,6 hPa 0,0 l/m 6,4 km/h (2 Bft) S 180 0 min 0,0 UV-I 0 W/m 6,1 C 7,8 C 8,0 km/h (2 Bft)
22.03.2024 01:54 7,8 C 7,2 C 89 % 1024,6 hPa 0,0 l/m 6,4 km/h (2 Bft) S 180 0 min 0,0 UV-I 0 W/m 6,1 C 7,8 C 8,0 km/h (2 Bft)
22.03.2024 01:55 7,8 C 7,2 C 89 % 1024,6 hPa 0,0 l/m 4,8 km/h (1 Bft) S 180 0 min 0,0 UV-I 0 W/m 6,1 C 7,8 C 6,4 km/h (2 Bft)
22.03.2024 01:56 7,8 C 6,7 C 89 % 1024,5 hPa 0,0 l/m 6,4 km/h (2 Bft) S 180 0 min 0,0 UV-I 0 W/m 6,1 C 7,8 C 8,0 km/h (2 Bft)
22.03.2024 01:57 7,8 C 6,7 C 89 % 1024,6 hPa 0,0 l/m 6,4 km/h (2 Bft) S 180 0 min 0,0 UV-I 0 W/m 6,1 C 7,8 C 9,7 km/h (2 Bft)
22.03.2024 01:58 7,7 C 6,7 C 89 % 1024,6 hPa 0,0 l/m 4,8 km/h (1 Bft) S 180 0 min 0,0 UV-I 0 W/m 6,0 C 7,7 C 8,0 km/h (2 Bft)
22.03.2024 01:59 7,7 C 7,2 C 89 % 1024,5 hPa 0,0 l/m 4,8 km/h (1 Bft) S 180 0 min 0,0 UV-I 0 W/m 6,0 C 7,7 C 6,4 km/h (2 Bft)
22.03.2024 02:00 7,8 C 7,2 C 89 % 1024,4 hPa 0,0 l/m 4,8 km/h (1 Bft) S 180 0 min 0,0 UV-I 0 W/m 6,1 C 7,8 C 6,4 km/h (2 Bft)
22.03.2024 02:01 7,7 C 7,2 C 89 % 1024,4 hPa 0,0 l/m 4,8 km/h (1 Bft) S 180 0 min 0,0 UV-I 0 W/m 6,0 C 7,7 C 6,4 km/h (2 Bft)
22.03.2024 02:02 7,7 C 7,2 C 89 % 1024,4 hPa 0,0 l/m 4,8 km/h (1 Bft) S 180 0 min 0,0 UV-I 0 W/m 6,0 C 7,7 C 6,4 km/h (2 Bft)
22.03.2024 02:03 7,7 C 6,7 C 89 % 1024,5 hPa 0,0 l/m 6,4 km/h (2 Bft) S 180 0 min 0,0 UV-I 0 W/m 6,0 C 7,7 C 6,4 km/h (2 Bft)
22.03.2024 02:04 7,7 C 6,7 C 89 % 1024,3 hPa 0,0 l/m 4,8 km/h (1 Bft) S 180 0 min 0,0 UV-I 0 W/m 6,0 C 7,7 C 4,8 km/h (1 Bft)
22.03.2024 02:05 7,7 C 7,2 C 89 % 1024,4 hPa 0,0 l/m 4,8 km/h (1 Bft) S 180 0 min 0,0 UV-I 0 W/m 6,0 C 7,7 C 6,4 km/h (2 Bft)
22.03.2024 02:06 7,8 C 6,7 C 89 % 1024,4 hPa 0,0 l/m 4,8 km/h (1 Bft) S 180 0 min 0,0 UV-I 0 W/m 6,1 C 7,8 C 6,4 km/h (2 Bft)
22.03.2024 02:07 7,8 C 7,2 C 89 % 1024,3 hPa 0,0 l/m 6,4 km/h (2 Bft) S 180 0 min 0,0 UV-I 0 W/m 6,1 C 7,8 C 6,4 km/h (2 Bft)
22.03.2024 02:08 7,7 C 7,2 C 89 % 1024,3 hPa 0,0 l/m 6,4 km/h (2 Bft) S 180 0 min 0,0 UV-I 0 W/m 6,0 C 7,7 C 6,4 km/h (2 Bft)
22.03.2024 02:09 7,8 C 7,2 C 89 % 1024,3 hPa 0,0 l/m 6,4 km/h (2 Bft) S 180 0 min 0,0 UV-I 0 W/m 6,1 C 7,8 C 8,0 km/h (2 Bft)
22.03.2024 02:10 7,8 C 7,2 C 89 % 1024,3 hPa 0,0 l/m 4,8 km/h (1 Bft) S 180 0 min 0,0 UV-I 0 W/m 6,1 C 7,8 C 6,4 km/h (2 Bft)
22.03.2024 02:11 7,8 C 7,2 C 89 % 1024,3 hPa 0,0 l/m 6,4 km/h (2 Bft) S 180 0 min 0,0 UV-I 0 W/m 6,1 C 7,8 C 8,0 km/h (2 Bft)
22.03.2024 02:12 7,8 C 7,2 C 89 % 1024,3 hPa 0,0 l/m 6,4 km/h (2 Bft) S 180 0 min 0,0 UV-I 0 W/m 6,1 C 7,8 C 9,7 km/h (2 Bft)
22.03.2024 02:13 7,8 C 7,2 C 89 % 1024,4 hPa 0,0 l/m 6,4 km/h (2 Bft) S 180 0 min 0,0 UV-I 0 W/m 6,1 C 7,8 C 9,7 km/h (2 Bft)
22.03.2024 02:14 7,8 C 7,2 C 89 % 1024,3 hPa 0,0 l/m 6,4 km/h (2 Bft) S 180 0 min 0,0 UV-I 0 W/m 6,1 C 7,8 C 9,7 km/h (2 Bft)
22.03.2024 02:15 7,8 C 7,2 C 89 % 1024,4 hPa 0,0 l/m 4,8 km/h (1 Bft) S-SW 202 0 min 0,0 UV-I 0 W/m 6,1 C 7,8 C 6,4 km/h (2 Bft)
22.03.2024 02:16 7,8 C 7,2 C 89 % 1024,2 hPa 0,0 l/m 4,8 km/h (1 Bft) S-SW 202 0 min 0,0 UV-I 0 W/m 6,1 C 7,8 C 6,4 km/h (2 Bft)
22.03.2024 02:17 7,8 C 7,2 C 89 % 1024,3 hPa 0,0 l/m 6,4 km/h (2 Bft) S-SW 202 0 min 0,0 UV-I 0 W/m 6,1 C 7,8 C 6,4 km/h (2 Bft)
22.03.2024 02:18 7,8 C 7,2 C 89 % 1024,2 hPa 0,0 l/m 4,8 km/h (1 Bft) S-SW 202 0 min 0,0 UV-I 0 W/m 6,1 C 7,8 C 6,4 km/h (2 Bft)
22.03.2024 02:19 7,8 C 7,2 C 89 % 1024,3 hPa 0,0 l/m 4,8 km/h (1 Bft) S-SW 202 0 min 0,0 UV-I 0 W/m 6,1 C 7,8 C 6,4 km/h (2 Bft)
22.03.2024 02:20 7,8 C 7,2 C 89 % 1024,2 hPa 0,0 l/m 4,8 km/h (1 Bft) S-SW 202 0 min 0,0 UV-I 0 W/m 6,1 C 7,8 C 8,0 km/h (2 Bft)
22.03.2024 02:21 7,9 C 7,2 C 89 % 1024,2 hPa 0,0 l/m 6,4 km/h (2 Bft) S 180 0 min 0,0 UV-I 0 W/m 6,2 C 7,9 C 8,0 km/h (2 Bft)
22.03.2024 02:22 7,9 C 7,2 C 89 % 1024,2 hPa 0,0 l/m 6,4 km/h (2 Bft) S 180 0 min 0,0 UV-I 0 W/m 6,2 C 7,9 C 9,7 km/h (2 Bft)
22.03.2024 02:23 7,9 C 7,2 C 89 % 1024,2 hPa 0,0 l/m 4,8 km/h (1 Bft) S 180 0 min 0,0 UV-I 0 W/m 6,2 C 7,9 C 8,0 km/h (2 Bft)
22.03.2024 02:24 7,9 C 7,2 C 89 % 1024,2 hPa 0,0 l/m 3,2 km/h (1 Bft) S 180 0 min 0,0 UV-I 0 W/m 6,2 C 7,9 C 4,8 km/h (1 Bft)
22.03.2024 02:25 7,9 C 7,2 C 89 % 1024,2 hPa 0,0 l/m 4,8 km/h (1 Bft) S 180 0 min 0,0 UV-I 0 W/m 6,2 C 7,9 C 6,4 km/h (2 Bft)
22.03.2024 02:26 7,9 C 7,2 C 89 % 1024,2 hPa 0,0 l/m 4,8 km/h (1 Bft) S 180 0 min 0,0 UV-I 0 W/m 6,2 C 7,9 C 8,0 km/h (2 Bft)
22.03.2024 02:27 7,9 C 7,2 C 89 % 1024,1 hPa 0,0 l/m 3,2 km/h (1 Bft) S 180 0 min 0,0 UV-I 0 W/m 6,2 C 7,9 C 4,8 km/h (1 Bft)
22.03.2024 02:28 7,9 C 7,2 C 89 % 1024,2 hPa 0,0 l/m 4,8 km/h (1 Bft) S 180 0 min 0,0 UV-I 0 W/m 6,2 C 7,9 C 6,4 km/h (2 Bft)
22.03.2024 02:29 7,9 C 7,2 C 89 % 1024,2 hPa 0,0 l/m 4,8 km/h (1 Bft) S 180 0 min 0,0 UV-I 0 W/m 6,2 C 7,9 C 6,4 km/h (2 Bft)
22.03.2024 02:30 7,9 C 7,2 C 89 % 1024,2 hPa 0,0 l/m 4,8 km/h (1 Bft) S 180 0 min 0,0 UV-I 0 W/m 6,2 C 7,9 C 8,0 km/h (2 Bft)
22.03.2024 02:31 7,9 C 7,2 C 89 % 1024,0 hPa 0,0 l/m 4,8 km/h (1 Bft) S 180 0 min 0,0 UV-I 0 W/m 6,2 C 7,9 C 6,4 km/h (2 Bft)
22.03.2024 02:32 7,9 C 7,2 C 89 % 1024,2 hPa 0,0 l/m 4,8 km/h (1 Bft) S 180 0 min 0,0 UV-I 0 W/m 6,2 C 7,9 C 6,4 km/h (2 Bft)
22.03.2024 02:33 7,9 C 7,2 C 89 % 1024,1 hPa 0,0 l/m 6,4 km/h (2 Bft) S 180 0 min 0,0 UV-I 0 W/m 6,2 C 7,9 C 9,7 km/h (2 Bft)
22.03.2024 02:34 8,0 C 7,2 C 89 % 1024,1 hPa 0,0 l/m 4,8 km/h (1 Bft) S 180 0 min 0,0 UV-I 0 W/m 6,3 C 8,0 C 8,0 km/h (2 Bft)
22.03.2024 02:35 8,0 C 7,2 C 89 % 1024,0 hPa 0,0 l/m 6,4 km/h (2 Bft) S 180 0 min 0,0 UV-I 0 W/m 6,3 C 8,0 C 12,9 km/h (3 Bft)
22.03.2024 02:36 8,0 C 7,2 C 89 % 1024,1 hPa 0,0 l/m 8,0 km/h (2 Bft) S-SW 202 0 min 0,0 UV-I 0 W/m 6,3 C 6,8 C 11,3 km/h (2 Bft)
22.03.2024 02:37 8,0 C 7,2 C 89 % 1024,0 hPa 0,0 l/m 6,4 km/h (2 Bft) S-SW 202 0 min 0,0 UV-I 0 W/m 6,3 C 8,0 C 12,9 km/h (3 Bft)
22.03.2024 02:38 8,0 C 7,2 C 89 % 1024,0 hPa 0,0 l/m 8,0 km/h (2 Bft) S-SW 202 0 min 0,0 UV-I 0 W/m 6,3 C 6,8 C 12,9 km/h (3 Bft)
22.03.2024 02:39 8,1 C 7,2 C 89 % 1024,0 hPa 0,0 l/m 8,0 km/h (2 Bft) S-SW 202 0 min 0,0 UV-I 0 W/m 6,4 C 6,9 C 12,9 km/h (3 Bft)
22.03.2024 02:40 8,0 C 7,2 C 89 % 1023,9 hPa 0,0 l/m 8,0 km/h (2 Bft) S-SW 202 0 min 0,0 UV-I 0 W/m 6,3 C 6,8 C 9,7 km/h (2 Bft)
22.03.2024 02:41 8,0 C 7,2 C 89 % 1024,0 hPa 0,0 l/m 6,4 km/h (2 Bft) S-SW 202 0 min 0,0 UV-I 0 W/m 6,3 C 8,0 C 9,7 km/h (2 Bft)
22.03.2024 02:42 8,0 C 7,2 C 89 % 1023,9 hPa 0,0 l/m 8,0 km/h (2 Bft) S-SW 202 0 min 0,0 UV-I 0 W/m 6,3 C 6,8 C 12,9 km/h (3 Bft)
22.03.2024 02:43 8,1 C 7,2 C 89 % 1023,9 hPa 0,0 l/m 8,0 km/h (2 Bft) S-SW 202 0 min 0,0 UV-I 0 W/m 6,4 C 6,9 C 11,3 km/h (2 Bft)
22.03.2024 02:44 8,1 C 7,2 C 89 % 1023,9 hPa 0,0 l/m 11,3 km/h (2 Bft) S-SW 202 0 min 0,0 UV-I 0 W/m 6,4 C 4,7 C 12,9 km/h (3 Bft)
22.03.2024 02:45 8,1 C 7,2 C 89 % 1023,8 hPa 0,0 l/m 8,0 km/h (2 Bft) S-SW 202 0 min 0,0 UV-I 0 W/m 6,4 C 6,9 C 14,5 km/h (3 Bft)
22.03.2024 02:46 8,1 C 7,8 C 89 % 1023,9 hPa 0,0 l/m 9,7 km/h (2 Bft) S-SW 202 0 min 0,0 UV-I 0 W/m 6,4 C 5,7 C 14,5 km/h (3 Bft)
22.03.2024 02:47 8,1 C 7,2 C 89 % 1023,8 hPa 0,0 l/m 8,0 km/h (2 Bft) S-SW 202 0 min 0,0 UV-I 0 W/m 6,4 C 6,9 C 9,7 km/h (2 Bft)
22.03.2024 02:48 8,1 C 7,2 C 89 % 1023,8 hPa 0,0 l/m 8,0 km/h (2 Bft) S-SW 202 0 min 0,0 UV-I 0 W/m 6,4 C 6,9 C 11,3 km/h (2 Bft)
22.03.2024 02:49 8,1 C 7,8 C 89 % 1023,8 hPa 0,0 l/m 9,7 km/h (2 Bft) S-SW 202 0 min 0,0 UV-I 0 W/m 6,4 C 5,7 C 12,9 km/h (3 Bft)
22.03.2024 02:50 8,1 C 7,8 C 89 % 1023,8 hPa 0,0 l/m 6,4 km/h (2 Bft) S-SW 202 0 min 0,0 UV-I 0 W/m 6,4 C 8,1 C 9,7 km/h (2 Bft)
22.03.2024 02:51 8,1 C 7,8 C 89 % 1023,9 hPa 0,0 l/m 4,8 km/h (1 Bft) S-SW 202 0 min 0,0 UV-I 0 W/m 6,4 C 8,1 C 8,0 km/h (2 Bft)
22.03.2024 02:52 8,1 C 7,8 C 89 % 1023,8 hPa 0,0 l/m 6,4 km/h (2 Bft) S-SW 202 0 min 0,0 UV-I 0 W/m 6,4 C 8,1 C 11,3 km/h (2 Bft)
22.03.2024 02:53 8,1 C 7,8 C 89 % 1023,9 hPa 0,0 l/m 8,0 km/h (2 Bft) S 180 0 min 0,0 UV-I 0 W/m 6,4 C 6,9 C 11,3 km/h (2 Bft)
22.03.2024 02:54 8,1 C 7,8 C 89 % 1023,9 hPa 0,0 l/m 6,4 km/h (2 Bft) S 180 0 min 0,0 UV-I 0 W/m 6,4 C 8,1 C 9,7 km/h (2 Bft)
22.03.2024 02:55 8,1 C 7,8 C 89 % 1023,8 hPa 0,0 l/m 8,0 km/h (2 Bft) S 180 0 min 0,0 UV-I 0 W/m 6,4 C 6,9 C 14,5 km/h (3 Bft)
22.03.2024 02:56 8,2 C 7,8 C 89 % 1023,8 hPa 0,0 l/m 8,0 km/h (2 Bft) S 180 0 min 0,0 UV-I 0 W/m 6,5 C 7,0 C 12,9 km/h (3 Bft)
22.03.2024 02:57 8,2 C 7,8 C 89 % 1023,7 hPa 0,0 l/m 8,0 km/h (2 Bft) S-SW 202 0 min 0,0 UV-I 0 W/m 6,5 C 7,0 C 9,7 km/h (2 Bft)
22.03.2024 02:58 8,2 C 7,8 C 89 % 1023,8 hPa 0,0 l/m 6,4 km/h (2 Bft) S-SW 202 0 min 0,0 UV-I 0 W/m 6,5 C 8,2 C 11,3 km/h (2 Bft)
22.03.2024 02:59 8,2 C 7,8 C 89 % 1023,7 hPa 0,0 l/m 8,0 km/h (2 Bft) S 180 0 min 0,0 UV-I 0 W/m 6,5 C 7,0 C 9,7 km/h (2 Bft)
22.03.2024 03:00 8,2 C 7,8 C 89 % 1023,7 hPa 0,0 l/m 6,4 km/h (2 Bft) S 180 0 min 0,0 UV-I 0 W/m 6,5 C 8,2 C 9,7 km/h (2 Bft)
22.03.2024 03:01 8,2 C 7,8 C 89 % 1023,7 hPa 0,0 l/m 9,7 km/h (2 Bft) S 180 0 min 0,0 UV-I 0 W/m 6,5 C 5,8 C 11,3 km/h (2 Bft)
22.03.2024 03:02 8,2 C 7,8 C 89 % 1023,7 hPa 0,0 l/m 4,8 km/h (1 Bft) S 180 0 min 0,0 UV-I 0 W/m 6,5 C 8,2 C 6,4 km/h (2 Bft)
22.03.2024 03:03 8,2 C 7,8 C 89 % 1023,7 hPa 0,0 l/m 4,8 km/h (1 Bft) S 180 0 min 0,0 UV-I 0 W/m 6,5 C 8,2 C 6,4 km/h (2 Bft)
22.03.2024 03:04 8,2 C 7,8 C 88 % 1023,7 hPa 0,0 l/m 6,4 km/h (2 Bft) S 180 0 min 0,0 UV-I 0 W/m 6,3 C 8,2 C 9,7 km/h (2 Bft)
22.03.2024 03:05 8,2 C 7,8 C 88 % 1023,6 hPa 0,0 l/m 6,4 km/h (2 Bft) S-SW 202 0 min 0,0 UV-I 0 W/m 6,3 C 8,2 C 8,0 km/h (2 Bft)
22.03.2024 03:06 8,2 C 7,8 C 88 % 1023,6 hPa 0,0 l/m 6,4 km/h (2 Bft) S-SW 202 0 min 0,0 UV-I 0 W/m 6,3 C 8,2 C 6,4 km/h (2 Bft)
22.03.2024 03:07 8,1 C 7,8 C 89 % 1023,6 hPa 0,0 l/m 6,4 km/h (2 Bft) S-SW 202 0 min 0,0 UV-I 0 W/m 6,4 C 8,1 C 8,0 km/h (2 Bft)
22.03.2024 03:08 8,2 C 7,8 C 89 % 1023,6 hPa 0,0 l/m 4,8 km/h (1 Bft) S-SW 202 0 min 0,0 UV-I 0 W/m 6,5 C 8,2 C 6,4 km/h (2 Bft)
22.03.2024 03:09 8,2 C 7,8 C 89 % 1023,6 hPa 0,0 l/m 6,4 km/h (2 Bft) S-SW 202 0 min 0,0 UV-I 0 W/m 6,5 C 8,2 C 8,0 km/h (2 Bft)
22.03.2024 03:10 8,2 C 7,8 C 89 % 1023,6 hPa 0,0 l/m 4,8 km/h (1 Bft) S-SW 202 0 min 0,0 UV-I 0 W/m 6,5 C 8,2 C 4,8 km/h (1 Bft)
22.03.2024 03:11 8,2 C 7,2 C 89 % 1023,5 hPa 0,0 l/m 3,2 km/h (1 Bft) S-SW 202 0 min 0,0 UV-I 0 W/m 6,5 C 8,2 C 4,8 km/h (1 Bft)
22.03.2024 03:12 8,1 C 7,2 C 89 % 1023,5 hPa 0,0 l/m 4,8 km/h (1 Bft) S-SW 202 0 min 0,0 UV-I 0 W/m 6,4 C 8,1 C 6,4 km/h (2 Bft)
22.03.2024 03:13 8,1 C 7,2 C 89 % 1023,6 hPa 0,0 l/m 4,8 km/h (1 Bft) S-SW 202 0 min 0,0 UV-I 0 W/m 6,4 C 8,1 C 6,4 km/h (2 Bft)
22.03.2024 03:14 8,1 C 7,2 C 89 % 1023,6 hPa 0,0 l/m 6,4 km/h (2 Bft) S-SW 202 0 min 0,0 UV-I 0 W/m 6,4 C 8,1 C 8,0 km/h (2 Bft)
22.03.2024 03:15 8,1 C 7,2 C 89 % 1023,5 hPa 0,0 l/m 6,4 km/h (2 Bft) S-SW 202 0 min 0,0 UV-I 0 W/m 6,4 C 8,1 C 6,4 km/h (2 Bft)
22.03.2024 03:16 8,1 C 7,2 C 89 % 1023,6 hPa 0,0 l/m 6,4 km/h (2 Bft) S-SW 202 0 min 0,0 UV-I 0 W/m 6,4 C 8,1 C 9,7 km/h (2 Bft)
22.03.2024 03:17 8,1 C 7,2 C 89 % 1023,6 hPa 0,0 l/m 6,4 km/h (2 Bft) S-SW 202 0 min 0,0 UV-I 0 W/m 6,4 C 8,1 C 11,3 km/h (2 Bft)
22.03.2024 03:18 8,1 C 7,2 C 89 % 1023,5 hPa 0,0 l/m 6,4 km/h (2 Bft) S-SW 202 0 min 0,0 UV-I 0 W/m 6,4 C 8,1 C 8,0 km/h (2 Bft)
22.03.2024 03:19 8,1 C 7,2 C 89 % 1023,5 hPa 0,0 l/m 8,0 km/h (2 Bft) S-SW 202 0 min 0,0 UV-I 0 W/m 6,4 C 6,9 C 9,7 km/h (2 Bft)
22.03.2024 03:20 8,1 C 7,8 C 89 % 1023,5 hPa 0,0 l/m 6,4 km/h (2 Bft) S-SW 202 0 min 0,0 UV-I 0 W/m 6,4 C 8,1 C 9,7 km/h (2 Bft)
22.03.2024 03:21 8,1 C 7,2 C 89 % 1023,5 hPa 0,0 l/m 6,4 km/h (2 Bft) S-SW 202 0 min 0,0 UV-I 0 W/m 6,4 C 8,1 C 8,0 km/h (2 Bft)
22.03.2024 03:22 8,1 C 7,2 C 89 % 1023,4 hPa 0,0 l/m 6,4 km/h (2 Bft) S-SW 202 0 min 0,0 UV-I 0 W/m 6,4 C 8,1 C 8,0 km/h (2 Bft)
22.03.2024 03:23 8,1 C 7,2 C 89 % 1023,4 hPa 0,0 l/m 6,4 km/h (2 Bft) S-SW 202 0 min 0,0 UV-I 0 W/m 6,4 C 8,1 C 8,0 km/h (2 Bft)
22.03.2024 03:24 8,1 C 7,2 C 89 % 1023,4 hPa 0,0 l/m 6,4 km/h (2 Bft) S-SW 202 0 min 0,0 UV-I 0 W/m 6,4 C 8,1 C 8,0 km/h (2 Bft)
22.03.2024 03:25 8,1 C 7,2 C 89 % 1023,3 hPa 0,0 l/m 4,8 km/h (1 Bft) S-SW 202 0 min 0,0 UV-I 0 W/m 6,4 C 8,1 C 6,4 km/h (2 Bft)
22.03.2024 03:26 8,1 C 7,2 C 89 % 1023,3 hPa 0,0 l/m 6,4 km/h (2 Bft) S-SW 202 0 min 0,0 UV-I 0 W/m 6,4 C 8,1 C 9,7 km/h (2 Bft)
22.03.2024 03:27 8,0 C 7,2 C 89 % 1023,3 hPa 0,0 l/m 6,4 km/h (2 Bft) SW 225 0 min 0,0 UV-I 0 W/m 6,3 C 8,0 C 11,3 km/h (2 Bft)
22.03.2024 03:28 8,1 C 7,2 C 89 % 1023,3 hPa 0,0 l/m 4,8 km/h (1 Bft) SW 225 0 min 0,0 UV-I 0 W/m 6,4 C 8,1 C 6,4 km/h (2 Bft)
22.03.2024 03:29 8,1 C 7,2 C 89 % 1023,3 hPa 0,0 l/m 6,4 km/h (2 Bft) SW 225 0 min 0,0 UV-I 0 W/m 6,4 C 8,1 C 8,0 km/h (2 Bft)
22.03.2024 03:30 8,1 C 7,2 C 89 % 1023,3 hPa 0,0 l/m 6,4 km/h (2 Bft) S-SW 202 0 min 0,0 UV-I 0 W/m 6,4 C 8,1 C 9,7 km/h (2 Bft)
22.03.2024 03:31 8,0 C 7,2 C 89 % 1023,2 hPa 0,0 l/m 6,4 km/h (2 Bft) S-SW 202 0 min 0,0 UV-I 0 W/m 6,3 C 8,0 C 8,0 km/h (2 Bft)
22.03.2024 03:32 8,0 C 7,2 C 89 % 1023,2 hPa 0,0 l/m 8,0 km/h (2 Bft) S-SW 202 0 min 0,0 UV-I 0 W/m 6,3 C 6,8 C 9,7 km/h (2 Bft)
22.03.2024 03:33 8,1 C 7,2 C 89 % 1023,2 hPa 0,0 l/m 6,4 km/h (2 Bft) S-SW 202 0 min 0,0 UV-I 0 W/m 6,4 C 8,1 C 8,0 km/h (2 Bft)
22.03.2024 03:34 8,0 C 7,2 C 89 % 1023,2 hPa 0,0 l/m 6,4 km/h (2 Bft) S 180 0 min 0,0 UV-I 0 W/m 6,3 C 8,0 C 11,3 km/h (2 Bft)
22.03.2024 03:35 8,0 C 7,2 C 89 % 1023,2 hPa 0,0 l/m 3,2 km/h (1 Bft) S 180 0 min 0,0 UV-I 0 W/m 6,3 C 8,0 C 6,4 km/h (2 Bft)
22.03.2024 03:36 8,0 C 7,2 C 89 % 1023,2 hPa 0,0 l/m 8,0 km/h (2 Bft) S-SW 202 0 min 0,0 UV-I 0 W/m 6,3 C 6,8 C 9,7 km/h (2 Bft)
22.03.2024 03:37 8,0 C 7,2 C 89 % 1023,2 hPa 0,0 l/m 6,4 km/h (2 Bft) S-SW 202 0 min 0,0 UV-I 0 W/m 6,3 C 8,0 C 9,7 km/h (2 Bft)
22.03.2024 03:38 8,0 C 7,2 C 89 % 1023,2 hPa 0,0 l/m 6,4 km/h (2 Bft) SW 225 0 min 0,0 UV-I 0 W/m 6,3 C 8,0 C 8,0 km/h (2 Bft)
22.03.2024 03:39 8,0 C 7,2 C 89 % 1023,2 hPa 0,0 l/m 6,4 km/h (2 Bft) SW 225 0 min 0,0 UV-I 0 W/m 6,3 C 8,0 C 8,0 km/h (2 Bft)
22.03.2024 03:40 8,0 C 7,2 C 89 % 1023,1 hPa 0,0 l/m 6,4 km/h (2 Bft) SW 225 0 min 0,0 UV-I 0 W/m 6,3 C 8,0 C 8,0 km/h (2 Bft)
22.03.2024 03:41 8,0 C 7,2 C 89 % 1023,1 hPa 0,0 l/m 8,0 km/h (2 Bft) SW 225 0 min 0,0 UV-I 0 W/m 6,3 C 6,8 C 9,7 km/h (2 Bft)
22.03.2024 03:42 8,0 C 7,2 C 89 % 1023,1 hPa 0,0 l/m 4,8 km/h (1 Bft) S-SW 202 0 min 0,0 UV-I 0 W/m 6,3 C 8,0 C 8,0 km/h (2 Bft)
22.03.2024 03:43 8,0 C 7,2 C 89 % 1023,1 hPa 0,0 l/m 6,4 km/h (2 Bft) S-SW 202 0 min 0,0 UV-I 0 W/m 6,3 C 8,0 C 8,0 km/h (2 Bft)
22.03.2024 03:44 8,0 C 7,2 C 89 % 1023,1 hPa 0,0 l/m 6,4 km/h (2 Bft) S-SW 202 0 min 0,0 UV-I 0 W/m 6,3 C 8,0 C 8,0 km/h (2 Bft)
22.03.2024 03:45 8,0 C 7,2 C 89 % 1023,1 hPa 0,0 l/m 6,4 km/h (2 Bft) S-SW 202 0 min 0,0 UV-I 0 W/m 6,3 C 8,0 C 8,0 km/h (2 Bft)
22.03.2024 03:46 8,1 C 7,2 C 89 % 1023,1 hPa 0,0 l/m 6,4 km/h (2 Bft) S-SW 202 0 min 0,0 UV-I 0 W/m 6,4 C 8,1 C 9,7 km/h (2 Bft)
22.03.2024 03:47 8,1 C 7,2 C 89 % 1023,1 hPa 0,0 l/m 6,4 km/h (2 Bft) S-SW 202 0 min 0,0 UV-I 0 W/m 6,4 C 8,1 C 8,0 km/h (2 Bft)
22.03.2024 03:48 8,1 C 7,2 C 89 % 1023,1 hPa 0,0 l/m 6,4 km/h (2 Bft) S-SW 202 0 min 0,0 UV-I 0 W/m 6,4 C 8,1 C 6,4 km/h (2 Bft)
22.03.2024 03:49 8,1 C 7,2 C 89 % 1023,0 hPa 0,0 l/m 4,8 km/h (1 Bft) S-SW 202 0 min 0,0 UV-I 0 W/m 6,4 C 8,1 C 6,4 km/h (2 Bft)
22.03.2024 03:50 8,1 C 7,2 C 89 % 1023,1 hPa 0,0 l/m 6,4 km/h (2 Bft) S-SW 202 0 min 0,0 UV-I 0 W/m 6,4 C 8,1 C 8,0 km/h (2 Bft)
22.03.2024 03:51 8,1 C 7,2 C 89 % 1023,0 hPa 0,0 l/m 4,8 km/h (1 Bft) S-SW 202 0 min 0,0 UV-I 0 W/m 6,4 C 8,1 C 6,4 km/h (2 Bft)
22.03.2024 03:52 8,1 C 7,2 C 89 % 1023,1 hPa 0,0 l/m 6,4 km/h (2 Bft) S-SW 202 0 min 0,0 UV-I 0 W/m 6,4 C 8,1 C 6,4 km/h (2 Bft)
22.03.2024 03:53 8,0 C 7,2 C 89 % 1023,1 hPa 0,0 l/m 4,8 km/h (1 Bft) S-SW 202 0 min 0,0 UV-I 0 W/m 6,3 C 8,0 C 8,0 km/h (2 Bft)
22.03.2024 03:54 8,1 C 7,2 C 89 % 1023,1 hPa 0,0 l/m 6,4 km/h (2 Bft) S-SW 202 0 min 0,0 UV-I 0 W/m 6,4 C 8,1 C 6,4 km/h (2 Bft)
22.03.2024 03:55 8,1 C 7,2 C 89 % 1023,1 hPa 0,0 l/m 6,4 km/h (2 Bft) W-SW 247 0 min 0,0 UV-I 0 W/m 6,4 C 8,1 C 8,0 km/h (2 Bft)
22.03.2024 03:56 8,1 C 7,2 C 89 % 1023,1 hPa 0,0 l/m 6,4 km/h (2 Bft) SW 225 0 min 0,0 UV-I 0 W/m 6,4 C 8,1 C 9,7 km/h (2 Bft)
22.03.2024 03:57 8,1 C 7,2 C 89 % 1023,1 hPa 0,0 l/m 6,4 km/h (2 Bft) SW 225 0 min 0,0 UV-I 0 W/m 6,4 C 8,1 C 8,0 km/h (2 Bft)
22.03.2024 03:58 8,1 C 7,2 C 89 % 1023,0 hPa 0,0 l/m 4,8 km/h (1 Bft) SW 225 0 min 0,0 UV-I 0 W/m 6,4 C 8,1 C 8,0 km/h (2 Bft)
22.03.2024 03:59 8,1 C 7,2 C 89 % 1023,0 hPa 0,0 l/m 3,2 km/h (1 Bft) SW 225 0 min 0,0 UV-I 0 W/m 6,4 C 8,1 C 4,8 km/h (1 Bft)
22.03.2024 04:00 8,1 C 7,2 C 89 % 1023,0 hPa 0,0 l/m 4,8 km/h (1 Bft) SW 225 0 min 0,0 UV-I 0 W/m 6,4 C 8,1 C 6,4 km/h (2 Bft)
22.03.2024 04:01 8,1 C 7,2 C 89 % 1023,0 hPa 0,0 l/m 4,8 km/h (1 Bft) SW 225 0 min 0,0 UV-I 0 W/m 6,4 C 8,1 C 8,0 km/h (2 Bft)
22.03.2024 04:02 8,1 C 7,2 C 89 % 1022,9 hPa 0,0 l/m 6,4 km/h (2 Bft) SW 225 0 min 0,0 UV-I 0 W/m 6,4 C 8,1 C 8,0 km/h (2 Bft)
22.03.2024 04:03 8,1 C 7,2 C 89 % 1022,9 hPa 0,0 l/m 6,4 km/h (2 Bft) SW 225 0 min 0,0 UV-I 0 W/m 6,4 C 8,1 C 8,0 km/h (2 Bft)
22.03.2024 04:04 8,1 C 7,2 C 89 % 1022,9 hPa 0,0 l/m 6,4 km/h (2 Bft) SW 225 0 min 0,0 UV-I 0 W/m 6,4 C 8,1 C 8,0 km/h (2 Bft)
22.03.2024 04:05 8,0 C 7,2 C 89 % 1022,9 hPa 0,0 l/m 4,8 km/h (1 Bft) SW 225 0 min 0,0 UV-I 0 W/m 6,3 C 8,0 C 8,0 km/h (2 Bft)
22.03.2024 04:06 8,0 C 7,2 C 89 % 1022,9 hPa 0,0 l/m 4,8 km/h (1 Bft) SW 225 0 min 0,0 UV-I 0 W/m 6,3 C 8,0 C 4,8 km/h (1 Bft)
22.03.2024 04:07 8,0 C 7,2 C 89 % 1023,0 hPa 0,0 l/m 4,8 km/h (1 Bft) SW 225 0 min 0,0 UV-I 0 W/m 6,3 C 8,0 C 6,4 km/h (2 Bft)
22.03.2024 04:08 8,0 C 7,2 C 89 % 1022,8 hPa 0,0 l/m 4,8 km/h (1 Bft) SW 225 0 min 0,0 UV-I 0 W/m 6,3 C 8,0 C 6,4 km/h (2 Bft)
22.03.2024 04:09 8,0 C 7,2 C 89 % 1022,9 hPa 0,0 l/m 4,8 km/h (1 Bft) SW 225 0 min 0,0 UV-I 0 W/m 6,3 C 8,0 C 6,4 km/h (2 Bft)
22.03.2024 04:10 8,0 C 7,2 C 89 % 1022,9 hPa 0,0 l/m 4,8 km/h (1 Bft) SW 225 0 min 0,0 UV-I 0 W/m 6,3 C 8,0 C 6,4 km/h (2 Bft)
22.03.2024 04:11 7,9 C 7,2 C 89 % 1022,9 hPa 0,0 l/m 4,8 km/h (1 Bft) SW 225 0 min 0,0 UV-I 0 W/m 6,2 C 7,9 C 8,0 km/h (2 Bft)
22.03.2024 04:12 8,0 C 7,2 C 89 % 1022,9 hPa 0,0 l/m 4,8 km/h (1 Bft) SW 225 0 min 0,0 UV-I 0 W/m 6,3 C 8,0 C 6,4 km/h (2 Bft)
22.03.2024 04:13 7,9 C 7,2 C 89 % 1022,9 hPa 0,0 l/m 4,8 km/h (1 Bft) SW 225 0 min 0,0 UV-I 0 W/m 6,2 C 7,9 C 6,4 km/h (2 Bft)
22.03.2024 04:14 7,9 C 7,2 C 89 % 1022,8 hPa 0,0 l/m 6,4 km/h (2 Bft) SW 225 0 min 0,0 UV-I 0 W/m 6,2 C 7,9 C 6,4 km/h (2 Bft)
22.03.2024 04:15 7,9 C 7,2 C 89 % 1022,8 hPa 0,0 l/m 6,4 km/h (2 Bft) S-SW 202 0 min 0,0 UV-I 0 W/m 6,2 C 7,9 C 9,7 km/h (2 Bft)
22.03.2024 04:16 7,9 C 7,2 C 89 % 1022,8 hPa 0,0 l/m 6,4 km/h (2 Bft) SW 225 0 min 0,0 UV-I 0 W/m 6,2 C 7,9 C 11,3 km/h (2 Bft)
22.03.2024 04:17 7,9 C 7,2 C 89 % 1022,8 hPa 0,0 l/m 9,7 km/h (2 Bft) S 180 0 min 0,0 UV-I 0 W/m 6,2 C 5,5 C 12,9 km/h (3 Bft)
22.03.2024 04:18 7,9 C 7,2 C 89 % 1022,8 hPa 0,0 l/m 8,0 km/h (2 Bft) SW 225 0 min 0,0 UV-I 0 W/m 6,2 C 6,6 C 9,7 km/h (2 Bft)
22.03.2024 04:19 7,9 C 7,2 C 89 % 1022,8 hPa 0,0 l/m 9,7 km/h (2 Bft) S-SW 202 0 min 0,0 UV-I 0 W/m 6,2 C 5,5 C 11,3 km/h (2 Bft)
22.03.2024 04:20 7,9 C 7,2 C 89 % 1022,7 hPa 0,0 l/m 6,4 km/h (2 Bft) S-SW 202 0 min 0,0 UV-I 0 W/m 6,2 C 7,9 C 9,7 km/h (2 Bft)
22.03.2024 04:21 7,9 C 7,2 C 89 % 1022,7 hPa 0,0 l/m 8,0 km/h (2 Bft) S-SW 202 0 min 0,0 UV-I 0 W/m 6,2 C 6,6 C 9,7 km/h (2 Bft)
22.03.2024 04:22 7,9 C 7,2 C 89 % 1022,7 hPa 0,0 l/m 4,8 km/h (1 Bft) S-SW 202 0 min 0,0 UV-I 0 W/m 6,2 C 7,9 C 6,4 km/h (2 Bft)
22.03.2024 04:23 7,9 C 7,2 C 89 % 1022,7 hPa 0,0 l/m 6,4 km/h (2 Bft) S-SW 202 0 min 0,0 UV-I 0 W/m 6,2 C 7,9 C 8,0 km/h (2 Bft)
22.03.2024 04:24 7,9 C 7,2 C 89 % 1022,7 hPa 0,0 l/m 6,4 km/h (2 Bft) S 180 0 min 0,0 UV-I 0 W/m 6,2 C 7,9 C 8,0 km/h (2 Bft)
22.03.2024 04:25 7,9 C 7,2 C 89 % 1022,6 hPa 0,0 l/m 4,8 km/h (1 Bft) S 180 0 min 0,0 UV-I 0 W/m 6,2 C 7,9 C 8,0 km/h (2 Bft)
22.03.2024 04:26 7,9 C 7,2 C 89 % 1022,7 hPa 0,0 l/m 6,4 km/h (2 Bft) S 180 0 min 0,0 UV-I 0 W/m 6,2 C 7,9 C 8,0 km/h (2 Bft)
22.03.2024 04:27 7,9 C 7,2 C 89 % 1022,7 hPa 0,0 l/m 8,0 km/h (2 Bft) S-SW 202 0 min 0,0 UV-I 0 W/m 6,2 C 6,6 C 11,3 km/h (2 Bft)
22.03.2024 04:28 7,9 C 7,2 C 89 % 1022,7 hPa 0,0 l/m 6,4 km/h (2 Bft) S-SW 202 0 min 0,0 UV-I 0 W/m 6,2 C 7,9 C 11,3 km/h (2 Bft)
22.03.2024 04:29 7,9 C 7,2 C 89 % 1022,7 hPa 0,0 l/m 4,8 km/h (1 Bft) S-SW 202 0 min 0,0 UV-I 0 W/m 6,2 C 7,9 C 6,4 km/h (2 Bft)
22.03.2024 04:30 7,9 C 7,2 C 89 % 1022,7 hPa 0,0 l/m 4,8 km/h (1 Bft) S-SW 202 0 min 0,0 UV-I 0 W/m 6,2 C 7,9 C 8,0 km/h (2 Bft)
22.03.2024 04:31 7,9 C 7,2 C 89 % 1022,7 hPa 0,0 l/m 4,8 km/h (1 Bft) S-SW 202 0 min 0,0 UV-I 0 W/m 6,2 C 7,9 C 6,4 km/h (2 Bft)
22.03.2024 04:32 8,0 C 7,2 C 89 % 1022,8 hPa 0,0 l/m 3,2 km/h (1 Bft) S-SW 202 0 min 0,0 UV-I 0 W/m 6,3 C 8,0 C 6,4 km/h (2 Bft)
22.03.2024 04:33 8,0 C 7,2 C 89 % 1022,7 hPa 0,0 l/m 4,8 km/h (1 Bft) SW 225 0 min 0,0 UV-I 0 W/m 6,3 C 8,0 C 6,4 km/h (2 Bft)
22.03.2024 04:34 8,0 C 7,2 C 89 % 1022,8 hPa 0,0 l/m 6,4 km/h (2 Bft) SW 225 0 min 0,0 UV-I 0 W/m 6,3 C 8,0 C 9,7 km/h (2 Bft)
22.03.2024 04:35 8,0 C 7,2 C 89 % 1022,7 hPa 0,0 l/m 8,0 km/h (2 Bft) SW 225 0 min 0,0 UV-I 0 W/m 6,3 C 6,8 C 9,7 km/h (2 Bft)
22.03.2024 04:36 8,0 C 7,8 C 89 % 1022,7 hPa 0,0 l/m 9,7 km/h (2 Bft) S-SW 202 0 min 0,0 UV-I 0 W/m 6,3 C 5,6 C 11,3 km/h (2 Bft)
22.03.2024 04:37 8,0 C 7,8 C 89 % 1022,7 hPa 0,0 l/m 9,7 km/h (2 Bft) S-SW 202 0 min 0,0 UV-I 0 W/m 6,3 C 5,6 C 11,3 km/h (2 Bft)
22.03.2024 04:38 8,0 C 7,8 C 89 % 1022,6 hPa 0,0 l/m 9,7 km/h (2 Bft) S-SW 202 0 min 0,0 UV-I 0 W/m 6,3 C 5,6 C 11,3 km/h (2 Bft)
22.03.2024 04:39 8,0 C 7,8 C 89 % 1022,6 hPa 0,0 l/m 8,0 km/h (2 Bft) S 180 0 min 0,0 UV-I 0 W/m 6,3 C 6,8 C 11,3 km/h (2 Bft)
22.03.2024 04:40 7,9 C 7,8 C 89 % 1022,6 hPa 0,0 l/m 6,4 km/h (2 Bft) S-SW 202 0 min 0,0 UV-I 0 W/m 6,2 C 7,9 C 8,0 km/h (2 Bft)
22.03.2024 04:41 8,0 C 7,8 C 89 % 1022,6 hPa 0,0 l/m 8,0 km/h (2 Bft) S-SW 202 0 min 0,0 UV-I 0 W/m 6,3 C 6,8 C 9,7 km/h (2 Bft)
22.03.2024 04:42 8,0 C 7,8 C 89 % 1022,6 hPa 0,0 l/m 8,0 km/h (2 Bft) S 180 0 min 0,0 UV-I 0 W/m 6,3 C 6,8 C 9,7 km/h (2 Bft)
22.03.2024 04:43 8,0 C 7,8 C 89 % 1022,6 hPa 0,0 l/m 8,0 km/h (2 Bft) S 180 0 min 0,0 UV-I 0 W/m 6,3 C 6,8 C 11,3 km/h (2 Bft)
22.03.2024 04:44 8,0 C 7,8 C 89 % 1022,6 hPa 0,0 l/m 8,0 km/h (2 Bft) S-SW 202 0 min 0,0 UV-I 0 W/m 6,3 C 6,8 C 11,3 km/h (2 Bft)
22.03.2024 04:45 8,0 C 7,8 C 89 % 1022,6 hPa 0,0 l/m 9,7 km/h (2 Bft) S-SW 202 0 min 0,0 UV-I 0 W/m 6,3 C 5,6 C 12,9 km/h (3 Bft)
22.03.2024 04:46 8,0 C 7,8 C 89 % 1022,5 hPa 0,0 l/m 8,0 km/h (2 Bft) S-SW 202 0 min 0,0 UV-I 0 W/m 6,3 C 6,8 C 9,7 km/h (2 Bft)
22.03.2024 04:47 8,1 C 7,8 C 89 % 1022,5 hPa 0,0 l/m 6,4 km/h (2 Bft) S-SW 202 0 min 0,0 UV-I 0 W/m 6,4 C 8,1 C 8,0 km/h (2 Bft)
22.03.2024 04:48 8,0 C 7,8 C 89 % 1022,5 hPa 0,0 l/m 6,4 km/h (2 Bft) S-SW 202 0 min 0,0 UV-I 0 W/m 6,3 C 8,0 C 9,7 km/h (2 Bft)
22.03.2024 04:49 8,1 C 7,8 C 89 % 1022,6 hPa 0,0 l/m 8,0 km/h (2 Bft) SW 225 0 min 0,0 UV-I 0 W/m 6,4 C 6,9 C 8,0 km/h (2 Bft)
22.03.2024 04:50 8,0 C 7,8 C 89 % 1022,6 hPa 0,0 l/m 6,4 km/h (2 Bft) SW 225 0 min 0,0 UV-I 0 W/m 6,3 C 8,0 C 9,7 km/h (2 Bft)
22.03.2024 04:51 8,1 C 7,8 C 89 % 1022,6 hPa 0,0 l/m 6,4 km/h (2 Bft) SW 225 0 min 0,0 UV-I 0 W/m 6,4 C 8,1 C 9,7 km/h (2 Bft)
22.03.2024 04:52 8,1 C 7,8 C 89 % 1022,5 hPa 0,0 l/m 6,4 km/h (2 Bft) SW 225 0 min 0,0 UV-I 0 W/m 6,4 C 8,1 C 8,0 km/h (2 Bft)
22.03.2024 04:53 8,1 C 7,8 C 89 % 1022,6 hPa 0,0 l/m 4,8 km/h (1 Bft) SW 225 0 min 0,0 UV-I 0 W/m 6,4 C 8,1 C 8,0 km/h (2 Bft)
22.03.2024 04:54 8,0 C 7,8 C 89 % 1022,6 hPa 0,0 l/m 4,8 km/h (1 Bft) SW 225 0 min 0,0 UV-I 0 W/m 6,3 C 8,0 C 6,4 km/h (2 Bft)
22.03.2024 04:55 8,1 C 7,8 C 89 % 1022,6 hPa 0,0 l/m 6,4 km/h (2 Bft) SW 225 0 min 0,0 UV-I 0 W/m 6,4 C 8,1 C 9,7 km/h (2 Bft)
22.03.2024 04:56 8,1 C 7,8 C 89 % 1022,6 hPa 0,0 l/m 6,4 km/h (2 Bft) SW 225 0 min 0,0 UV-I 0 W/m 6,4 C 8,1 C 8,0 km/h (2 Bft)
22.03.2024 04:57 8,0 C 7,8 C 89 % 1022,6 hPa 0,0 l/m 6,4 km/h (2 Bft) SW 225 0 min 0,0 UV-I 0 W/m 6,3 C 8,0 C 8,0 km/h (2 Bft)
22.03.2024 04:58 8,0 C 7,8 C 89 % 1022,6 hPa 0,0 l/m 3,2 km/h (1 Bft) SW 225 0 min 0,0 UV-I 0 W/m 6,3 C 8,0 C 4,8 km/h (1 Bft)
22.03.2024 04:59 8,0 C 7,8 C 89 % 1022,6 hPa 0,0 l/m 6,4 km/h (2 Bft) SW 225 0 min 0,0 UV-I 0 W/m 6,3 C 8,0 C 9,7 km/h (2 Bft)
22.03.2024 05:00 8,0 C 7,8 C 89 % 1022,6 hPa 0,0 l/m 6,4 km/h (2 Bft) SW 225 0 min 0,0 UV-I 0 W/m 6,3 C 8,0 C 8,0 km/h (2 Bft)
22.03.2024 05:01 8,0 C 7,8 C 89 % 1022,6 hPa 0,0 l/m 4,8 km/h (1 Bft) SW 225 0 min 0,0 UV-I 0 W/m 6,3 C 8,0 C 6,4 km/h (2 Bft)
22.03.2024 05:02 8,0 C 7,8 C 89 % 1022,6 hPa 0,0 l/m 4,8 km/h (1 Bft) SW 225 0 min 0,0 UV-I 0 W/m 6,3 C 8,0 C 6,4 km/h (2 Bft)
22.03.2024 05:03 8,0 C 7,8 C 89 % 1022,5 hPa 0,0 l/m 6,4 km/h (2 Bft) SW 225 0 min 0,0 UV-I 0 W/m 6,3 C 8,0 C 8,0 km/h (2 Bft)
22.03.2024 05:04 8,0 C 7,8 C 89 % 1022,5 hPa 0,0 l/m 4,8 km/h (1 Bft) SW 225 0 min 0,0 UV-I 0 W/m 6,3 C 8,0 C 6,4 km/h (2 Bft)
22.03.2024 05:05 7,9 C 7,2 C 89 % 1022,5 hPa 0,0 l/m 4,8 km/h (1 Bft) SW 225 0 min 0,0 UV-I 0 W/m 6,2 C 7,9 C 8,0 km/h (2 Bft)
22.03.2024 05:06 7,9 C 7,2 C 89 % 1022,5 hPa 0,0 l/m 3,2 km/h (1 Bft) SW 225 0 min 0,0 UV-I 0 W/m 6,2 C 7,9 C 6,4 km/h (2 Bft)
22.03.2024 05:07 7,9 C 7,2 C 89 % 1022,5 hPa 0,0 l/m 1,6 km/h (1 Bft) SW 225 0 min 0,0 UV-I 0 W/m 6,2 C 7,9 C 4,8 km/h (1 Bft)
22.03.2024 05:08 7,9 C 7,2 C 89 % 1022,6 hPa 0,0 l/m 4,8 km/h (1 Bft) SW 225 0 min 0,0 UV-I 0 W/m 6,2 C 7,9 C 8,0 km/h (2 Bft)
22.03.2024 05:09 7,9 C 7,2 C 89 % 1022,5 hPa 0,0 l/m 8,0 km/h (2 Bft) S-SW 202 0 min 0,0 UV-I 0 W/m 6,2 C 6,6 C 11,3 km/h (2 Bft)
22.03.2024 05:10 7,9 C 7,2 C 89 % 1022,5 hPa 0,0 l/m 4,8 km/h (1 Bft) S-SW 202 0 min 0,0 UV-I 0 W/m 6,2 C 7,9 C 6,4 km/h (2 Bft)
22.03.2024 05:11 7,9 C 7,2 C 89 % 1022,5 hPa 0,0 l/m 8,0 km/h (2 Bft) S-SW 202 0 min 0,0 UV-I 0 W/m 6,2 C 6,6 C 12,9 km/h (3 Bft)
22.03.2024 05:12 7,9 C 7,2 C 89 % 1022,5 hPa 0,0 l/m 8,0 km/h (2 Bft) S-SW 202 0 min 0,0 UV-I 0 W/m 6,2 C 6,6 C 9,7 km/h (2 Bft)
22.03.2024 05:13 7,9 C 7,2 C 89 % 1022,5 hPa 0,0 l/m 6,4 km/h (2 Bft) S-SW 202 0 min 0,0 UV-I 0 W/m 6,2 C 7,9 C 8,0 km/h (2 Bft)
22.03.2024 05:14 7,9 C 7,2 C 89 % 1022,5 hPa 0,0 l/m 4,8 km/h (1 Bft) S-SW 202 0 min 0,0 UV-I 0 W/m 6,2 C 7,9 C 8,0 km/h (2 Bft)
22.03.2024 05:15 7,9 C 7,2 C 89 % 1022,4 hPa 0,0 l/m 8,0 km/h (2 Bft) S-SW 202 0 min 0,0 UV-I 0 W/m 6,2 C 6,6 C 11,3 km/h (2 Bft)
22.03.2024 05:16 7,9 C 7,2 C 89 % 1022,4 hPa 0,0 l/m 4,8 km/h (1 Bft) S-SW 202 0 min 0,0 UV-I 0 W/m 6,2 C 7,9 C 8,0 km/h (2 Bft)
22.03.2024 05:17 7,9 C 7,2 C 89 % 1022,5 hPa 0,0 l/m 9,7 km/h (2 Bft) S-SW 202 0 min 0,0 UV-I 0 W/m 6,2 C 5,5 C 11,3 km/h (2 Bft)
22.03.2024 05:18 7,9 C 7,2 C 89 % 1022,4 hPa 0,0 l/m 8,0 km/h (2 Bft) S 180 0 min 0,0 UV-I 0 W/m 6,2 C 6,6 C 11,3 km/h (2 Bft)
22.03.2024 05:19 7,9 C 7,2 C 89 % 1022,5 hPa 0,0 l/m 4,8 km/h (1 Bft) S-SW 202 0 min 0,0 UV-I 0 W/m 6,2 C 7,9 C 8,0 km/h (2 Bft)
22.03.2024 05:20 7,9 C 7,2 C 89 % 1022,4 hPa 0,0 l/m 1,6 km/h (1 Bft) S-SW 202 0 min 0,0 UV-I 0 W/m 6,2 C 7,9 C 4,8 km/h (1 Bft)
22.03.2024 05:21 7,9 C 7,2 C 89 % 1022,4 hPa 0,0 l/m 3,2 km/h (1 Bft) S-SW 202 0 min 0,0 UV-I 0 W/m 6,2 C 7,9 C 6,4 km/h (2 Bft)
22.03.2024 05:22 7,9 C 7,2 C 89 % 1022,3 hPa 0,0 l/m 3,2 km/h (1 Bft) S-SW 202 0 min 0,0 UV-I 0 W/m 6,2 C 7,9 C 4,8 km/h (1 Bft)
22.03.2024 05:23 7,9 C 7,2 C 89 % 1022,3 hPa 0,0 l/m 4,8 km/h (1 Bft) S-SW 202 0 min 0,0 UV-I 0 W/m 6,2 C 7,9 C 6,4 km/h (2 Bft)
22.03.2024 05:24 7,9 C 7,2 C 89 % 1022,3 hPa 0,0 l/m 3,2 km/h (1 Bft) S-SW 202 0 min 0,0 UV-I 0 W/m 6,2 C 7,9 C 3,2 km/h (1 Bft)
22.03.2024 05:25 7,9 C 7,2 C 89 % 1022,3 hPa 0,0 l/m 3,2 km/h (1 Bft) S-SW 202 0 min 0,0 UV-I 0 W/m 6,2 C 7,9 C 4,8 km/h (1 Bft)
22.03.2024 05:26 7,9 C 7,2 C 89 % 1022,3 hPa 0,0 l/m 4,8 km/h (1 Bft) S-SW 202 0 min 0,0 UV-I 0 W/m 6,2 C 7,9 C 8,0 km/h (2 Bft)
22.03.2024 05:27 7,9 C 7,2 C 89 % 1022,4 hPa 0,0 l/m 6,4 km/h (2 Bft) S-SW 202 0 min 0,0 UV-I 0 W/m 6,2 C 7,9 C 12,9 km/h (3 Bft)
22.03.2024 05:28 7,9 C 7,2 C 89 % 1022,4 hPa 0,0 l/m 9,7 km/h (2 Bft) S 180 0 min 0,0 UV-I 0 W/m 6,2 C 5,5 C 12,9 km/h (3 Bft)
22.03.2024 05:29 7,9 C 7,2 C 89 % 1022,4 hPa 0,0 l/m 8,0 km/h (2 Bft) S-SW 202 0 min 0,0 UV-I 0 W/m 6,2 C 6,6 C 11,3 km/h (2 Bft)
22.03.2024 05:30 7,9 C 7,2 C 89 % 1022,3 hPa 0,0 l/m 8,0 km/h (2 Bft) SW 225 0 min 0,0 UV-I 0 W/m 6,2 C 6,6 C 11,3 km/h (2 Bft)
22.03.2024 05:31 7,9 C 7,2 C 89 % 1022,3 hPa 0,0 l/m 8,0 km/h (2 Bft) S-SW 202 0 min 0,0 UV-I 0 W/m 6,2 C 6,6 C 9,7 km/h (2 Bft)
22.03.2024 05:32 7,9 C 7,2 C 89 % 1022,4 hPa 0,0 l/m 6,4 km/h (2 Bft) S-SW 202 0 min 0,0 UV-I 0 W/m 6,2 C 7,9 C 8,0 km/h (2 Bft)
22.03.2024 05:33 8,0 C 7,2 C 89 % 1022,3 hPa 0,0 l/m 6,4 km/h (2 Bft) S-SW 202 0 min 0,0 UV-I 0 W/m 6,3 C 8,0 C 9,7 km/h (2 Bft)
22.03.2024 05:34 8,0 C 7,2 C 89 % 1022,3 hPa 0,0 l/m 6,4 km/h (2 Bft) S-SW 202 0 min 0,0 UV-I 0 W/m 6,3 C 8,0 C 8,0 km/h (2 Bft)
22.03.2024 05:35 7,9 C 7,2 C 89 % 1022,4 hPa 0,0 l/m 6,4 km/h (2 Bft) S-SW 202 0 min 0,0 UV-I 0 W/m 6,2 C 7,9 C 8,0 km/h (2 Bft)
22.03.2024 05:36 7,9 C 7,2 C 89 % 1022,4 hPa 0,0 l/m 8,0 km/h (2 Bft) S-SW 202 0 min 0,0 UV-I 0 W/m 6,2 C 6,6 C 9,7 km/h (2 Bft)
22.03.2024 05:37 8,0 C 7,2 C 89 % 1022,3 hPa 0,0 l/m 6,4 km/h (2 Bft) S-SW 202 0 min 0,0 UV-I 0 W/m 6,3 C 8,0 C 9,7 km/h (2 Bft)
22.03.2024 05:38 7,9 C 7,2 C 89 % 1022,4 hPa 0,0 l/m 6,4 km/h (2 Bft) S-SW 202 0 min 0,0 UV-I 0 W/m 6,2 C 7,9 C 9,7 km/h (2 Bft)
22.03.2024 05:39 7,9 C 7,2 C 89 % 1022,4 hPa 0,0 l/m 9,7 km/h (2 Bft) S-SW 202 0 min 0,0 UV-I 0 W/m 6,2 C 5,5 C 11,3 km/h (2 Bft)
22.03.2024 05:40 8,0 C 7,2 C 89 % 1022,3 hPa 0,0 l/m 8,0 km/h (2 Bft) S-SW 202 0 min 0,0 UV-I 0 W/m 6,3 C 6,8 C 9,7 km/h (2 Bft)
22.03.2024 05:41 7,9 C 7,2 C 89 % 1022,3 hPa 0,0 l/m 8,0 km/h (2 Bft) S-SW 202 0 min 0,0 UV-I 0 W/m 6,2 C 6,6 C 11,3 km/h (2 Bft)
22.03.2024 05:42 8,0 C 7,2 C 89 % 1022,4 hPa 0,0 l/m 8,0 km/h (2 Bft) S-SW 202 0 min 0,0 UV-I 0 W/m 6,3 C 6,8 C 11,3 km/h (2 Bft)
22.03.2024 05:43 8,0 C 7,2 C 89 % 1022,4 hPa 0,0 l/m 8,0 km/h (2 Bft) S-SW 202 0 min 0,0 UV-I 0 W/m 6,3 C 6,8 C 11,3 km/h (2 Bft)
22.03.2024 05:44 7,9 C 7,2 C 89 % 1022,3 hPa 0,0 l/m 8,0 km/h (2 Bft) S-SW 202 0 min 0,0 UV-I 0 W/m 6,2 C 6,6 C 9,7 km/h (2 Bft)
22.03.2024 05:45 7,9 C 7,2 C 89 % 1022,4 hPa 0,0 l/m 6,4 km/h (2 Bft) S-SW 202 0 min 0,0 UV-I 0 W/m 6,2 C 7,9 C 9,7 km/h (2 Bft)
22.03.2024 05:46 8,0 C 7,2 C 89 % 1022,3 hPa 0,0 l/m 6,4 km/h (2 Bft) S 180 0 min 0,0 UV-I 0 W/m 6,3 C 8,0 C 9,7 km/h (2 Bft)
22.03.2024 05:47 8,0 C 7,2 C 89 % 1022,2 hPa 0,0 l/m 8,0 km/h (2 Bft) S 180 0 min 0,0 UV-I 0 W/m 6,3 C 6,8 C 11,3 km/h (2 Bft)
22.03.2024 05:48 8,0 C 7,2 C 89 % 1022,2 hPa 0,0 l/m 9,7 km/h (2 Bft) S-SW 202 0 min 0,0 UV-I 0 W/m 6,3 C 5,6 C 11,3 km/h (2 Bft)
22.03.2024 05:49 8,0 C 7,2 C 89 % 1022,2 hPa 0,0 l/m 6,4 km/h (2 Bft) S 180 0 min 0,0 UV-I 0 W/m 6,3 C 8,0 C 9,7 km/h (2 Bft)
22.03.2024 05:50 7,9 C 7,2 C 89 % 1022,2 hPa 0,0 l/m 6,4 km/h (2 Bft) S 180 0 min 0,0 UV-I 0 W/m 6,2 C 7,9 C 8,0 km/h (2 Bft)
22.03.2024 05:51 8,0 C 7,2 C 89 % 1022,3 hPa 0,0 l/m 4,8 km/h (1 Bft) S 180 0 min 0,0 UV-I 0 W/m 6,3 C 8,0 C 6,4 km/h (2 Bft)
22.03.2024 05:52 8,0 C 7,2 C 89 % 1022,2 hPa 0,0 l/m 9,7 km/h (2 Bft) S 180 0 min 0,0 UV-I 0 W/m 6,3 C 5,6 C 14,5 km/h (3 Bft)
22.03.2024 05:53 8,0 C 7,2 C 89 % 1022,2 hPa 0,0 l/m 11,3 km/h (2 Bft) S 180 0 min 0,0 UV-I 0 W/m 6,3 C 4,6 C 16,1 km/h (3 Bft)
22.03.2024 05:54 8,0 C 7,2 C 89 % 1022,2 hPa 0,0 l/m 8,0 km/h (2 Bft) S-SW 202 0 min 0,0 UV-I 0 W/m 6,3 C 6,8 C 16,1 km/h (3 Bft)
22.03.2024 05:55 8,0 C 7,2 C 89 % 1022,1 hPa 0,0 l/m 6,4 km/h (2 Bft) S-SW 202 0 min 0,0 UV-I 0 W/m 6,3 C 8,0 C 9,7 km/h (2 Bft)
22.03.2024 05:56 8,0 C 7,2 C 89 % 1022,1 hPa 0,0 l/m 6,4 km/h (2 Bft) S 180 0 min 0,0 UV-I 0 W/m 6,3 C 8,0 C 9,7 km/h (2 Bft)
22.03.2024 05:57 8,0 C 7,2 C 89 % 1022,1 hPa 0,0 l/m 8,0 km/h (2 Bft) S-SW 202 0 min 0,0 UV-I 0 W/m 6,3 C 6,8 C 9,7 km/h (2 Bft)
22.03.2024 05:58 8,0 C 7,2 C 89 % 1022,0 hPa 0,0 l/m 8,0 km/h (2 Bft) S-SW 202 0 min 0,0 UV-I 0 W/m 6,3 C 6,8 C 12,9 km/h (3 Bft)
22.03.2024 05:59 8,0 C 7,2 C 89 % 1022,1 hPa 0,0 l/m 6,4 km/h (2 Bft) S-SW 202 0 min 0,0 UV-I 0 W/m 6,3 C 8,0 C 8,0 km/h (2 Bft)
22.03.2024 06:00 7,9 C 7,2 C 89 % 1022,1 hPa 0,0 l/m 8,0 km/h (2 Bft) S-SW 202 0 min 0,0 UV-I 0 W/m 6,2 C 6,6 C 11,3 km/h (2 Bft)
22.03.2024 06:01 7,9 C 7,2 C 89 % 1022,0 hPa 0,0 l/m 8,0 km/h (2 Bft) S-SW 202 0 min 0,0 UV-I 0 W/m 6,2 C 6,6 C 12,9 km/h (3 Bft)
22.03.2024 06:02 7,9 C 7,2 C 89 % 1022,0 hPa 0,0 l/m 9,7 km/h (2 Bft) S 180 0 min 0,0 UV-I 0 W/m 6,2 C 5,5 C 17,7 km/h (3 Bft)
22.03.2024 06:03 8,0 C 7,2 C 89 % 1022,0 hPa 0,0 l/m 11,3 km/h (2 Bft) S-SW 202 0 min 0,0 UV-I 0 W/m 6,3 C 4,6 C 16,1 km/h (3 Bft)
22.03.2024 06:04 8,0 C 7,2 C 89 % 1022,0 hPa 0,0 l/m 9,7 km/h (2 Bft) S-SW 202 0 min 0,0 UV-I 0 W/m 6,3 C 5,6 C 14,5 km/h (3 Bft)
22.03.2024 06:05 8,0 C 7,2 C 89 % 1022,0 hPa 0,0 l/m 11,3 km/h (2 Bft) S-SW 202 0 min 0,0 UV-I 0 W/m 6,3 C 4,6 C 14,5 km/h (3 Bft)
22.03.2024 06:06 8,0 C 7,2 C 89 % 1021,9 hPa 0,0 l/m 9,7 km/h (2 Bft) S-SW 202 0 min 0,0 UV-I 0 W/m 6,3 C 5,6 C 12,9 km/h (3 Bft)
22.03.2024 06:07 8,0 C 7,2 C 89 % 1021,9 hPa 0,0 l/m 11,3 km/h (2 Bft) S 180 0 min 0,0 UV-I 0 W/m 6,3 C 4,6 C 17,7 km/h (3 Bft)
22.03.2024 06:08 8,1 C 7,2 C 89 % 1021,9 hPa 0,0 l/m 11,3 km/h (2 Bft) S 180 0 min 0,0 UV-I 0 W/m 6,4 C 4,7 C 16,1 km/h (3 Bft)
22.03.2024 06:09 8,0 C 7,2 C 89 % 1021,8 hPa 0,0 l/m 9,7 km/h (2 Bft) S 180 0 min 0,0 UV-I 0 W/m 6,3 C 5,6 C 12,9 km/h (3 Bft)
22.03.2024 06:10 8,1 C 7,2 C 89 % 1021,9 hPa 0,0 l/m 11,3 km/h (2 Bft) S 180 0 min 0,0 UV-I 0 W/m 6,4 C 4,7 C 16,1 km/h (3 Bft)
22.03.2024 06:11 8,0 C 7,2 C 89 % 1021,9 hPa 0,0 l/m 9,7 km/h (2 Bft) S 180 0 min 0,0 UV-I 0 W/m 6,3 C 5,6 C 16,1 km/h (3 Bft)
22.03.2024 06:12 8,1 C 7,2 C 89 % 1021,9 hPa 0,0 l/m 9,7 km/h (2 Bft) S 180 0 min 0,0 UV-I 0 W/m 6,4 C 5,7 C 12,9 km/h (3 Bft)
22.03.2024 06:13 8,1 C 7,2 C 89 % 1021,8 hPa 0,0 l/m 8,0 km/h (2 Bft) S 180 0 min 0,0 UV-I 0 W/m 6,4 C 6,9 C 11,3 km/h (2 Bft)
22.03.2024 06:14 8,1 C 7,2 C 89 % 1021,9 hPa 0,0 l/m 8,0 km/h (2 Bft) S-SW 202 0 min 0,0 UV-I 0 W/m 6,4 C 6,9 C 9,7 km/h (2 Bft)
22.03.2024 06:15 8,1 C 7,2 C 89 % 1022,0 hPa 0,0 l/m 9,7 km/h (2 Bft) S-SW 202 0 min 0,0 UV-I 0 W/m 6,4 C 5,7 C 11,3 km/h (2 Bft)
22.03.2024 06:16 8,1 C 7,2 C 89 % 1021,9 hPa 0,0 l/m 8,0 km/h (2 Bft) S-SW 202 0 min 0,0 UV-I 0 W/m 6,4 C 6,9 C 11,3 km/h (2 Bft)
22.03.2024 06:17 8,1 C 7,2 C 89 % 1021,9 hPa 0,0 l/m 8,0 km/h (2 Bft) SW 225 0 min 0,0 UV-I 0 W/m 6,4 C 6,9 C 11,3 km/h (2 Bft)
22.03.2024 06:18 8,1 C 7,2 C 89 % 1021,9 hPa 0,0 l/m 8,0 km/h (2 Bft) S-SW 202 0 min 0,0 UV-I 0 W/m 6,4 C 6,9 C 11,3 km/h (2 Bft)
22.03.2024 06:19 8,1 C 7,2 C 89 % 1021,9 hPa 0,0 l/m 8,0 km/h (2 Bft) S-SW 202 0 min 0,0 UV-I 0 W/m 6,4 C 6,9 C 11,3 km/h (2 Bft)
22.03.2024 06:20 8,1 C 7,2 C 88 % 1021,9 hPa 0,0 l/m 8,0 km/h (2 Bft) S-SW 202 0 min 0,0 UV-I 0 W/m 6,2 C 6,9 C 9,7 km/h (2 Bft)
22.03.2024 06:21 8,0 C 7,2 C 88 % 1021,9 hPa 0,0 l/m 6,4 km/h (2 Bft) S-SW 202 0 min 0,0 UV-I 0 W/m 6,1 C 8,0 C 8,0 km/h (2 Bft)
22.03.2024 06:22 8,1 C 7,2 C 88 % 1021,8 hPa 0,0 l/m 8,0 km/h (2 Bft) S-SW 202 0 min 0,0 UV-I 0 W/m 6,2 C 6,9 C 12,9 km/h (3 Bft)
22.03.2024 06:23 8,0 C 7,2 C 88 % 1021,9 hPa 0,0 l/m 6,4 km/h (2 Bft) SW 225 0 min 0,0 UV-I 0 W/m 6,1 C 8,0 C 9,7 km/h (2 Bft)
22.03.2024 06:24 8,0 C 7,2 C 88 % 1022,0 hPa 0,0 l/m 6,4 km/h (2 Bft) SW 225 0 min 0,0 UV-I 0 W/m 6,1 C 8,0 C 9,7 km/h (2 Bft)
22.03.2024 06:25 8,0 C 7,2 C 88 % 1021,9 hPa 0,0 l/m 6,4 km/h (2 Bft) S-SW 202 0 min 0,0 UV-I 0 W/m 6,1 C 8,0 C 9,7 km/h (2 Bft)
22.03.2024 06:26 7,9 C 7,2 C 88 % 1021,9 hPa 0,0 l/m 8,0 km/h (2 Bft) S-SW 202 0 min 0,0 UV-I 0 W/m 6,0 C 6,6 C 11,3 km/h (2 Bft)
22.03.2024 06:27 7,9 C 7,2 C 88 % 1021,9 hPa 0,0 l/m 6,4 km/h (2 Bft) SW 225 0 min 0,0 UV-I 0 W/m 6,0 C 7,9 C 9,7 km/h (2 Bft)
22.03.2024 06:28 8,0 C 7,2 C 88 % 1021,8 hPa 0,0 l/m 8,0 km/h (2 Bft) S-SW 202 0 min 0,0 UV-I 0 W/m 6,1 C 6,8 C 9,7 km/h (2 Bft)
22.03.2024 06:29 7,9 C 7,2 C 88 % 1021,9 hPa 0,0 l/m 6,4 km/h (2 Bft) S 180 0 min 0,0 UV-I 0 W/m 6,0 C 7,9 C 8,0 km/h (2 Bft)
22.03.2024 06:30 7,9 C 7,2 C 88 % 1021,9 hPa 0,0 l/m 6,4 km/h (2 Bft) S 180 0 min 0,0 UV-I 0 W/m 6,0 C 7,9 C 8,0 km/h (2 Bft)
22.03.2024 06:31 7,9 C 7,2 C 88 % 1021,9 hPa 0,0 l/m 4,8 km/h (1 Bft) S-SW 202 0 min 0,0 UV-I 0 W/m 6,0 C 7,9 C 8,0 km/h (2 Bft)
22.03.2024 06:32 7,9 C 7,2 C 88 % 1021,9 hPa 0,0 l/m 6,4 km/h (2 Bft) S-SW 202 0 min 0,0 UV-I 0 W/m 6,0 C 7,9 C 8,0 km/h (2 Bft)
22.03.2024 06:33 7,9 C 7,2 C 88 % 1021,9 hPa 0,0 l/m 4,8 km/h (1 Bft) SW 225 0 min 0,0 UV-I 0 W/m 6,0 C 7,9 C 6,4 km/h (2 Bft)
22.03.2024 06:34 7,8 C 7,2 C 88 % 1021,9 hPa 0,0 l/m 4,8 km/h (1 Bft) SW 225 0 min 0,0 UV-I 0 W/m 5,9 C 7,8 C 6,4 km/h (2 Bft)
22.03.2024 06:35 7,9 C 7,2 C 88 % 1021,9 hPa 0,0 l/m 6,4 km/h (2 Bft) S-SW 202 0 min 0,0 UV-I 0 W/m 6,0 C 7,9 C 9,7 km/h (2 Bft)
22.03.2024 06:36 7,8 C 7,2 C 88 % 1021,9 hPa 0,0 l/m 4,8 km/h (1 Bft) S-SW 202 0 min 0,0 UV-I 0 W/m 5,9 C 7,8 C 6,4 km/h (2 Bft)
22.03.2024 06:37 7,8 C 7,2 C 88 % 1022,0 hPa 0,0 l/m 4,8 km/h (1 Bft) S-SW 202 0 min 0,0 UV-I 0 W/m 5,9 C 7,8 C 8,0 km/h (2 Bft)
22.03.2024 06:38 7,8 C 6,7 C 88 % 1021,9 hPa 0,0 l/m 4,8 km/h (1 Bft) SW 225 0 min 0,0 UV-I 0 W/m 5,9 C 7,8 C 6,4 km/h (2 Bft)
22.03.2024 06:39 7,8 C 6,7 C 88 % 1021,9 hPa 0,0 l/m 6,4 km/h (2 Bft) SW 225 0 min 0,0 UV-I 0 W/m 5,9 C 7,8 C 8,0 km/h (2 Bft)
22.03.2024 06:40 7,8 C 7,2 C 89 % 1021,9 hPa 0,0 l/m 4,8 km/h (1 Bft) SW 225 0 min 0,0 UV-I 0 W/m 6,1 C 7,8 C 6,4 km/h (2 Bft)
22.03.2024 06:41 7,8 C 7,2 C 89 % 1021,9 hPa 0,0 l/m 6,4 km/h (2 Bft) S-SW 202 0 min 0,0 UV-I 0 W/m 6,1 C 7,8 C 11,3 km/h (2 Bft)
22.03.2024 06:42 7,8 C 7,2 C 89 % 1021,9 hPa 0,0 l/m 6,4 km/h (2 Bft) S-SW 202 0 min 0,0 UV-I 5 W/m 6,1 C 7,8 C 9,7 km/h (2 Bft)
22.03.2024 06:43 7,8 C 7,2 C 89 % 1021,9 hPa 0,0 l/m 9,7 km/h (2 Bft) S-SW 202 0 min 0,0 UV-I 5 W/m 6,1 C 5,4 C 14,5 km/h (3 Bft)
22.03.2024 06:44 7,8 C 7,2 C 89 % 1021,9 hPa 0,0 l/m 9,7 km/h (2 Bft) S-SW 202 0 min 0,0 UV-I 5 W/m 6,1 C 5,4 C 12,9 km/h (3 Bft)
22.03.2024 06:45 7,8 C 7,2 C 89 % 1021,8 hPa 0,0 l/m 9,7 km/h (2 Bft) S-SW 202 0 min 0,0 UV-I 7 W/m 6,1 C 5,4 C 12,9 km/h (3 Bft)
22.03.2024 06:46 7,9 C 7,2 C 89 % 1021,9 hPa 0,0 l/m 9,7 km/h (2 Bft) S-SW 202 0 min 0,0 UV-I 7 W/m 6,2 C 5,5 C 12,9 km/h (3 Bft)
22.03.2024 06:47 7,9 C 7,2 C 89 % 1021,8 hPa 0,0 l/m 6,4 km/h (2 Bft) S-SW 202 0 min 0,0 UV-I 9 W/m 6,2 C 7,9 C 8,0 km/h (2 Bft)
22.03.2024 06:48 7,9 C 7,2 C 89 % 1021,9 hPa 0,0 l/m 8,0 km/h (2 Bft) S-SW 202 0 min 0,0 UV-I 9 W/m 6,2 C 6,6 C 9,7 km/h (2 Bft)
22.03.2024 06:49 7,9 C 7,2 C 89 % 1021,9 hPa 0,0 l/m 8,0 km/h (2 Bft) S-SW 202 0 min 0,0 UV-I 11 W/m 6,2 C 6,6 C 9,7 km/h (2 Bft)
22.03.2024 06:50 7,9 C 7,2 C 89 % 1021,9 hPa 0,0 l/m 8,0 km/h (2 Bft) S-SW 202 0 min 0,0 UV-I 11 W/m 6,2 C 6,6 C 11,3 km/h (2 Bft)
22.03.2024 06:51 7,9 C 7,2 C 89 % 1021,8 hPa 0,0 l/m 6,4 km/h (2 Bft) S-SW 202 0 min 0,0 UV-I 12 W/m 6,2 C 7,9 C 8,0 km/h (2 Bft)
22.03.2024 06:52 7,9 C 7,2 C 89 % 1021,7 hPa 0,0 l/m 6,4 km/h (2 Bft) S-SW 202 0 min 0,0 UV-I 12 W/m 6,2 C 7,9 C 8,0 km/h (2 Bft)
22.03.2024 06:53 7,9 C 7,2 C 89 % 1021,8 hPa 0,0 l/m 9,7 km/h (2 Bft) S 180 0 min 0,0 UV-I 13 W/m 6,2 C 5,5 C 12,9 km/h (3 Bft)
22.03.2024 06:54 8,0 C 7,2 C 89 % 1021,8 hPa 0,0 l/m 8,0 km/h (2 Bft) S 180 0 min 0,0 UV-I 14 W/m 6,3 C 6,8 C 14,5 km/h (3 Bft)
22.03.2024 06:55 8,0 C 7,2 C 89 % 1021,7 hPa 0,0 l/m 9,7 km/h (2 Bft) S 180 0 min 0,0 UV-I 14 W/m 6,3 C 5,6 C 14,5 km/h (3 Bft)
22.03.2024 06:56 8,0 C 7,8 C 89 % 1021,6 hPa 0,0 l/m 9,7 km/h (2 Bft) S 180 0 min 0,0 UV-I 14 W/m 6,3 C 5,6 C 14,5 km/h (3 Bft)
22.03.2024 06:57 8,1 C 7,8 C 89 % 1021,6 hPa 0,0 l/m 9,7 km/h (2 Bft) S 180 0 min 0,0 UV-I 16 W/m 6,4 C 5,7 C 12,9 km/h (3 Bft)
22.03.2024 06:58 8,1 C 7,8 C 89 % 1021,6 hPa 0,0 l/m 11,3 km/h (2 Bft) S 180 0 min 0,0 UV-I 16 W/m 6,4 C 4,7 C 16,1 km/h (3 Bft)
22.03.2024 06:59 8,1 C 7,8 C 88 % 1021,6 hPa 0,0 l/m 14,5 km/h (3 Bft) S 180 0 min 0,0 UV-I 16 W/m 6,2 C 3,1 C 22,5 km/h (4 Bft)
22.03.2024 07:00 8,1 C 7,8 C 88 % 1021,6 hPa 0,0 l/m 11,3 km/h (2 Bft) S-SW 202 0 min 0,0 UV-I 16 W/m 6,2 C 4,7 C 20,9 km/h (4 Bft)
22.03.2024 07:01 8,1 C 7,8 C 88 % 1021,6 hPa 0,0 l/m 12,9 km/h (3 Bft) S-SW 202 0 min 0,0 UV-I 16 W/m 6,2 C 3,8 C 19,3 km/h (3 Bft)
22.03.2024 07:02 8,2 C 7,8 C 88 % 1021,6 hPa 0,0 l/m 12,9 km/h (3 Bft) S 180 0 min 0,0 UV-I 16 W/m 6,3 C 4,0 C 19,3 km/h (3 Bft)
22.03.2024 07:03 8,2 C 7,8 C 88 % 1021,5 hPa 0,0 l/m 12,9 km/h (3 Bft) S 180 0 min 0,0 UV-I 18 W/m 6,3 C 4,0 C 16,1 km/h (3 Bft)
22.03.2024 07:04 8,2 C 7,8 C 88 % 1021,6 hPa 0,0 l/m 11,3 km/h (2 Bft) S 180 0 min 0,0 UV-I 18 W/m 6,3 C 4,8 C 16,1 km/h (3 Bft)
22.03.2024 07:05 8,2 C 7,8 C 88 % 1021,5 hPa 0,0 l/m 11,3 km/h (2 Bft) S 180 0 min 0,0 UV-I 20 W/m 6,3 C 4,8 C 17,7 km/h (3 Bft)
22.03.2024 07:06 8,2 C 7,8 C 88 % 1021,5 hPa 0,0 l/m 9,7 km/h (2 Bft) S 180 0 min 0,0 UV-I 21 W/m 6,3 C 5,8 C 20,9 km/h (4 Bft)
22.03.2024 07:07 8,2 C 7,8 C 88 % 1021,5 hPa 0,0 l/m 11,3 km/h (2 Bft) S 180 0 min 0,0 UV-I 23 W/m 6,3 C 4,8 C 14,5 km/h (3 Bft)
22.03.2024 07:08 8,3 C 7,8 C 88 % 1021,6 hPa 0,0 l/m 11,3 km/h (2 Bft) S 180 0 min 0,0 UV-I 23 W/m 6,4 C 4,9 C 14,5 km/h (3 Bft)
22.03.2024 07:09 8,3 C 7,8 C 88 % 1021,4 hPa 0,0 l/m 9,7 km/h (2 Bft) S-SW 202 0 min 0,0 UV-I 21 W/m 6,4 C 5,9 C 12,9 km/h (3 Bft)
22.03.2024 07:10 8,3 C 7,8 C 88 % 1021,5 hPa 0,0 l/m 11,3 km/h (2 Bft) S 180 0 min 0,0 UV-I 21 W/m 6,4 C 4,9 C 16,1 km/h (3 Bft)
22.03.2024 07:11 8,3 C 7,8 C 88 % 1021,4 hPa 0,0 l/m 11,3 km/h (2 Bft) S-SW 202 0 min 0,0 UV-I 20 W/m 6,4 C 4,9 C 14,5 km/h (3 Bft)
22.03.2024 07:12 8,3 C 7,8 C 88 % 1021,5 hPa 0,0 l/m 11,3 km/h (2 Bft) S 180 0 min 0,0 UV-I 19 W/m 6,4 C 4,9 C 14,5 km/h (3 Bft)
22.03.2024 07:13 8,3 C 7,8 C 87 % 1021,4 hPa 0,0 l/m 16,1 km/h (3 Bft) S-SW 202 0 min 0,0 UV-I 18 W/m 6,3 C 2,6 C 19,3 km/h (3 Bft)
22.03.2024 07:14 8,3 C 7,8 C 87 % 1021,4 hPa 0,0 l/m 9,7 km/h (2 Bft) S-SW 202 0 min 0,0 UV-I 16 W/m 6,3 C 5,9 C 14,5 km/h (3 Bft)
22.03.2024 07:15 8,3 C 7,8 C 87 % 1021,3 hPa 0,0 l/m 12,9 km/h (3 Bft) S-SW 202 0 min 0,0 UV-I 14 W/m 6,3 C 4,1 C 24,1 km/h (4 Bft)
22.03.2024 07:16 8,3 C 7,8 C 87 % 1021,4 hPa 0,0 l/m 16,1 km/h (3 Bft) S-SW 202 0 min 0,0 UV-I 14 W/m 6,3 C 2,6 C 22,5 km/h (4 Bft)
22.03.2024 07:17 8,4 C 7,8 C 87 % 1021,3 hPa 0,0 l/m 14,5 km/h (3 Bft) S 180 0 min 0,0 UV-I 13 W/m 6,4 C 3,4 C 22,5 km/h (4 Bft)
22.03.2024 07:18 8,4 C 7,8 C 87 % 1021,4 hPa 0,0 l/m 14,5 km/h (3 Bft) S 180 0 min 0,0 UV-I 12 W/m 6,4 C 3,4 C 20,9 km/h (4 Bft)
22.03.2024 07:19 8,4 C 7,8 C 87 % 1021,4 hPa 0,0 l/m 9,7 km/h (2 Bft) SW 225 0 min 0,0 UV-I 12 W/m 6,4 C 6,0 C 14,5 km/h (3 Bft)
22.03.2024 07:20 8,4 C 7,8 C 87 % 1021,3 hPa 0,0 l/m 16,1 km/h (3 Bft) S 180 0 min 0,0 UV-I 11 W/m 6,4 C 2,7 C 22,5 km/h (4 Bft)
22.03.2024 07:21 8,4 C 7,8 C 87 % 1021,4 hPa 0,0 l/m 11,3 km/h (2 Bft) S 180 0 min 0,0 UV-I 11 W/m 6,4 C 5,1 C 24,1 km/h (4 Bft)
22.03.2024 07:22 8,4 C 7,8 C 87 % 1021,3 hPa 0,0 l/m 12,9 km/h (3 Bft) S 180 0 min 0,0 UV-I 11 W/m 6,4 C 4,2 C 17,7 km/h (3 Bft)
22.03.2024 07:23 8,4 C 7,8 C 87 % 1021,2 hPa 0,0 l/m 14,5 km/h (3 Bft) S 180 0 min 0,0 UV-I 12 W/m 6,4 C 3,4 C 20,9 km/h (4 Bft)
22.03.2024 07:24 8,4 C 7,8 C 87 % 1021,3 hPa 0,0 l/m 11,3 km/h (2 Bft) S-SW 202 0 min 0,0 UV-I 12 W/m 6,4 C 5,1 C 16,1 km/h (3 Bft)
22.03.2024 07:25 8,4 C 7,8 C 87 % 1021,3 hPa 0,0 l/m 16,1 km/h (3 Bft) S 180 0 min 0,0 UV-I 12 W/m 6,4 C 2,7 C 19,3 km/h (3 Bft)
22.03.2024 07:26 8,4 C 7,8 C 87 % 1021,3 hPa 0,0 l/m 14,5 km/h (3 Bft) S-SW 202 0 min 0,0 UV-I 14 W/m 6,4 C 3,4 C 19,3 km/h (3 Bft)
22.03.2024 07:27 8,5 C 7,8 C 87 % 1021,5 hPa 0,0 l/m 14,5 km/h (3 Bft) S-SW 202 0 min 0,0 UV-I 14 W/m 6,5 C 3,5 C 19,3 km/h (3 Bft)
22.03.2024 07:28 8,5 C 7,8 C 87 % 1021,4 hPa 0,0 l/m 11,3 km/h (2 Bft) SW 225 0 min 0,0 UV-I 16 W/m 6,5 C 5,2 C 16,1 km/h (3 Bft)
22.03.2024 07:29 8,4 C 7,8 C 87 % 1021,3 hPa 0,0 l/m 12,9 km/h (3 Bft) S-SW 202 0 min 0,0 UV-I 17 W/m 6,4 C 4,2 C 20,9 km/h (4 Bft)
22.03.2024 07:30 8,5 C 7,8 C 86 % 1021,2 hPa 0,0 l/m 11,3 km/h (2 Bft) S 180 0 min 0,0 UV-I 18 W/m 6,3 C 5,2 C 16,1 km/h (3 Bft)
22.03.2024 07:31 8,5 C 7,8 C 86 % 1021,3 hPa 0,0 l/m 11,3 km/h (2 Bft) S-SW 202 0 min 0,0 UV-I 18 W/m 6,3 C 5,2 C 16,1 km/h (3 Bft)
22.03.2024 07:32 8,5 C 7,8 C 86 % 1021,3 hPa 0,0 l/m 14,5 km/h (3 Bft) S-SW 202 0 min 0,0 UV-I 19 W/m 6,3 C 3,5 C 20,9 km/h (4 Bft)
22.03.2024 07:33 8,6 C 7,8 C 86 % 1021,3 hPa 0,0 l/m 11,3 km/h (2 Bft) S-SW 202 0 min 0,0 UV-I 19 W/m 6,4 C 5,3 C 14,5 km/h (3 Bft)
22.03.2024 07:34 8,6 C 7,8 C 86 % 1021,3 hPa 0,0 l/m 12,9 km/h (3 Bft) S-SW 202 0 min 0,0 UV-I 21 W/m 6,4 C 4,4 C 16,1 km/h (3 Bft)
22.03.2024 07:35 8,6 C 8,3 C 86 % 1021,3 hPa 0,0 l/m 14,5 km/h (3 Bft) S 180 0 min 0,0 UV-I 23 W/m 6,4 C 3,7 C 17,7 km/h (3 Bft)
22.03.2024 07:36 8,6 C 8,3 C 86 % 1021,3 hPa 0,0 l/m 11,3 km/h (2 Bft) S-SW 202 0 min 0,0 UV-I 25 W/m 6,4 C 5,3 C 16,1 km/h (3 Bft)
22.03.2024 07:37 8,6 C 8,3 C 86 % 1021,3 hPa 0,0 l/m 12,9 km/h (3 Bft) S-SW 202 0 min 0,0 UV-I 26 W/m 6,4 C 4,4 C 16,1 km/h (3 Bft)
22.03.2024 07:38 8,6 C 8,3 C 86 % 1021,3 hPa 0,0 l/m 11,3 km/h (2 Bft) S 180 0 min 0,0 UV-I 28 W/m 6,4 C 5,3 C 17,7 km/h (3 Bft)
22.03.2024 07:39 8,6 C 8,3 C 86 % 1021,3 hPa 0,0 l/m 12,9 km/h (3 Bft) S 180 0 min 0,0 UV-I 30 W/m 6,4 C 4,4 C 19,3 km/h (3 Bft)
22.03.2024 07:40 8,6 C 8,3 C 86 % 1021,2 hPa 0,0 l/m 14,5 km/h (3 Bft) S-SW 202 0 min 0,0 UV-I 33 W/m 6,4 C 3,7 C 22,5 km/h (4 Bft)
22.03.2024 07:45 8,7 C 8,3 C 86 % 1021,3 hPa 0,0 l/m 15,5 km/h (3 Bft) SW 229 0 min 0,0 UV-I 36 W/m 6,5 C 3,3 C 22,5 km/h (4 Bft)
22.03.2024 07:48 8,8 C 8,3 C 86 % 1021,3 hPa 0,0 l/m 13,9 km/h (3 Bft) S 187 0 min 0,0 UV-I 30 W/m 6,6 C 4,2 C 17,7 km/h (3 Bft)
22.03.2024 07:51 8,8 C 8,3 C 85 % 1021,2 hPa 0,0 l/m 12,2 km/h (2 Bft) SW 218 0 min 0,0 UV-I 27 W/m 6,4 C 5,0 C 17,7 km/h (3 Bft)
22.03.2024 07:54 8,8 C 8,3 C 86 % 1021,2 hPa 0,0 l/m 11,3 km/h (2 Bft) S 186 0 min 0,0 UV-I 36 W/m 6,6 C 5,5 C 16,1 km/h (3 Bft)
22.03.2024 07:57 8,8 C 8,3 C 86 % 1021,1 hPa 0,0 l/m 10,3 km/h (2 Bft) S 188 0 min 0,0 UV-I 52 W/m 6,6 C 6,1 C 14,5 km/h (3 Bft)
22.03.2024 08:00 8,9 C 8,9 C 86 % 1021,1 hPa 0,0 l/m 17,5 km/h (3 Bft) S 178 0 min 0,0 UV-I 67 W/m 6,7 C 2,8 C 24,1 km/h (4 Bft)
22.03.2024 08:03 8,9 C 8,9 C 85 % 1021,2 hPa 0,0 l/m 15,7 km/h (3 Bft) S 182 0 min 0,0 UV-I 75 W/m 6,5 C 3,5 C 27,4 km/h (4 Bft)
22.03.2024 08:06 8,9 C 8,9 C 85 % 1021,1 hPa 0,0 l/m 12,7 km/h (3 Bft) S-SW 195 0 min 0,0 UV-I 80 W/m 6,5 C 4,9 C 17,7 km/h (3 Bft)
22.03.2024 08:09 9,1 C 8,9 C 85 % 1021,1 hPa 0,0 l/m 16,2 km/h (3 Bft) S-SW 192 0 min 0,0 UV-I 86 W/m 6,7 C 3,5 C 24,1 km/h (4 Bft)
22.03.2024 08:12 9,1 C 9,4 C 85 % 1021,0 hPa 0,0 l/m 13,5 km/h (3 Bft) S 190 0 min 0,0 UV-I 96 W/m 6,7 C 4,7 C 25,7 km/h (4 Bft)
22.03.2024 08:15 9,2 C 9,4 C 85 % 1021,0 hPa 0,0 l/m 14,1 km/h (3 Bft) S-SW 198 0 min 0,0 UV-I 95 W/m 6,8 C 4,6 C 22,5 km/h (4 Bft)
22.03.2024 08:18 9,2 C 9,4 C 85 % 1020,9 hPa 0,0 l/m 17,7 km/h (3 Bft) S 190 0 min 0,0 UV-I 94 W/m 6,8 C 3,1 C 27,4 km/h (4 Bft)
22.03.2024 08:21 9,3 C 9,4 C 85 % 1021,0 hPa 0,0 l/m 17,1 km/h (3 Bft) S-SW 209 0 min 0,0 UV-I 100 W/m 6,9 C 3,4 C 27,4 km/h (4 Bft)
22.03.2024 08:24 9,3 C 9,4 C 85 % 1020,9 hPa 0,0 l/m 18,1 km/h (3 Bft) S 188 0 min 0,1 UV-I 106 W/m 6,9 C 3,0 C 24,1 km/h (4 Bft)
22.03.2024 08:27 9,4 C 9,4 C 85 % 1020,8 hPa 0,0 l/m 16,5 km/h (3 Bft) S 173 0 min 0,5 UV-I 118 W/m 7,0 C 3,8 C 30,6 km/h (5 Bft)
22.03.2024 08:30 9,5 C 10,0 C 85 % 1020,9 hPa 0,0 l/m 14,8 km/h (3 Bft) S-SW 196 0 min 0,5 UV-I 129 W/m 7,1 C 4,6 C 24,1 km/h (4 Bft)
22.03.2024 08:33 9,6 C 10,0 C 84 % 1020,9 hPa 0,0 l/m 17,2 km/h (3 Bft) S-SW 196 0 min 0,1 UV-I 114 W/m 7,0 C 3,8 C 27,4 km/h (4 Bft)
22.03.2024 08:36 9,6 C 10,0 C 84 % 1020,8 hPa 0,0 l/m 18,2 km/h (3 Bft) S-SW 194 0 min 0,0 UV-I 100 W/m 7,0 C 3,4 C 27,4 km/h (4 Bft)
22.03.2024 08:39 9,6 C 9,4 C 84 % 1020,8 hPa 0,0 l/m 16,4 km/h (3 Bft) S-SW 205 0 min 0,0 UV-I 92 W/m 7,0 C 4,1 C 24,1 km/h (4 Bft)
22.03.2024 08:42 9,7 C 10,0 C 84 % 1020,9 hPa 0,0 l/m 15,4 km/h (3 Bft) S-SW 199 0 min 0,0 UV-I 84 W/m 7,1 C 4,6 C 24,1 km/h (4 Bft)
22.03.2024 08:45 9,7 C 9,4 C 84 % 1020,7 hPa 0,0 l/m 17,1 km/h (3 Bft) S 179 0 min 0,0 UV-I 85 W/m 7,1 C 3,9 C 24,1 km/h (4 Bft)
22.03.2024 08:48 9,7 C 10,0 C 84 % 1020,8 hPa 0,0 l/m 16,0 km/h (3 Bft) SW 219 0 min 0,3 UV-I 95 W/m 7,1 C 4,4 C 29,0 km/h (5 Bft)
22.03.2024 08:51 9,7 C 10,0 C 84 % 1020,7 hPa 0,0 l/m 14,7 km/h (3 Bft) S-SW 211 0 min 0,5 UV-I 107 W/m 7,1 C 4,9 C 20,9 km/h (4 Bft)
22.03.2024 08:54 9,7 C 10,0 C 84 % 1020,7 hPa 0,0 l/m 15,5 km/h (3 Bft) S-SW 197 0 min 0,6 UV-I 123 W/m 7,1 C 4,6 C 25,7 km/h (4 Bft)
22.03.2024 08:57 9,8 C 10,0 C 84 % 1020,7 hPa 0,0 l/m 13,9 km/h (3 Bft) S-SW 207 0 min 0,6 UV-I 136 W/m 7,2 C 5,4 C 22,5 km/h (4 Bft)
22.03.2024 09:00 9,8 C 10,6 C 84 % 1020,6 hPa 0,0 l/m 16,7 km/h (3 Bft) S-SW 209 0 min 0,7 UV-I 140 W/m 7,2 C 4,2 C 27,4 km/h (4 Bft)
22.03.2024 09:03 9,9 C 10,6 C 84 % 1020,5 hPa 0,0 l/m 17,7 km/h (3 Bft) S-SW 200 0 min 0,7 UV-I 139 W/m 7,3 C 4,0 C 24,1 km/h (4 Bft)
22.03.2024 09:06 10,0 C 10,6 C 84 % 1020,5 hPa 0,0 l/m 13,6 km/h (3 Bft) S 189 0 min 0,7 UV-I 144 W/m 7,4 C 5,7 C 22,5 km/h (4 Bft)
22.03.2024 09:09 10,1 C 10,6 C 84 % 1020,6 hPa 0,0 l/m 18,4 km/h (3 Bft) S-SW 192 0 min 0,6 UV-I 132 W/m 7,5 C 4,0 C 27,4 km/h (4 Bft)
22.03.2024 09:12 10,1 C 10,6 C 84 % 1020,7 hPa 0,0 l/m 14,1 km/h (3 Bft) SW 215 0 min 0,5 UV-I 115 W/m 7,5 C 5,6 C 20,9 km/h (4 Bft)
22.03.2024 09:15 10,1 C 10,6 C 84 % 1020,6 hPa 0,0 l/m 13,6 km/h (3 Bft) S-SW 207 0 min 0,5 UV-I 106 W/m 7,5 C 5,9 C 24,1 km/h (4 Bft)
22.03.2024 09:18 10,1 C 10,6 C 84 % 1020,7 hPa 0,0 l/m 14,8 km/h (3 Bft) S-SW 194 0 min 0,5 UV-I 104 W/m 7,5 C 5,3 C 22,5 km/h (4 Bft)
22.03.2024 09:21 10,1 C 10,6 C 84 % 1020,6 hPa 0,0 l/m 11,7 km/h (2 Bft) S-SW 197 0 min 0,5 UV-I 107 W/m 7,5 C 6,8 C 17,7 km/h (3 Bft)
22.03.2024 09:24 10,1 C 10,6 C 84 % 1020,5 hPa 0,0 l/m 12,2 km/h (2 Bft) S-SW 208 0 min 0,6 UV-I 120 W/m 7,5 C 6,5 C 22,5 km/h (4 Bft)
22.03.2024 09:27 10,2 C 10,6 C 84 % 1020,4 hPa 0,0 l/m 11,2 km/h (2 Bft) S-SW 200 0 min 0,7 UV-I 141 W/m 7,6 C 7,2 C 16,1 km/h (3 Bft)
22.03.2024 09:30 10,2 C 11,1 C 84 % 1020,5 hPa 0,0 l/m 11,0 km/h (2 Bft) SW 215 0 min 0,8 UV-I 163 W/m 7,6 C 7,3 C 20,9 km/h (4 Bft)
22.03.2024 09:33 10,2 C 11,1 C 84 % 1020,4 hPa 0,0 l/m 15,0 km/h (3 Bft) SW 221 0 min 0,9 UV-I 181 W/m 7,6 C 5,4 C 24,1 km/h (4 Bft)
22.03.2024 09:36 10,3 C 11,1 C 84 % 1020,4 hPa 0,0 l/m 11,2 km/h (2 Bft) S-SW 211 0 min 1,0 UV-I 199 W/m 7,7 C 7,3 C 22,5 km/h (4 Bft)
22.03.2024 09:39 10,3 C 11,7 C 84 % 1020,4 hPa 0,0 l/m 12,8 km/h (3 Bft) S-SW 204 0 min 1,0 UV-I 206 W/m 7,7 C 6,5 C 22,5 km/h (4 Bft)
22.03.2024 09:42 10,4 C 11,7 C 84 % 1020,5 hPa 0,0 l/m 11,5 km/h (2 Bft) SW 235 0 min 0,9 UV-I 194 W/m 7,8 C 7,2 C 22,5 km/h (4 Bft)
22.03.2024 09:45 10,4 C 11,1 C 84 % 1020,4 hPa 0,0 l/m 12,3 km/h (3 Bft) SW 229 0 min 0,9 UV-I 181 W/m 7,8 C 6,8 C 19,3 km/h (3 Bft)
22.03.2024 09:48 10,4 C 11,1 C 84 % 1020,3 hPa 0,0 l/m 11,8 km/h (2 Bft) SW 217 0 min 0,9 UV-I 176 W/m 7,8 C 7,1 C 20,9 km/h (4 Bft)
22.03.2024 09:51 10,4 C 11,1 C 84 % 1020,4 hPa 0,0 l/m 15,3 km/h (3 Bft) S-SW 196 0 min 0,9 UV-I 178 W/m 7,8 C 5,5 C 22,5 km/h (4 Bft)
22.03.2024 09:54 10,4 C 11,1 C 84 % 1020,3 hPa 0,0 l/m 11,9 km/h (2 Bft) SW 222 0 min 0,9 UV-I 175 W/m 7,8 C 7,0 C 22,5 km/h (4 Bft)
22.03.2024 09:57 10,4 C 11,1 C 84 % 1020,3 hPa 0,0 l/m 15,3 km/h (3 Bft) SW 230 0 min 0,9 UV-I 165 W/m 7,8 C 5,5 C 22,5 km/h (4 Bft)
22.03.2024 10:00 10,4 C 11,1 C 84 % 1020,3 hPa 0,0 l/m 12,0 km/h (2 Bft) S-SW 205 0 min 0,8 UV-I 156 W/m 7,8 C 7,0 C 22,5 km/h (4 Bft)
22.03.2024 10:03 10,4 C 11,1 C 84 % 1020,3 hPa 0,0 l/m 13,6 km/h (3 Bft) S-SW 211 0 min 0,8 UV-I 149 W/m 7,8 C 6,2 C 22,5 km/h (4 Bft)
22.03.2024 10:06 10,4 C 11,1 C 84 % 1020,1 hPa 0,0 l/m 10,9 km/h (2 Bft) S-SW 195 0 min 0,8 UV-I 141 W/m 7,8 C 7,5 C 16,1 km/h (3 Bft)
22.03.2024 10:09 10,4 C 11,1 C 84 % 1020,1 hPa 0,0 l/m 12,0 km/h (2 Bft) S 178 0 min 0,7 UV-I 137 W/m 7,8 C 7,0 C 19,3 km/h (3 Bft)
22.03.2024 10:12 10,4 C 11,1 C 84 % 1020,1 hPa 0,0 l/m 12,3 km/h (3 Bft) S 174 0 min 0,7 UV-I 133 W/m 7,8 C 6,8 C 22,5 km/h (4 Bft)
22.03.2024 10:15 10,4 C 11,1 C 84 % 1020,0 hPa 0,0 l/m 12,9 km/h (3 Bft) S-SW 193 0 min 0,7 UV-I 127 W/m 7,8 C 6,5 C 24,1 km/h (4 Bft)
22.03.2024 10:18 10,4 C 11,1 C 84 % 1019,9 hPa 0,0 l/m 15,0 km/h (3 Bft) S-SW 195 0 min 0,7 UV-I 127 W/m 7,8 C 5,6 C 25,7 km/h (4 Bft)
22.03.2024 10:21 10,4 C 11,1 C 84 % 1019,9 hPa 0,0 l/m 15,0 km/h (3 Bft) S-SW 204 0 min 0,7 UV-I 127 W/m 7,8 C 5,6 C 29,0 km/h (5 Bft)
22.03.2024 10:24 10,4 C 11,1 C 84 % 1019,9 hPa 0,0 l/m 14,8 km/h (3 Bft) SW 233 0 min 0,6 UV-I 119 W/m 7,8 C 5,7 C 25,7 km/h (4 Bft)
22.03.2024 10:27 10,4 C 11,1 C 84 % 1019,9 hPa 0,0 l/m 13,1 km/h (3 Bft) S-SW 204 0 min 0,6 UV-I 114 W/m 7,8 C 6,4 C 17,7 km/h (3 Bft)
22.03.2024 10:30 10,4 C 11,1 C 84 % 1019,8 hPa 0,0 l/m 13,3 km/h (3 Bft) S 187 0 min 0,7 UV-I 126 W/m 7,8 C 6,4 C 19,3 km/h (3 Bft)
22.03.2024 10:33 10,5 C 11,1 C 84 % 1019,9 hPa 0,0 l/m 15,1 km/h (3 Bft) S 188 0 min 0,8 UV-I 142 W/m 7,9 C 5,7 C 24,1 km/h (4 Bft)
22.03.2024 10:36 10,5 C 11,1 C 84 % 1019,8 hPa 0,0 l/m 11,8 km/h (2 Bft) SW 234 0 min 0,9 UV-I 157 W/m 7,9 C 7,2 C 17,7 km/h (3 Bft)
22.03.2024 10:39 10,6 C 11,7 C 84 % 1019,8 hPa 0,0 l/m 11,9 km/h (2 Bft) S-SW 211 0 min 1,0 UV-I 174 W/m 8,0 C 7,3 C 19,3 km/h (3 Bft)
22.03.2024 10:42 10,7 C 11,7 C 84 % 1019,7 hPa 0,0 l/m 10,9 km/h (2 Bft) S-SW 197 0 min 1,1 UV-I 188 W/m 8,1 C 7,9 C 19,3 km/h (3 Bft)
22.03.2024 10:45 10,8 C 11,7 C 83 % 1019,7 hPa 0,0 l/m 12,2 km/h (2 Bft) SW 234 0 min 1,0 UV-I 186 W/m 8,0 C 7,3 C 17,7 km/h (3 Bft)
22.03.2024 10:48 10,8 C 11,7 C 83 % 1019,6 hPa 0,0 l/m 13,6 km/h (3 Bft) S-SW 192 0 min 1,0 UV-I 173 W/m 8,0 C 6,7 C 20,9 km/h (4 Bft)
22.03.2024 10:51 10,9 C 11,7 C 83 % 1019,7 hPa 0,0 l/m 9,7 km/h (2 Bft) S-SW 196 0 min 0,9 UV-I 157 W/m 8,1 C 8,8 C 19,3 km/h (3 Bft)
22.03.2024 10:54 10,8 C 11,1 C 83 % 1019,8 hPa 0,0 l/m 14,4 km/h (3 Bft) SW 228 0 min 0,9 UV-I 149 W/m 8,0 C 6,4 C 25,7 km/h (4 Bft)
22.03.2024 10:57 10,8 C 11,1 C 83 % 1019,7 hPa 0,0 l/m 13,4 km/h (3 Bft) SW 236 0 min 0,9 UV-I 154 W/m 8,0 C 6,8 C 22,5 km/h (4 Bft)
22.03.2024 11:00 10,8 C 11,1 C 82 % 1019,7 hPa 0,0 l/m 14,2 km/h (3 Bft) S-SW 199 0 min 0,9 UV-I 162 W/m 7,9 C 6,4 C 29,0 km/h (5 Bft)
22.03.2024 11:03 10,8 C 11,7 C 82 % 1019,7 hPa 0,0 l/m 12,6 km/h (3 Bft) S-SW 194 0 min 1,0 UV-I 169 W/m 7,9 C 7,1 C 20,9 km/h (4 Bft)
22.03.2024 11:06 10,8 C 11,7 C 82 % 1019,6 hPa 0,0 l/m 15,8 km/h (3 Bft) S-SW 194 0 min 1,0 UV-I 179 W/m 7,9 C 5,8 C 27,4 km/h (4 Bft)
22.03.2024 11:09 10,9 C 11,7 C 82 % 1019,7 hPa 0,0 l/m 16,2 km/h (3 Bft) S-SW 205 0 min 1,1 UV-I 185 W/m 7,9 C 5,8 C 25,7 km/h (4 Bft)
22.03.2024 11:12 10,9 C 11,7 C 82 % 1019,7 hPa 0,0 l/m 14,4 km/h (3 Bft) W-SW 258 0 min 1,1 UV-I 190 W/m 7,9 C 6,5 C 22,5 km/h (4 Bft)
22.03.2024 11:15 11,1 C 11,7 C 82 % 1019,7 hPa 0,0 l/m 13,7 km/h (3 Bft) S-SW 204 0 min 1,2 UV-I 199 W/m 8,1 C 7,0 C 19,3 km/h (3 Bft)
22.03.2024 11:18 11,1 C 11,7 C 82 % 1019,7 hPa 0,0 l/m 15,4 km/h (3 Bft) W-SW 251 0 min 1,2 UV-I 203 W/m 8,1 C 6,3 C 22,5 km/h (4 Bft)
22.03.2024 11:21 11,1 C 12,2 C 82 % 1019,7 hPa 0,0 l/m 11,7 km/h (2 Bft) S-SW 192 0 min 1,2 UV-I 205 W/m 8,1 C 7,9 C 19,3 km/h (3 Bft)
22.03.2024 11:24 11,2 C 12,2 C 81 % 1019,7 hPa 0,0 l/m 9,7 km/h (2 Bft) S 188 0 min 1,2 UV-I 204 W/m 8,1 C 9,1 C 17,7 km/h (3 Bft)
22.03.2024 11:27 11,2 C 12,2 C 81 % 1019,7 hPa 0,0 l/m 9,6 km/h (2 Bft) S-SW 211 0 min 1,2 UV-I 198 W/m 8,1 C 9,1 C 16,1 km/h (3 Bft)
22.03.2024 11:30 11,3 C 12,2 C 81 % 1019,6 hPa 0,0 l/m 12,2 km/h (2 Bft) S-SW 195 0 min 1,2 UV-I 194 W/m 8,2 C 7,9 C 19,3 km/h (3 Bft)
22.03.2024 11:33 11,2 C 12,2 C 81 % 1019,8 hPa 0,0 l/m 13,9 km/h (3 Bft) S-SW 204 0 min 1,1 UV-I 177 W/m 8,1 C 7,0 C 20,9 km/h (4 Bft)
22.03.2024 11:36 11,2 C 11,7 C 81 % 1019,6 hPa 0,0 l/m 11,6 km/h (2 Bft) S-SW 192 0 min 0,9 UV-I 148 W/m 8,1 C 8,1 C 20,9 km/h (4 Bft)
22.03.2024 11:39 11,2 C 11,7 C 81 % 1019,5 hPa 0,0 l/m 12,1 km/h (2 Bft) S-SW 211 0 min 0,8 UV-I 126 W/m 8,1 C 7,8 C 16,1 km/h (3 Bft)
22.03.2024 11:42 11,2 C 11,7 C 81 % 1019,5 hPa 0,0 l/m 13,8 km/h (3 Bft) S-SW 197 0 min 0,8 UV-I 116 W/m 8,1 C 7,1 C 22,5 km/h (4 Bft)
22.03.2024 11:45 11,1 C 11,1 C 81 % 1019,5 hPa 0,0 l/m 10,5 km/h (2 Bft) S-SW 200 0 min 0,7 UV-I 111 W/m 8,0 C 8,5 C 16,1 km/h (3 Bft)
22.03.2024 11:48 11,1 C 11,1 C 81 % 1019,6 hPa 0,0 l/m 11,2 km/h (2 Bft) S-SW 193 0 min 0,7 UV-I 99 W/m 8,0 C 8,2 C 17,7 km/h (3 Bft)
22.03.2024 11:51 11,1 C 11,1 C 81 % 1019,4 hPa 0,0 l/m 10,7 km/h (2 Bft) SW 220 0 min 0,6 UV-I 87 W/m 8,0 C 8,4 C 20,9 km/h (4 Bft)
22.03.2024 11:54 10,9 C 11,1 C 82 % 1019,4 hPa 0,0 l/m 12,3 km/h (3 Bft) S-SW 194 0 min 0,5 UV-I 84 W/m 7,9 C 7,4 C 19,3 km/h (3 Bft)
22.03.2024 11:57 10,9 C 11,1 C 82 % 1019,4 hPa 0,0 l/m 11,5 km/h (2 Bft) SW 215 0 min 0,6 UV-I 89 W/m 7,9 C 7,8 C 16,1 km/h (3 Bft)
22.03.2024 12:00 10,9 C 11,1 C 82 % 1019,4 hPa 0,0 l/m 9,0 km/h (2 Bft) SW 216 0 min 0,6 UV-I 92 W/m 7,9 C 9,2 C 16,1 km/h (3 Bft)
22.03.2024 12:03 10,9 C 11,1 C 82 % 1019,4 hPa 0,0 l/m 13,5 km/h (3 Bft) SW 226 0 min 0,6 UV-I 96 W/m 7,9 C 6,9 C 19,3 km/h (3 Bft)
22.03.2024 12:06 10,8 C 11,1 C 82 % 1019,4 hPa 0,0 l/m 13,5 km/h (3 Bft) S-SW 194 0 min 0,7 UV-I 104 W/m 7,9 C 6,7 C 19,3 km/h (3 Bft)
22.03.2024 12:09 10,8 C 11,1 C 82 % 1019,4 hPa 0,0 l/m 12,7 km/h (3 Bft) SW 226 0 min 0,7 UV-I 105 W/m 7,9 C 7,1 C 20,9 km/h (4 Bft)
22.03.2024 12:12 10,9 C 11,1 C 82 % 1019,3 hPa 0,0 l/m 9,7 km/h (2 Bft) S-SW 198 0 min 0,7 UV-I 103 W/m 7,9 C 8,8 C 16,1 km/h (3 Bft)
22.03.2024 12:15 10,9 C 11,1 C 82 % 1019,3 hPa 0,0 l/m 11,8 km/h (2 Bft) S 183 0 min 0,7 UV-I 103 W/m 7,9 C 7,6 C 16,1 km/h (3 Bft)
22.03.2024 12:18 10,9 C 11,1 C 82 % 1019,5 hPa 0,0 l/m 12,3 km/h (3 Bft) S-SW 195 0 min 0,7 UV-I 104 W/m 7,9 C 7,4 C 20,9 km/h (4 Bft)
22.03.2024 12:21 10,9 C 11,1 C 82 % 1019,3 hPa 0,0 l/m 11,5 km/h (2 Bft) S 173 0 min 0,7 UV-I 108 W/m 7,9 C 7,8 C 17,7 km/h (3 Bft)
22.03.2024 12:24 10,9 C 11,1 C 82 % 1019,2 hPa 0,0 l/m 12,9 km/h (3 Bft) S 189 0 min 0,7 UV-I 111 W/m 7,9 C 7,1 C 20,9 km/h (4 Bft)
22.03.2024 12:27 10,9 C 11,1 C 82 % 1019,2 hPa 0,0 l/m 14,8 km/h (3 Bft) S-SW 202 0 min 0,7 UV-I 113 W/m 7,9 C 6,3 C 25,7 km/h (4 Bft)
22.03.2024 12:30 10,9 C 11,1 C 82 % 1019,1 hPa 0,0 l/m 12,6 km/h (3 Bft) S 184 0 min 0,7 UV-I 112 W/m 7,9 C 7,3 C 17,7 km/h (3 Bft)
22.03.2024 12:33 11,0 C 11,1 C 82 % 1018,9 hPa 0,0 l/m 12,7 km/h (3 Bft) S 176 0 min 0,7 UV-I 109 W/m 8,0 C 7,3 C 20,9 km/h (4 Bft)
22.03.2024 12:36 10,9 C 11,1 C 82 % 1019,0 hPa 0,0 l/m 14,6 km/h (3 Bft) S-SW 207 0 min 0,7 UV-I 110 W/m 7,9 C 6,4 C 22,5 km/h (4 Bft)
22.03.2024 12:39 11,0 C 11,1 C 82 % 1019,0 hPa 0,0 l/m 12,7 km/h (3 Bft) SW 229 0 min 0,7 UV-I 110 W/m 8,0 C 7,3 C 19,3 km/h (3 Bft)
22.03.2024 12:42 11,1 C 11,1 C 81 % 1018,9 hPa 0,0 l/m 10,9 km/h (2 Bft) S-SW 195 0 min 0,7 UV-I 106 W/m 8,0 C 8,3 C 19,3 km/h (3 Bft)
22.03.2024 12:45 11,1 C 11,1 C 81 % 1018,9 hPa 0,0 l/m 11,0 km/h (2 Bft) S 189 0 min 0,7 UV-I 105 W/m 8,0 C 8,3 C 16,1 km/h (3 Bft)
22.03.2024 12:48 11,1 C 11,1 C 81 % 1018,9 hPa 0,0 l/m 8,4 km/h (2 Bft) S 184 0 min 0,6 UV-I 99 W/m 8,0 C 9,8 C 14,5 km/h (3 Bft)
22.03.2024 12:51 11,1 C 11,1 C 81 % 1018,8 hPa 0,0 l/m 8,1 km/h (2 Bft) S-SW 197 0 min 0,6 UV-I 92 W/m 8,0 C 9,9 C 17,7 km/h (3 Bft)
22.03.2024 12:54 11,1 C 11,1 C 81 % 1018,8 hPa 0,0 l/m 11,1 km/h (2 Bft) S 186 0 min 0,6 UV-I 86 W/m 8,0 C 8,2 C 17,7 km/h (3 Bft)
22.03.2024 12:57 11,1 C 11,1 C 81 % 1018,8 hPa 0,0 l/m 9,4 km/h (2 Bft) S-SW 202 0 min 0,6 UV-I 89 W/m 8,0 C 9,1 C 16,1 km/h (3 Bft)
22.03.2024 13:00 11,1 C 11,1 C 80 % 1018,8 hPa 0,0 l/m 16,1 km/h (3 Bft) S 184 0 min 0,6 UV-I 94 W/m 7,8 C 6,0 C 24,1 km/h (4 Bft)
22.03.2024 13:03 11,1 C 11,1 C 80 % 1018,7 hPa 0,0 l/m 10,5 km/h (2 Bft) S-SW 193 0 min 0,6 UV-I 99 W/m 7,8 C 8,5 C 22,5 km/h (4 Bft)
22.03.2024 13:06 11,1 C 11,1 C 80 % 1018,7 hPa 0,0 l/m 13,0 km/h (3 Bft) SW 225 0 min 0,6 UV-I 99 W/m 7,8 C 7,3 C 19,3 km/h (3 Bft)
22.03.2024 13:09 11,1 C 11,1 C 80 % 1018,6 hPa 0,0 l/m 9,7 km/h (2 Bft) S 182 0 min 0,6 UV-I 94 W/m 7,8 C 9,0 C 14,5 km/h (3 Bft)
22.03.2024 13:12 11,1 C 11,1 C 80 % 1018,6 hPa 0,0 l/m 11,8 km/h (2 Bft) S-SW 195 0 min 0,5 UV-I 84 W/m 7,8 C 7,9 C 17,7 km/h (3 Bft)
22.03.2024 13:15 11,1 C 11,1 C 80 % 1018,4 hPa 0,0 l/m 11,4 km/h (2 Bft) SW 223 0 min 0,5 UV-I 77 W/m 7,8 C 8,1 C 17,7 km/h (3 Bft)
22.03.2024 13:18 11,1 C 11,1 C 80 % 1018,4 hPa 0,0 l/m 10,1 km/h (2 Bft) S-SW 199 0 min 0,5 UV-I 76 W/m 7,8 C 8,8 C 17,7 km/h (3 Bft)
22.03.2024 13:21 11,1 C 11,1 C 80 % 1018,3 hPa 0,0 l/m 7,8 km/h (2 Bft) S-SW 204 0 min 0,5 UV-I 85 W/m 7,8 C 10,1 C 11,3 km/h (2 Bft)
22.03.2024 13:24 11,1 C 11,1 C 80 % 1018,2 hPa 0,0 l/m 9,5 km/h (2 Bft) SW 224 0 min 0,6 UV-I 100 W/m 7,8 C 9,1 C 14,5 km/h (3 Bft)
22.03.2024 13:27 11,1 C 11,1 C 79 % 1018,2 hPa 0,0 l/m 9,6 km/h (2 Bft) SW 234 0 min 0,7 UV-I 110 W/m 7,6 C 9,0 C 16,1 km/h (3 Bft)
22.03.2024 13:30 11,1 C 11,7 C 79 % 1018,2 hPa 0,0 l/m 13,3 km/h (3 Bft) S-SW 204 0 min 0,7 UV-I 125 W/m 7,6 C 7,2 C 20,9 km/h (4 Bft)
22.03.2024 13:33 11,2 C 11,7 C 79 % 1018,1 hPa 0,0 l/m 10,2 km/h (2 Bft) S-SW 209 0 min 0,9 UV-I 148 W/m 7,7 C 8,8 C 16,1 km/h (3 Bft)
22.03.2024 13:36 11,3 C 12,2 C 79 % 1018,0 hPa 0,0 l/m 10,0 km/h (2 Bft) S-SW 202 0 min 1,0 UV-I 174 W/m 7,8 C 9,0 C 14,5 km/h (3 Bft)
22.03.2024 13:39 11,4 C 12,8 C 79 % 1017,9 hPa 0,0 l/m 11,5 km/h (2 Bft) S-SW 192 0 min 1,3 UV-I 223 W/m 7,9 C 8,4 C 16,1 km/h (3 Bft)
22.03.2024 13:42 11,6 C 13,9 C 78 % 1017,8 hPa 0,0 l/m 11,7 km/h (2 Bft) S-SW 197 0 min 1,5 UV-I 274 W/m 7,9 C 8,5 C 16,1 km/h (3 Bft)
22.03.2024 13:45 11,7 C 13,9 C 78 % 1017,7 hPa 0,0 l/m 11,9 km/h (2 Bft) S-SW 200 0 min 1,6 UV-I 280 W/m 8,0 C 8,5 C 17,7 km/h (3 Bft)
22.03.2024 13:48 11,8 C 13,9 C 77 % 1017,7 hPa 0,0 l/m 12,8 km/h (3 Bft) S-SW 192 0 min 1,5 UV-I 265 W/m 7,9 C 8,2 C 22,5 km/h (4 Bft)
22.03.2024 13:51 11,8 C 13,9 C 77 % 1017,7 hPa 0,0 l/m 14,9 km/h (3 Bft) S-SW 196 0 min 1,6 UV-I 272 W/m 7,9 C 7,4 C 20,9 km/h (4 Bft)
22.03.2024 13:54 11,8 C 13,9 C 76 % 1017,7 hPa 0,0 l/m 12,7 km/h (3 Bft) W-SW 248 0 min 1,7 UV-I 297 W/m 7,7 C 8,3 C 20,9 km/h (4 Bft)
22.03.2024 13:57 11,9 C 14,4 C 76 % 1017,7 hPa 0,0 l/m 15,9 km/h (3 Bft) S-SW 199 0 min 1,8 UV-I 307 W/m 7,8 C 7,1 C 24,1 km/h (4 Bft)
22.03.2024 14:00 12,0 C 15,0 C 75 % 1017,6 hPa 0,0 l/m 16,5 km/h (3 Bft) SW 217 3 min 2,0 UV-I 358 W/m 7,7 C 7,0 C 24,1 km/h (4 Bft)
22.03.2024 14:03 12,3 C 16,7 C 75 % 1017,6 hPa 0,0 l/m 12,9 km/h (3 Bft) W-SW 247 3 min 2,6 UV-I 395 W/m 8,0 C 8,8 C 19,3 km/h (3 Bft)
22.03.2024 14:06 12,7 C 17,8 C 74 % 1017,5 hPa 0,0 l/m 11,4 km/h (2 Bft) S-SW 195 3 min 2,4 UV-I 475 W/m 8,2 C 9,9 C 19,3 km/h (3 Bft)
22.03.2024 14:09 12,7 C 17,2 C 74 % 1017,4 hPa 0,0 l/m 10,4 km/h (2 Bft) SW 234 3 min 2,1 UV-I 424 W/m 8,2 C 10,4 C 16,1 km/h (3 Bft)
22.03.2024 14:12 12,8 C 17,8 C 73 % 1017,4 hPa 0,0 l/m 12,7 km/h (3 Bft) S 171 3 min 2,2 UV-I 441 W/m 8,1 C 9,4 C 27,4 km/h (4 Bft)
22.03.2024 14:15 13,1 C 17,8 C 74 % 1017,4 hPa 0,0 l/m 11,5 km/h (2 Bft) S-SW 196 3 min 2,2 UV-I 422 W/m 8,6 C 10,3 C 29,0 km/h (5 Bft)
22.03.2024 14:18 13,2 C 17,2 C 71 % 1017,4 hPa 0,0 l/m 14,0 km/h (3 Bft) S-SW 210 3 min 2,2 UV-I 440 W/m 8,1 C 9,4 C 24,1 km/h (4 Bft)
22.03.2024 14:21 13,2 C 18,9 C 71 % 1017,2 hPa 0,0 l/m 16,2 km/h (3 Bft) S 191 3 min 2,7 UV-I 514 W/m 8,1 C 8,6 C 22,5 km/h (4 Bft)
22.03.2024 14:24 13,3 C 19,4 C 70 % 1017,2 hPa 0,0 l/m 16,3 km/h (3 Bft) S-SW 193 3 min 2,4 UV-I 498 W/m 7,9 C 8,7 C 27,4 km/h (4 Bft)
22.03.2024 14:27 13,5 C 19,4 C 69 % 1017,1 hPa 0,0 l/m 15,0 km/h (3 Bft) SW 218 3 min 2,7 UV-I 602 W/m 7,9 C 9,4 C 20,9 km/h (4 Bft)
22.03.2024 14:30 13,8 C 20,6 C 68 % 1017,0 hPa 0,0 l/m 17,4 km/h (3 Bft) S 190 3 min 2,3 UV-I 635 W/m 8,0 C 8,9 C 25,7 km/h (4 Bft)
22.03.2024 14:33 13,5 C 18,3 C 66 % 1017,1 hPa 0,0 l/m 16,9 km/h (3 Bft) S-SW 202 3 min 2,3 UV-I 418 W/m 7,3 C 8,7 C 24,1 km/h (4 Bft)
22.03.2024 14:36 13,7 C 20,0 C 67 % 1016,9 hPa 0,0 l/m 16,0 km/h (3 Bft) S-SW 196 3 min 2,6 UV-I 617 W/m 7,7 C 9,3 C 24,1 km/h (4 Bft)
22.03.2024 14:39 13,9 C 21,1 C 66 % 1016,9 hPa 0,0 l/m 14,8 km/h (3 Bft) W-SW 254 3 min 2,5 UV-I 623 W/m 7,7 C 9,9 C 24,1 km/h (4 Bft)
22.03.2024 14:42 14,1 C 20,6 C 65 % 1016,9 hPa 0,0 l/m 11,0 km/h (2 Bft) W-SW 243 3 min 2,4 UV-I 572 W/m 7,6 C 11,7 C 17,7 km/h (3 Bft)
22.03.2024 14:45 13,9 C 19,4 C 66 % 1016,9 hPa 0,0 l/m 12,8 km/h (3 Bft) S-SW 213 3 min 2,1 UV-I 457 W/m 7,7 C 10,7 C 20,9 km/h (4 Bft)
22.03.2024 14:48 14,1 C 20,6 C 67 % 1016,8 hPa 0,0 l/m 11,5 km/h (2 Bft) SW 230 3 min 2,6 UV-I 487 W/m 8,1 C 11,4 C 17,7 km/h (3 Bft)
22.03.2024 14:51 14,1 C 20,6 C 65 % 1016,9 hPa 0,0 l/m 17,6 km/h (3 Bft) SW 228 3 min 2,4 UV-I 556 W/m 7,6 C 9,3 C 25,7 km/h (4 Bft)
22.03.2024 14:54 14,1 C 20,6 C 65 % 1016,9 hPa 0,0 l/m 19,4 km/h (3 Bft) S 184 3 min 2,5 UV-I 583 W/m 7,6 C 8,7 C 25,7 km/h (4 Bft)
22.03.2024 14:57 13,9 C 19,4 C 66 % 1016,8 hPa 0,0 l/m 17,5 km/h (3 Bft) S-SW 213 3 min 2,1 UV-I 427 W/m 7,7 C 9,0 C 27,4 km/h (4 Bft)
22.03.2024 15:00 13,9 C 20,0 C 65 % 1016,7 hPa 0,0 l/m 19,5 km/h (3 Bft) S-SW 199 3 min 2,4 UV-I 460 W/m 7,4 C 8,5 C 29,0 km/h (5 Bft)
22.03.2024 15:03 14,1 C 20,6 C 65 % 1016,6 hPa 0,0 l/m 16,6 km/h (3 Bft) S 190 3 min 2,4 UV-I 603 W/m 7,6 C 9,6 C 25,7 km/h (4 Bft)
22.03.2024 15:06 14,1 C 19,4 C 65 % 1016,6 hPa 0,0 l/m 19,4 km/h (3 Bft) SW 214 3 min 2,1 UV-I 453 W/m 7,6 C 8,7 C 33,8 km/h (5 Bft)
22.03.2024 15:09 14,1 C 20,6 C 65 % 1016,5 hPa 0,0 l/m 20,9 km/h (4 Bft) S-SW 201 3 min 2,4 UV-I 553 W/m 7,6 C 8,3 C 32,2 km/h (5 Bft)
22.03.2024 15:12 14,2 C 20,6 C 66 % 1016,4 hPa 0,0 l/m 16,3 km/h (3 Bft) S-SW 202 3 min 2,2 UV-I 590 W/m 7,9 C 9,8 C 29,0 km/h (5 Bft)
22.03.2024 15:15 14,6 C 23,3 C 65 % 1016,4 hPa 0,0 l/m 13,2 km/h (3 Bft) S 184 3 min 2,4 UV-I 622 W/m 8,1 C 11,3 C 22,5 km/h (4 Bft)
22.03.2024 15:18 14,4 C 22,8 C 65 % 1016,4 hPa 0,0 l/m 16,1 km/h (3 Bft) S 182 3 min 2,3 UV-I 595 W/m 7,9 C 10,1 C 25,7 km/h (4 Bft)
22.03.2024 15:21 14,6 C 21,7 C 65 % 1016,5 hPa 0,0 l/m 12,5 km/h (3 Bft) S 170 3 min 2,1 UV-I 485 W/m 8,1 C 11,6 C 20,9 km/h (4 Bft)
22.03.2024 15:24 14,7 C 22,2 C 66 % 1016,4 hPa 0,0 l/m 10,5 km/h (2 Bft) S-SW 198 3 min 2,0 UV-I 448 W/m 8,4 C 12,6 C 17,7 km/h (3 Bft)
22.03.2024 15:27 14,4 C 22,2 C 65 % 1016,3 hPa 0,0 l/m 11,2 km/h (2 Bft) S 177 3 min 1,9 UV-I 408 W/m 7,9 C 11,9 C 16,1 km/h (3 Bft)
22.03.2024 15:30 14,7 C 22,8 C 63 % 1016,2 hPa 0,0 l/m 15,2 km/h (3 Bft) S-SW 207 3 min 2,2 UV-I 570 W/m 7,7 C 10,8 C 24,1 km/h (4 Bft)
22.03.2024 15:33 14,6 C 21,7 C 64 % 1016,2 hPa 0,0 l/m 18,4 km/h (3 Bft) S-SW 196 3 min 2,1 UV-I 570 W/m 7,9 C 9,7 C 27,4 km/h (4 Bft)
22.03.2024 15:36 14,7 C 22,2 C 63 % 1016,1 hPa 0,0 l/m 15,8 km/h (3 Bft) S 188 3 min 2,2 UV-I 582 W/m 7,7 C 10,6 C 22,5 km/h (4 Bft)
22.03.2024 15:39 14,8 C 22,2 C 62 % 1016,1 hPa 0,0 l/m 18,7 km/h (3 Bft) S 188 3 min 2,2 UV-I 573 W/m 7,6 C 9,8 C 30,6 km/h (5 Bft)
22.03.2024 15:42 14,9 C 21,7 C 61 % 1016,1 hPa 0,0 l/m 17,4 km/h (3 Bft) S-SW 211 3 min 2,0 UV-I 523 W/m 7,4 C 10,3 C 27,4 km/h (4 Bft)
22.03.2024 15:45 14,8 C 21,7 C 61 % 1016,0 hPa 0,0 l/m 14,8 km/h (3 Bft) SW 215 3 min 2,0 UV-I 484 W/m 7,4 C 11,0 C 27,4 km/h (4 Bft)
22.03.2024 15:48 14,8 C 20,6 C 59 % 1015,7 hPa 0,0 l/m 22,2 km/h (4 Bft) S 186 3 min 1,8 UV-I 469 W/m 6,9 C 8,9 C 32,2 km/h (5 Bft)
22.03.2024 15:51 14,7 C 20,6 C 58 % 1015,7 hPa 0,0 l/m 23,0 km/h (4 Bft) S 182 3 min 1,8 UV-I 462 W/m 6,5 C 8,6 C 32,2 km/h (5 Bft)
22.03.2024 15:54 14,6 C 20,0 C 58 % 1015,8 hPa 0,0 l/m 20,1 km/h (4 Bft) S 190 3 min 1,7 UV-I 444 W/m 6,4 C 9,2 C 41,8 km/h (6 Bft)
22.03.2024 15:57 14,6 C 20,0 C 58 % 1015,7 hPa 0,0 l/m 16,9 km/h (3 Bft) S-SW 197 3 min 1,7 UV-I 424 W/m 6,4 C 10,1 C 27,4 km/h (4 Bft)
22.03.2024 16:00 14,6 C 19,4 C 58 % 1015,6 hPa 0,0 l/m 16,5 km/h (3 Bft) S 173 3 min 1,5 UV-I 413 W/m 6,4 C 10,2 C 27,4 km/h (4 Bft)
22.03.2024 16:03 14,7 C 20,0 C 58 % 1015,7 hPa 0,0 l/m 18,6 km/h (3 Bft) S 188 3 min 1,6 UV-I 419 W/m 6,5 C 9,7 C 29,0 km/h (5 Bft)
22.03.2024 16:06 14,5 C 18,9 C 58 % 1015,6 hPa 0,0 l/m 19,4 km/h (3 Bft) SW 217 3 min 1,6 UV-I 433 W/m 6,3 C 9,3 C 30,6 km/h (5 Bft)
22.03.2024 16:09 14,6 C 18,9 C 58 % 1015,7 hPa 0,0 l/m 16,7 km/h (3 Bft) S 176 3 min 1,6 UV-I 435 W/m 6,4 C 10,2 C 29,0 km/h (5 Bft)
22.03.2024 16:12 14,6 C 19,4 C 57 % 1015,5 hPa 0,0 l/m 18,9 km/h (3 Bft) S-SW 192 3 min 1,6 UV-I 453 W/m 6,2 C 9,5 C 25,7 km/h (4 Bft)
22.03.2024 16:15 14,6 C 20,0 C 58 % 1015,5 hPa 0,0 l/m 18,6 km/h (3 Bft) S 184 3 min 1,5 UV-I 440 W/m 6,4 C 9,6 C 27,4 km/h (4 Bft)
22.03.2024 16:18 14,7 C 20,6 C 59 % 1015,5 hPa 0,0 l/m 16,7 km/h (3 Bft) S 186 3 min 1,5 UV-I 418 W/m 6,8 C 10,3 C 27,4 km/h (4 Bft)
22.03.2024 16:21 14,6 C 19,4 C 59 % 1015,5 hPa 0,0 l/m 18,9 km/h (3 Bft) S-SW 202 3 min 1,3 UV-I 374 W/m 6,7 C 9,5 C 25,7 km/h (4 Bft)
22.03.2024 16:24 14,4 C 18,3 C 60 % 1015,4 hPa 0,0 l/m 13,5 km/h (3 Bft) SW 218 3 min 1,3 UV-I 340 W/m 6,7 C 11,0 C 22,5 km/h (4 Bft)
22.03.2024 16:27 14,6 C 16,7 C 61 % 1015,5 hPa 0,0 l/m 10,8 km/h (2 Bft) S-SW 192 3 min 1,3 UV-I 353 W/m 7,2 C 12,3 C 16,1 km/h (3 Bft)
22.03.2024 16:30 14,7 C 15,6 C 60 % 1015,3 hPa 0,0 l/m 14,9 km/h (3 Bft) S 190 3 min 1,2 UV-I 354 W/m 7,0 C 10,9 C 22,5 km/h (4 Bft)
22.03.2024 16:33 14,6 C 15,6 C 59 % 1015,4 hPa 0,0 l/m 15,6 km/h (3 Bft) S-SW 200 3 min 1,2 UV-I 346 W/m 6,7 C 10,5 C 25,7 km/h (4 Bft)
22.03.2024 16:36 14,4 C 15,0 C 59 % 1015,2 hPa 0,0 l/m 14,9 km/h (3 Bft) SW 235 3 min 1,2 UV-I 325 W/m 6,5 C 10,5 C 24,1 km/h (4 Bft)
22.03.2024 16:39 14,6 C 18,3 C 60 % 1015,2 hPa 0,0 l/m 13,1 km/h (3 Bft) S 182 3 min 1,1 UV-I 321 W/m 6,9 C 11,4 C 25,7 km/h (4 Bft)
22.03.2024 16:42 14,6 C 19,4 C 60 % 1015,1 hPa 0,0 l/m 13,7 km/h (3 Bft) S-SO 168 3 min 1,1 UV-I 318 W/m 6,9 C 11,2 C 24,1 km/h (4 Bft)
22.03.2024 16:45 14,7 C 20,6 C 59 % 1015,1 hPa 0,0 l/m 11,7 km/h (2 Bft) S-SW 194 3 min 1,0 UV-I 314 W/m 6,8 C 12,0 C 16,1 km/h (3 Bft)
22.03.2024 16:48 14,7 C 20,0 C 58 % 1015,1 hPa 0,0 l/m 14,8 km/h (3 Bft) S-SO 168 3 min 1,0 UV-I 304 W/m 6,5 C 10,9 C 27,4 km/h (4 Bft)
22.03.2024 16:51 14,6 C 20,0 C 58 % 1015,1 hPa 0,0 l/m 17,2 km/h (3 Bft) S-SW 206 3 min 1,0 UV-I 294 W/m 6,4 C 10,0 C 27,4 km/h (4 Bft)
22.03.2024 16:54 14,6 C 20,0 C 59 % 1014,9 hPa 0,0 l/m 13,7 km/h (3 Bft) S-SW 198 3 min 0,9 UV-I 283 W/m 6,7 C 11,2 C 24,1 km/h (4 Bft)
22.03.2024 16:57 14,5 C 20,0 C 59 % 1015,0 hPa 0,0 l/m 15,2 km/h (3 Bft) S-SW 192 3 min 0,8 UV-I 266 W/m 6,6 C 10,5 C 25,7 km/h (4 Bft)
22.03.2024 17:00 14,5 C 20,0 C 61 % 1014,9 hPa 0,0 l/m 12,8 km/h (3 Bft) S-SW 194 3 min 0,8 UV-I 263 W/m 7,1 C 11,4 C 22,5 km/h (4 Bft)
22.03.2024 17:03 14,4 C 20,0 C 60 % 1014,8 hPa 0,0 l/m 13,7 km/h (3 Bft) S-SW 208 3 min 0,8 UV-I 259 W/m 6,7 C 10,9 C 29,0 km/h (5 Bft)
22.03.2024 17:06 14,3 C 20,0 C 60 % 1014,8 hPa 0,0 l/m 10,2 km/h (2 Bft) SW 224 3 min 0,7 UV-I 247 W/m 6,6 C 12,3 C 16,1 km/h (3 Bft)
22.03.2024 17:09 14,3 C 18,9 C 61 % 1014,7 hPa 0,0 l/m 10,7 km/h (2 Bft) S-SW 194 3 min 0,7 UV-I 222 W/m 6,9 C 12,0 C 17,7 km/h (3 Bft)
22.03.2024 17:12 14,1 C 16,1 C 62 % 1014,8 hPa 0,0 l/m 10,5 km/h (2 Bft) SW 219 3 min 0,3 UV-I 196 W/m 6,9 C 11,9 C 16,1 km/h (3 Bft)
22.03.2024 17:15 13,9 C 14,4 C 62 % 1014,7 hPa 0,0 l/m 10,6 km/h (2 Bft) S-SW 196 0 min 0,5 UV-I 72 W/m 6,7 C 11,6 C 16,1 km/h (3 Bft)
22.03.2024 17:18 13,8 C 13,9 C 63 % 1014,7 hPa 0,0 l/m 8,2 km/h (2 Bft) S-SW 211 0 min 0,5 UV-I 85 W/m 6,9 C 12,7 C 12,9 km/h (3 Bft)
22.03.2024 17:21 13,7 C 13,3 C 63 % 1014,7 hPa 0,0 l/m 8,6 km/h (2 Bft) S-SW 202 0 min 0,1 UV-I 73 W/m 6,8 C 12,4 C 12,9 km/h (3 Bft)
22.03.2024 17:24 13,6 C 13,3 C 64 % 1014,6 hPa 0,0 l/m 8,3 km/h (2 Bft) SW 217 3 min 0,3 UV-I 131 W/m 6,9 C 12,5 C 12,9 km/h (3 Bft)
22.03.2024 17:27 13,5 C 12,8 C 64 % 1014,5 hPa 0,0 l/m 8,4 km/h (2 Bft) SW 231 0 min 0,0 UV-I 66 W/m 6,8 C 12,3 C 12,9 km/h (3 Bft)
22.03.2024 17:30 13,4 C 12,8 C 65 % 1014,5 hPa 0,0 l/m 7,8 km/h (2 Bft) S-SW 202 0 min 0,0 UV-I 57 W/m 7,0 C 12,5 C 11,3 km/h (2 Bft)
22.03.2024 17:33 13,3 C 12,2 C 65 % 1014,6 hPa 0,0 l/m 8,0 km/h (2 Bft) S 184 0 min 0,0 UV-I 55 W/m 6,9 C 12,3 C 12,9 km/h (3 Bft)
22.03.2024 17:36 13,3 C 12,8 C 65 % 1014,5 hPa 0,0 l/m 10,2 km/h (2 Bft) S 189 0 min 0,0 UV-I 63 W/m 6,9 C 11,1 C 17,7 km/h (3 Bft)
22.03.2024 17:39 13,4 C 12,8 C 64 % 1014,6 hPa 0,0 l/m 11,5 km/h (2 Bft) S-SW 193 0 min 0,0 UV-I 64 W/m 6,7 C 10,6 C 16,1 km/h (3 Bft)
22.03.2024 17:42 13,6 C 12,8 C 61 % 1014,5 hPa 0,0 l/m 16,0 km/h (3 Bft) SW 215 0 min 0,0 UV-I 65 W/m 6,2 C 9,2 C 25,7 km/h (4 Bft)
22.03.2024 17:45 13,7 C 12,8 C 61 % 1014,4 hPa 0,0 l/m 14,3 km/h (3 Bft) S-SW 199 0 min 0,0 UV-I 58 W/m 6,3 C 9,9 C 22,5 km/h (4 Bft)
22.03.2024 17:48 13,8 C 12,8 C 60 % 1014,5 hPa 0,0 l/m 12,8 km/h (3 Bft) S-SO 153 0 min 0,0 UV-I 45 W/m 6,2 C 10,6 C 22,5 km/h (4 Bft)
22.03.2024 17:51 13,8 C 12,2 C 60 % 1014,5 hPa 0,0 l/m 9,9 km/h (2 Bft) S 191 0 min 0,0 UV-I 41 W/m 6,2 C 11,8 C 17,7 km/h (3 Bft)
22.03.2024 17:54 13,7 C 12,2 C 60 % 1014,4 hPa 0,0 l/m 17,5 km/h (3 Bft) S 186 0 min 0,0 UV-I 35 W/m 6,1 C 8,8 C 27,4 km/h (4 Bft)
22.03.2024 17:57 13,6 C 12,2 C 60 % 1014,4 hPa 0,0 l/m 16,1 km/h (3 Bft) S-SW 213 0 min 0,0 UV-I 28 W/m 6,0 C 9,1 C 20,9 km/h (4 Bft)
22.03.2024 18:00 13,4 C 11,7 C 60 % 1014,3 hPa 0,0 l/m 12,2 km/h (2 Bft) S-SW 207 0 min 0,0 UV-I 24 W/m 5,8 C 10,3 C 17,7 km/h (3 Bft)
22.03.2024 18:03 13,3 C 11,7 C 61 % 1014,3 hPa 0,0 l/m 10,3 km/h (2 Bft) S-SW 203 0 min 0,0 UV-I 22 W/m 5,9 C 11,1 C 17,7 km/h (3 Bft)
22.03.2024 18:06 13,2 C 11,7 C 60 % 1014,3 hPa 0,0 l/m 9,2 km/h (2 Bft) SW 236 0 min 0,0 UV-I 21 W/m 5,6 C 11,5 C 17,7 km/h (3 Bft)
22.03.2024 18:09 13,1 C 11,1 C 61 % 1014,3 hPa 0,0 l/m 6,9 km/h (2 Bft) W-SW 246 0 min 0,0 UV-I 19 W/m 5,8 C 12,8 C 12,9 km/h (3 Bft)
22.03.2024 18:12 12,8 C 11,1 C 62 % 1014,3 hPa 0,0 l/m 3,9 km/h (1 Bft) S-SW 198 0 min 0,0 UV-I 19 W/m 5,7 C 12,8 C 9,7 km/h (2 Bft)
22.03.2024 18:15 12,7 C 10,6 C 62 % 1014,3 hPa 0,0 l/m 7,7 km/h (2 Bft) W 259 0 min 0,0 UV-I 19 W/m 5,6 C 11,9 C 12,9 km/h (3 Bft)
22.03.2024 18:18 12,4 C 10,6 C 63 % 1014,3 hPa 0,0 l/m 10,2 km/h (2 Bft) W 271 0 min 0,0 UV-I 18 W/m 5,6 C 10,1 C 14,5 km/h (3 Bft)
22.03.2024 18:21 12,2 C 10,6 C 64 % 1014,4 hPa 0,0 l/m 6,5 km/h (2 Bft) W 265 0 min 0,0 UV-I 18 W/m 5,6 C 12,2 C 12,9 km/h (3 Bft)
22.03.2024 18:24 12,0 C 10,0 C 63 % 1014,3 hPa 0,0 l/m 9,4 km/h (2 Bft) W-SW 249 0 min 0,0 UV-I 16 W/m 5,2 C 10,1 C 14,5 km/h (3 Bft)
22.03.2024 18:27 11,9 C 10,0 C 64 % 1014,2 hPa 0,0 l/m 4,1 km/h (1 Bft) W-SW 249 0 min 0,0 UV-I 15 W/m 5,3 C 11,9 C 6,4 km/h (2 Bft)
22.03.2024 18:30 11,7 C 9,4 C 64 % 1014,2 hPa 0,0 l/m 2,8 km/h (1 Bft) W-SW 250 0 min 0,0 UV-I 13 W/m 5,1 C 11,7 C 6,4 km/h (2 Bft)
22.03.2024 18:33 11,5 C 8,9 C 65 % 1014,2 hPa 0,0 l/m 2,6 km/h (1 Bft) W-SW 250 0 min 0,0 UV-I 12 W/m 5,2 C 11,5 C 4,8 km/h (1 Bft)
22.03.2024 18:37 11,2 C 7,8 C 66 % 1014,1 hPa 0,0 l/m 3,8 km/h (1 Bft) W-SW 249 0 min 0,0 UV-I 10 W/m 5,1 C 11,2 C 8,0 km/h (2 Bft)
22.03.2024 18:39 11,1 C 7,8 C 66 % 1014,2 hPa 0,0 l/m 4,8 km/h (1 Bft) W-SW 249 0 min 0,0 UV-I 8 W/m 5,0 C 11,1 C 6,4 km/h (2 Bft)
22.03.2024 18:42 10,9 C 7,8 C 66 % 1014,2 hPa 0,0 l/m 5,6 km/h (1 Bft) W-SW 251 0 min 0,0 UV-I 7 W/m 4,8 C 10,9 C 8,0 km/h (2 Bft)
22.03.2024 18:45 10,7 C 7,2 C 67 % 1014,2 hPa 0,0 l/m 3,1 km/h (1 Bft) W-SW 251 0 min 0,0 UV-I 5 W/m 4,8 C 10,7 C 6,4 km/h (2 Bft)
22.03.2024 18:48 10,2 C 7,2 C 69 % 1014,2 hPa 0,0 l/m 2,1 km/h (1 Bft) W-SW 251 0 min 0,0 UV-I 3 W/m 4,8 C 10,2 C 3,2 km/h (1 Bft)
22.03.2024 18:51 9,9 C 6,7 C 70 % 1014,2 hPa 0,0 l/m 2,7 km/h (1 Bft) W-SW 251 0 min 0,0 UV-I 0 W/m 4,7 C 9,9 C 3,2 km/h (1 Bft)
22.03.2024 18:54 9,8 C 6,1 C 71 % 1014,2 hPa 0,0 l/m 2,8 km/h (1 Bft) W-SW 251 0 min 0,0 UV-I 0 W/m 4,8 C 9,8 C 4,8 km/h (1 Bft)
22.03.2024 18:57 9,9 C 6,1 C 70 % 1014,3 hPa 0,0 l/m 3,1 km/h (1 Bft) W-SW 251 0 min 0,0 UV-I 0 W/m 4,7 C 9,9 C 6,4 km/h (2 Bft)
22.03.2024 19:00 9,8 C 6,1 C 70 % 1014,3 hPa 0,0 l/m 2,9 km/h (1 Bft) W-SW 251 0 min 0,0 UV-I 0 W/m 4,6 C 9,8 C 4,8 km/h (1 Bft)
22.03.2024 19:03 9,7 C 6,7 C 71 % 1014,2 hPa 0,0 l/m 2,1 km/h (1 Bft) W-SW 251 0 min 0,0 UV-I 0 W/m 4,7 C 9,7 C 3,2 km/h (1 Bft)
22.03.2024 19:06 9,4 C 6,1 C 71 % 1014,1 hPa 0,0 l/m 1,8 km/h (1 Bft) W-SW 251 0 min 0,0 UV-I 0 W/m 4,4 C 9,4 C 3,2 km/h (1 Bft)
22.03.2024 19:09 9,2 C 6,1 C 72 % 1014,3 hPa 0,0 l/m 0,7 km/h (0 Bft) W-SW 251 0 min 0,0 UV-I 0 W/m 4,4 C 9,2 C 1,6 km/h (1 Bft)
22.03.2024 19:12 9,1 C 5,6 C 73 % 1014,2 hPa 0,0 l/m 1,0 km/h (0 Bft) W-SW 251 0 min 0,0 UV-I 0 W/m 4,5 C 9,1 C 3,2 km/h (1 Bft)
22.03.2024 19:15 9,0 C 5,6 C 73 % 1014,2 hPa 0,0 l/m 0,9 km/h (0 Bft) W-SW 251 0 min 0,0 UV-I 0 W/m 4,4 C 9,0 C 1,6 km/h (1 Bft)
22.03.2024 19:18 8,8 C 5,6 C 74 % 1014,2 hPa 0,0 l/m 1,0 km/h (0 Bft) W-SW 251 0 min 0,0 UV-I 0 W/m 4,4 C 8,8 C 3,2 km/h (1 Bft)
22.03.2024 19:21 8,7 C 5,6 C 74 % 1014,2 hPa 0,0 l/m 2,2 km/h (1 Bft) W-SW 251 0 min 0,0 UV-I 0 W/m 4,3 C 8,7 C 3,2 km/h (1 Bft)
22.03.2024 19:24 8,7 C 5,6 C 74 % 1014,1 hPa 0,0 l/m 2,3 km/h (1 Bft) W-SW 251 0 min 0,0 UV-I 0 W/m 4,3 C 8,7 C 4,8 km/h (1 Bft)
22.03.2024 19:27 8,8 C 5,6 C 73 % 1014,0 hPa 0,0 l/m 2,4 km/h (1 Bft) W-SW 251 0 min 0,0 UV-I 0 W/m 4,2 C 8,8 C 4,8 km/h (1 Bft)
22.03.2024 19:30 8,4 C 5,0 C 74 % 1014,0 hPa 0,0 l/m 0,6 km/h (0 Bft) W-SW 251 0 min 0,0 UV-I 0 W/m 4,0 C 8,4 C 1,6 km/h (1 Bft)
22.03.2024 19:33 7,9 C 4,4 C 75 % 1014,0 hPa 0,0 l/m 0,6 km/h (0 Bft) W-SW 251 0 min 0,0 UV-I 0 W/m 3,7 C 7,9 C 1,6 km/h (1 Bft)
22.03.2024 19:36 7,7 C 4,4 C 76 % 1014,1 hPa 0,0 l/m 0,0 km/h (0 Bft) W-SW 251 0 min 0,0 UV-I 0 W/m 3,7 C 7,7 C 0,0 km/h (0 Bft)
22.03.2024 19:39 7,7 C 4,4 C 77 % 1014,1 hPa 0,0 l/m 0,0 km/h (0 Bft) W-SW 251 0 min 0,0 UV-I 0 W/m 3,9 C 7,7 C 0,0 km/h (0 Bft)
22.03.2024 19:42 7,7 C 4,4 C 77 % 1014,0 hPa 0,0 l/m 0,0 km/h (0 Bft) W-SW 251 0 min 0,0 UV-I 0 W/m 3,9 C 7,7 C 0,0 km/h (0 Bft)
22.03.2024 19:45 7,7 C 4,4 C 77 % 1013,9 hPa 0,0 l/m 0,0 km/h (0 Bft) W-SW 251 0 min 0,0 UV-I 0 W/m 3,9 C 7,7 C 0,0 km/h (0 Bft)
22.03.2024 19:48 7,6 C 3,9 C 77 % 1013,9 hPa 0,0 l/m 0,0 km/h (0 Bft) W-SW 251 0 min 0,0 UV-I 0 W/m 3,8 C 7,6 C 0,0 km/h (0 Bft)
22.03.2024 19:51 7,3 C 3,9 C 78 % 1013,9 hPa 0,0 l/m 0,0 km/h (0 Bft) W-SW 251 0 min 0,0 UV-I 0 W/m 3,7 C 7,3 C 0,0 km/h (0 Bft)
22.03.2024 19:54 6,8 C 3,3 C 78 % 1013,9 hPa 0,0 l/m 0,0 km/h (0 Bft) W-SW 251 0 min 0,0 UV-I 0 W/m 3,2 C 6,8 C 0,0 km/h (0 Bft)
22.03.2024 19:57 6,6 C 3,3 C 80 % 1013,9 hPa 0,0 l/m 0,2 km/h (0 Bft) W-SW 251 0 min 0,0 UV-I 0 W/m 3,4 C 6,6 C 1,6 km/h (1 Bft)
22.03.2024 20:00 6,8 C 3,9 C 81 % 1013,7 hPa 0,0 l/m 0,3 km/h (0 Bft) W-SW 251 0 min 0,0 UV-I 0 W/m 3,8 C 6,8 C 1,6 km/h (1 Bft)
22.03.2024 20:03 6,8 C 3,9 C 80 % 1013,9 hPa 0,0 l/m 0,0 km/h (0 Bft) W-SW 251 0 min 0,0 UV-I 0 W/m 3,6 C 6,8 C 0,0 km/h (0 Bft)
22.03.2024 20:06 6,9 C 3,9 C 80 % 1013,8 hPa 0,0 l/m 0,0 km/h (0 Bft) W-SW 251 0 min 0,0 UV-I 0 W/m 3,7 C 6,9 C 0,0 km/h (0 Bft)
22.03.2024 20:09 6,9 C 3,3 C 79 % 1013,7 hPa 0,0 l/m 0,0 km/h (0 Bft) W-SW 251 0 min 0,0 UV-I 0 W/m 3,5 C 6,9 C 1,6 km/h (1 Bft)
22.03.2024 20:12 6,7 C 3,3 C 80 % 1013,9 hPa 0,0 l/m 0,5 km/h (0 Bft) W-SW 251 0 min 0,0 UV-I 0 W/m 3,5 C 6,7 C 1,6 km/h (1 Bft)
22.03.2024 20:15 6,6 C 3,3 C 81 % 1013,7 hPa 0,0 l/m 0,2 km/h (0 Bft) W-SW 251 0 min 0,0 UV-I 0 W/m 3,6 C 6,6 C 1,6 km/h (1 Bft)
22.03.2024 20:18 6,6 C 3,3 C 81 % 1013,7 hPa 0,0 l/m 0,0 km/h (0 Bft) W-SW 251 0 min 0,0 UV-I 0 W/m 3,6 C 6,6 C 0,0 km/h (0 Bft)
22.03.2024 20:21 6,6 C 3,3 C 81 % 1013,7 hPa 0,0 l/m 0,0 km/h (0 Bft) W-SW 251 0 min 0,0 UV-I 0 W/m 3,6 C 6,6 C 0,0 km/h (0 Bft)
22.03.2024 20:24 6,3 C 2,8 C 81 % 1013,6 hPa 0,0 l/m 0,0 km/h (0 Bft) W-SW 251 0 min 0,0 UV-I 0 W/m 3,3 C 6,3 C 0,0 km/h (0 Bft)
22.03.2024 20:27 6,2 C 3,3 C 82 % 1013,9 hPa 0,0 l/m 3,4 km/h (1 Bft) W-NW 294 0 min 0,0 UV-I 0 W/m 3,4 C 6,2 C 12,9 km/h (3 Bft)
22.03.2024 20:30 6,4 C 3,3 C 82 % 1013,8 hPa 0,0 l/m 3,4 km/h (1 Bft) W-NW 290 0 min 0,0 UV-I 0 W/m 3,6 C 6,4 C 8,0 km/h (2 Bft)
22.03.2024 20:33 6,2 C 3,3 C 81 % 1013,8 hPa 0,0 l/m 1,1 km/h (1 Bft) W-NW 290 0 min 0,0 UV-I 0 W/m 3,2 C 6,2 C 3,2 km/h (1 Bft)
22.03.2024 20:36 5,7 C 2,8 C 81 % 1013,9 hPa 0,0 l/m 1,0 km/h (0 Bft) W-NW 290 0 min 0,0 UV-I 0 W/m 2,7 C 5,7 C 3,2 km/h (1 Bft)
22.03.2024 20:39 5,4 C 2,8 C 82 % 1013,8 hPa 0,0 l/m 0,4 km/h (0 Bft) W-NW 290 0 min 0,0 UV-I 0 W/m 2,6 C 5,4 C 3,2 km/h (1 Bft)
22.03.2024 20:42 5,3 C 2,2 C 83 % 1013,9 hPa 0,0 l/m 0,8 km/h (0 Bft) W-NW 290 0 min 0,0 UV-I 0 W/m 2,7 C 5,3 C 1,6 km/h (1 Bft)
22.03.2024 20:45 5,3 C 1,7 C 84 % 1013,9 hPa 0,0 l/m 2,1 km/h (1 Bft) W-NW 290 0 min 0,0 UV-I 0 W/m 2,8 C 5,3 C 3,2 km/h (1 Bft)
22.03.2024 20:48 5,2 C 2,2 C 84 % 1013,9 hPa 0,0 l/m 0,9 km/h (0 Bft) W-NW 290 0 min 0,0 UV-I 0 W/m 2,7 C 5,2 C 1,6 km/h (1 Bft)
22.03.2024 20:51 5,1 C 2,2 C 84 % 1013,8 hPa 0,0 l/m 0,4 km/h (0 Bft) W-NW 290 0 min 0,0 UV-I 0 W/m 2,6 C 5,1 C 1,6 km/h (1 Bft)
22.03.2024 20:54 4,9 C 2,2 C 84 % 1013,9 hPa 0,0 l/m 1,0 km/h (0 Bft) W-NW 290 0 min 0,0 UV-I 0 W/m 2,4 C 4,9 C 3,2 km/h (1 Bft)
22.03.2024 20:57 4,8 C 2,2 C 84 % 1013,8 hPa 0,0 l/m 1,4 km/h (1 Bft) W-NW 290 0 min 0,0 UV-I 0 W/m 2,3 C 4,8 C 3,2 km/h (1 Bft)
22.03.2024 21:00 5,0 C 2,2 C 86 % 1013,6 hPa 0,0 l/m 1,1 km/h (1 Bft) W-NW 290 0 min 0,0 UV-I 0 W/m 2,9 C 5,0 C 1,6 km/h (1 Bft)
22.03.2024 21:03 5,2 C 2,8 C 86 % 1013,6 hPa 0,0 l/m 1,6 km/h (1 Bft) W-NW 290 0 min 0,0 UV-I 0 W/m 3,1 C 5,2 C 3,2 km/h (1 Bft)
22.03.2024 21:06 5,3 C 2,8 C 86 % 1013,6 hPa 0,0 l/m 0,6 km/h (0 Bft) W-NW 290 0 min 0,0 UV-I 0 W/m 3,2 C 5,3 C 1,6 km/h (1 Bft)
22.03.2024 21:09 5,3 C 2,8 C 86 % 1013,6 hPa 0,0 l/m 0,0 km/h (0 Bft) W-NW 290 0 min 0,0 UV-I 0 W/m 3,2 C 5,3 C 0,0 km/h (0 Bft)
22.03.2024 21:12 5,3 C 2,8 C 86 % 1013,6 hPa 0,0 l/m 0,0 km/h (0 Bft) W-NW 290 0 min 0,0 UV-I 0 W/m 3,2 C 5,3 C 0,0 km/h (0 Bft)
22.03.2024 21:15 5,2 C 2,8 C 86 % 1013,6 hPa 0,0 l/m 0,0 km/h (0 Bft) W-NW 290 0 min 0,0 UV-I 0 W/m 3,1 C 5,2 C 0,0 km/h (0 Bft)
22.03.2024 21:18 5,2 C 2,8 C 86 % 1013,6 hPa 0,0 l/m 0,0 km/h (0 Bft) W-NW 290 0 min 0,0 UV-I 0 W/m 3,1 C 5,2 C 0,0 km/h (0 Bft)
22.03.2024 21:21 5,3 C 3,3 C 87 % 1013,4 hPa 0,0 l/m 0,0 km/h (0 Bft) W-NW 290 0 min 0,0 UV-I 0 W/m 3,3 C 5,3 C 0,0 km/h (0 Bft)
22.03.2024 21:24 5,5 C 3,3 C 87 % 1013,4 hPa 0,0 l/m 0,0 km/h (0 Bft) W-NW 290 0 min 0,0 UV-I 0 W/m 3,5 C 5,5 C 0,0 km/h (0 Bft)
22.03.2024 21:27 4,9 C 2,8 C 85 % 1013,3 hPa 0,0 l/m 0,1 km/h (0 Bft) W-NW 290 0 min 0,0 UV-I 0 W/m 2,6 C 4,9 C 1,6 km/h (1 Bft)
22.03.2024 21:30 4,7 C 2,8 C 86 % 1013,4 hPa 0,0 l/m 0,7 km/h (0 Bft) W-NW 290 0 min 0,0 UV-I 0 W/m 2,6 C 4,7 C 1,6 km/h (1 Bft)
22.03.2024 21:33 4,7 C 2,8 C 86 % 1013,4 hPa 0,0 l/m 0,6 km/h (0 Bft) W-NW 290 0 min 0,0 UV-I 0 W/m 2,6 C 4,7 C 1,6 km/h (1 Bft)
22.03.2024 21:36 4,6 C 2,8 C 87 % 1013,2 hPa 0,0 l/m 1,9 km/h (1 Bft) W-NW 290 0 min 0,0 UV-I 0 W/m 2,6 C 4,6 C 3,2 km/h (1 Bft)
22.03.2024 21:39 4,6 C 2,8 C 87 % 1013,3 hPa 0,0 l/m 3,0 km/h (1 Bft) W-NW 290 0 min 0,0 UV-I 0 W/m 2,6 C 4,6 C 4,8 km/h (1 Bft)
22.03.2024 21:42 4,6 C 2,2 C 87 % 1013,3 hPa 0,0 l/m 3,3 km/h (1 Bft) W-NW 290 0 min 0,0 UV-I 0 W/m 2,6 C 4,6 C 4,8 km/h (1 Bft)
22.03.2024 21:45 4,1 C 2,2 C 86 % 1013,4 hPa 0,0 l/m 0,6 km/h (0 Bft) W-NW 290 0 min 0,0 UV-I 0 W/m 2,0 C 4,1 C 3,2 km/h (1 Bft)
22.03.2024 21:48 4,2 C 2,2 C 87 % 1013,2 hPa 0,0 l/m 1,5 km/h (1 Bft) W-NW 290 0 min 0,0 UV-I 0 W/m 2,2 C 4,2 C 3,2 km/h (1 Bft)
22.03.2024 21:51 4,2 C 2,2 C 87 % 1013,2 hPa 0,0 l/m 0,3 km/h (0 Bft) W-NW 290 0 min 0,0 UV-I 0 W/m 2,2 C 4,2 C 3,2 km/h (1 Bft)
22.03.2024 21:54 4,2 C 2,2 C 88 % 1013,2 hPa 0,0 l/m 0,1 km/h (0 Bft) W-NW 290 0 min 0,0 UV-I 0 W/m 2,4 C 4,2 C 1,6 km/h (1 Bft)
22.03.2024 21:57 4,3 C 2,2 C 88 % 1013,1 hPa 0,0 l/m 0,7 km/h (0 Bft) W-NW 290 0 min 0,0 UV-I 0 W/m 2,5 C 4,3 C 1,6 km/h (1 Bft)
22.03.2024 22:00 4,3 C 2,2 C 88 % 1013,0 hPa 0,0 l/m 1,4 km/h (1 Bft) W-NW 290 0 min 0,0 UV-I 0 W/m 2,5 C 4,3 C 3,2 km/h (1 Bft)
22.03.2024 22:03 4,3 C 2,2 C 88 % 1013,0 hPa 0,0 l/m 1,5 km/h (1 Bft) W-NW 290 0 min 0,0 UV-I 0 W/m 2,5 C 4,3 C 3,2 km/h (1 Bft)
22.03.2024 22:06 4,4 C 2,2 C 89 % 1013,0 hPa 0,0 l/m 0,8 km/h (0 Bft) W-NW 290 0 min 0,0 UV-I 0 W/m 2,7 C 4,4 C 1,6 km/h (1 Bft)
22.03.2024 22:09 4,6 C 2,2 C 89 % 1013,0 hPa 0,0 l/m 0,9 km/h (0 Bft) W-NW 290 0 min 0,0 UV-I 0 W/m 2,9 C 4,6 C 3,2 km/h (1 Bft)
22.03.2024 22:12 4,7 C 2,2 C 89 % 1012,9 hPa 0,0 l/m 1,0 km/h (0 Bft) W-NW 290 0 min 0,0 UV-I 0 W/m 3,0 C 4,7 C 3,2 km/h (1 Bft)
22.03.2024 22:15 4,7 C 2,2 C 89 % 1013,0 hPa 0,0 l/m 1,6 km/h (1 Bft) W-NW 290 0 min 0,0 UV-I 0 W/m 3,0 C 4,7 C 3,2 km/h (1 Bft)
22.03.2024 22:18 4,8 C 1,7 C 89 % 1012,9 hPa 0,0 l/m 1,3 km/h (1 Bft) W-NW 290 0 min 0,0 UV-I 0 W/m 3,1 C 4,8 C 3,2 km/h (1 Bft)
22.03.2024 22:21 4,8 C 2,2 C 89 % 1012,9 hPa 0,0 l/m 2,3 km/h (1 Bft) W-NW 290 0 min 0,0 UV-I 0 W/m 3,1 C 4,8 C 3,2 km/h (1 Bft)
22.03.2024 22:24 4,9 C 2,2 C 89 % 1012,8 hPa 0,0 l/m 2,0 km/h (1 Bft) W-NW 289 0 min 0,0 UV-I 0 W/m 3,2 C 4,9 C 4,8 km/h (1 Bft)
22.03.2024 22:27 4,9 C 2,2 C 89 % 1012,7 hPa 0,0 l/m 0,8 km/h (0 Bft) W-NW 289 0 min 0,0 UV-I 0 W/m 3,2 C 4,9 C 3,2 km/h (1 Bft)
22.03.2024 22:30 4,8 C 1,7 C 89 % 1012,8 hPa 0,0 l/m 1,5 km/h (1 Bft) W-NW 289 0 min 0,0 UV-I 0 W/m 3,1 C 4,8 C 3,2 km/h (1 Bft)
22.03.2024 22:33 4,4 C 1,7 C 88 % 1012,5 hPa 0,0 l/m 0,5 km/h (0 Bft) W-NW 289 0 min 0,0 UV-I 0 W/m 2,6 C 4,4 C 1,6 km/h (1 Bft)
22.03.2024 22:36 4,3 C 1,7 C 89 % 1012,5 hPa 0,0 l/m 0,0 km/h (0 Bft) W-NW 289 0 min 0,0 UV-I 0 W/m 2,7 C 4,3 C 0,0 km/h (0 Bft)
22.03.2024 22:39 4,4 C 2,2 C 90 % 1012,4 hPa 0,0 l/m 0,0 km/h (0 Bft) W-NW 289 0 min 0,0 UV-I 0 W/m 2,9 C 4,4 C 0,0 km/h (0 Bft)
22.03.2024 22:42 4,4 C 1,7 C 89 % 1012,4 hPa 0,0 l/m 0,6 km/h (0 Bft) W-NW 289 0 min 0,0 UV-I 0 W/m 2,7 C 4,4 C 1,6 km/h (1 Bft)
22.03.2024 22:45 4,3 C 1,7 C 89 % 1012,3 hPa 0,0 l/m 0,6 km/h (0 Bft) W-NW 289 0 min 0,0 UV-I 0 W/m 2,7 C 4,3 C 1,6 km/h (1 Bft)
22.03.2024 22:48 4,3 C 1,7 C 90 % 1012,3 hPa 0,0 l/m 0,1 km/h (0 Bft) W-NW 289 0 min 0,0 UV-I 0 W/m 2,8 C 4,3 C 1,6 km/h (1 Bft)
22.03.2024 22:51 4,3 C 1,7 C 90 % 1012,2 hPa 0,0 l/m 0,1 km/h (0 Bft) W-NW 289 0 min 0,0 UV-I 0 W/m 2,8 C 4,3 C 1,6 km/h (1 Bft)
22.03.2024 22:54 4,2 C 1,7 C 90 % 1012,1 hPa 0,0 l/m 0,5 km/h (0 Bft) W-NW 289 0 min 0,0 UV-I 0 W/m 2,7 C 4,2 C 3,2 km/h (1 Bft)
22.03.2024 22:57 4,2 C 1,7 C 90 % 1012,1 hPa 0,0 l/m 1,7 km/h (1 Bft) W-NW 289 0 min 0,0 UV-I 0 W/m 2,7 C 4,2 C 3,2 km/h (1 Bft)
22.03.2024 23:00 4,2 C 1,7 C 90 % 1012,1 hPa 0,0 l/m 0,6 km/h (0 Bft) W-NW 289 0 min 0,0 UV-I 0 W/m 2,7 C 4,2 C 1,6 km/h (1 Bft)
22.03.2024 23:03 4,2 C 1,7 C 90 % 1011,9 hPa 0,0 l/m 0,8 km/h (0 Bft) W-NW 289 0 min 0,0 UV-I 0 W/m 2,7 C 4,2 C 3,2 km/h (1 Bft)
22.03.2024 23:06 4,2 C 2,2 C 91 % 1011,9 hPa 0,0 l/m 1,8 km/h (1 Bft) W-NW 289 0 min 0,0 UV-I 0 W/m 2,9 C 4,2 C 3,2 km/h (1 Bft)
22.03.2024 23:09 4,2 C 2,2 C 90 % 1011,9 hPa 0,0 l/m 0,7 km/h (0 Bft) W-NW 289 0 min 0,0 UV-I 0 W/m 2,7 C 4,2 C 3,2 km/h (1 Bft)
22.03.2024 23:12 4,3 C 2,8 C 91 % 1011,9 hPa 0,0 l/m 0,2 km/h (0 Bft) W-NW 289 0 min 0,0 UV-I 0 W/m 3,0 C 4,3 C 1,6 km/h (1 Bft)
22.03.2024 23:15 4,2 C 2,2 C 90 % 1011,7 hPa 0,0 l/m 0,0 km/h (0 Bft) W-NW 289 0 min 0,0 UV-I 0 W/m 2,7 C 4,2 C 0,0 km/h (0 Bft)
22.03.2024 23:18 4,1 C 2,2 C 90 % 1011,8 hPa 0,0 l/m 1,0 km/h (0 Bft) W-NW 289 0 min 0,0 UV-I 0 W/m 2,6 C 4,1 C 3,2 km/h (1 Bft)
22.03.2024 23:21 4,0 C 2,8 C 90 % 1011,7 hPa 0,0 l/m 2,2 km/h (1 Bft) W-NW 289 0 min 0,0 UV-I 0 W/m 2,5 C 4,0 C 3,2 km/h (1 Bft)
22.03.2024 23:24 3,8 C 2,8 C 90 % 1011,8 hPa 0,0 l/m 0,5 km/h (0 Bft) W-NW 289 0 min 0,0 UV-I 0 W/m 2,3 C 3,8 C 1,6 km/h (1 Bft)
22.03.2024 23:27 3,9 C 3,3 C 91 % 1011,6 hPa 0,0 l/m 0,4 km/h (0 Bft) W-NW 289 0 min 0,0 UV-I 0 W/m 2,6 C 3,9 C 1,6 km/h (1 Bft)
22.03.2024 23:30 3,9 C 3,3 C 91 % 1011,6 hPa 0,0 l/m 0,4 km/h (0 Bft) W-NW 289 0 min 0,0 UV-I 0 W/m 2,6 C 3,9 C 1,6 km/h (1 Bft)
22.03.2024 23:33 4,1 C 3,9 C 91 % 1011,7 hPa 0,0 l/m 0,4 km/h (0 Bft) W-NW 289 0 min 0,0 UV-I 0 W/m 2,8 C 4,1 C 1,6 km/h (1 Bft)
22.03.2024 23:36 4,2 C 3,9 C 91 % 1011,6 hPa 0,0 l/m 0,2 km/h (0 Bft) W-NW 289 0 min 0,0 UV-I 0 W/m 2,9 C 4,2 C 1,6 km/h (1 Bft)
22.03.2024 23:39 4,3 C 3,9 C 91 % 1011,5 hPa 0,0 l/m 0,0 km/h (0 Bft) W-NW 289 0 min 0,0 UV-I 0 W/m 3,0 C 4,3 C 1,6 km/h (1 Bft)
22.03.2024 23:42 4,3 C 3,9 C 91 % 1011,5 hPa 0,0 l/m 0,1 km/h (0 Bft) W-NW 289 0 min 0,0 UV-I 0 W/m 3,0 C 4,3 C 1,6 km/h (1 Bft)
22.03.2024 23:45 4,1 C 3,9 C 91 % 1011,4 hPa 0,0 l/m 0,0 km/h (0 Bft) W-NW 289 0 min 0,0 UV-I 0 W/m 2,8 C 4,1 C 0,0 km/h (0 Bft)
22.03.2024 23:48 4,1 C 3,9 C 91 % 1011,5 hPa 0,0 l/m 0,1 km/h (0 Bft) W-NW 289 0 min 0,0 UV-I 0 W/m 2,8 C 4,1 C 1,6 km/h (1 Bft)
22.03.2024 23:51 4,2 C 3,9 C 91 % 1011,3 hPa 0,0 l/m 0,0 km/h (0 Bft) W-NW 289 0 min 0,0 UV-I 0 W/m 2,9 C 4,2 C 0,0 km/h (0 Bft)
22.03.2024 23:54 4,3 C 3,9 C 91 % 1011,3 hPa 0,0 l/m 0,0 km/h (0 Bft) W-NW 289 0 min 0,0 UV-I 0 W/m 3,0 C 4,3 C 0,0 km/h (0 Bft)
22.03.2024 23:57 4,2 C 3,9 C 91 % 1011,3 hPa 0,0 l/m 0,4 km/h (0 Bft) W-NW 289 0 min 0,0 UV-I 0 W/m 2,9 C 4,2 C 1,6 km/h (1 Bft)
22.03.2024 23:58 4,2 C 3,9 C 91 % 1011,3 hPa 0,0 l/m 0,0 km/h (0 Bft) N 0 0 min 0,0 UV-I 0 W/m 2,9 C 4,2 C 0,0 km/h (0 Bft)
22.03.2024 23:59 4,2 C 3,9 C 91 % 1011,2 hPa 0,0 l/m 0,0 km/h (0 Bft) N 0 0 min 0,0 UV-I 0 W/m 2,9 C 4,2 C 0,0 km/h (0 Bft)
_ Min-Zeit 23:24 20:45 16:12 23:59 - 19:36 - - - - - 21:45 07:13 19:36
Minimum _ 3,8 C 1,7 C 57 % 1011,2 hPa - 0,0 km/h (0 Bft) - - - - - 2,0 C 2,6 C 0,0 km/h (0 Bft)
_ Max-Zeit 15:42 15:15 23:06 00:00 00:00 15:51 - - 14:00 14:21 14:30 14:15 18:12 15:54
Maximum _ 14,9 C 23,3 C 91 % 1025,7 hPa 0,0 l/m 23,0 km/h
S (4 Bft)
- - 3 min 2,7 UV-I 635 W/m 8,6 C 12,8 C 41,8 km/h
S-SO (6 Bft)
Durchschnitt _ 9,3 C 9,3 C 81 % 1018,6 hPa #0,0 l/m 8,5 km/h (2 Bft) S-SW - #3:18 h 1,2 UV-I 193 W/m 6,1 C 7,4 C 13,3 km/h (3 Bft)